Datum - Zeit lokal Temperatur Wind QNH Feuchte
21.06.2024 - 18:00 Uhr 21 °C 10 kmh aus 190° 1013 hPa 73 %
21.06.2024 - 12:00 Uhr 20 °C 6 kmh aus 150° 1016 hPa 78 %
21.06.2024 - 06:00 Uhr 18 °C 2 kmh variabel 1014 hPa 94 %
21.06.2024 - 00:00 Uhr 21 °C 6 kmh aus 150° 1016 hPa 88 %
20.06.2024 - 18:00 Uhr 26 °C 6 kmh aus 90° 1017 hPa 70 %
20.06.2024 - 12:00 Uhr 23 °C 2 kmh variabel 1019 hPa 69 %
20.06.2024 - 06:00 Uhr 17 °C 4 kmh variabel 1019 hPa 88 %
20.06.2024 - 00:00 Uhr 18 °C 14 kmh aus 350° 1019 hPa 83 %
19.06.2024 - 18:00 Uhr 25 °C 20 kmh aus 10° 1016 hPa 61 %
19.06.2024 - 12:00 Uhr 22 °C 10 kmh aus 270° 1015 hPa 73 %
19.06.2024 - 00:00 Uhr 20 °C 6 kmh aus 210° 1012 hPa 78 %
18.06.2024 - 18:00 Uhr 30 °C 10 kmh aus 250° 1012 hPa 35 %
18.06.2024 - 12:00 Uhr 27 °C 6 kmh variabel 1014 hPa 54 %
18.06.2024 - 06:00 Uhr 13 °C 2 kmh variabel 1015 hPa 94 %
18.06.2024 - 00:00 Uhr 15 °C 0 kmh aus 0° 1016 hPa 82 %
17.06.2024 - 18:00 Uhr 21 °C 8 kmh variabel 1015 hPa 64 %
17.06.2024 - 12:00 Uhr 22 °C 14 kmh aus 230° 1014 hPa 57 %
17.06.2024 - 06:00 Uhr 15 °C 4 kmh variabel 1013 hPa 88 %
17.06.2024 - 00:00 Uhr 16 °C 2 kmh variabel 1013 hPa 83 %
16.06.2024 - 18:00 Uhr 22 °C 18 kmh aus 260° 1010 hPa 47 %
16.06.2024 - 12:00 Uhr 20 °C 14 kmh aus 230° 1011 hPa 49 %
16.06.2024 - 06:00 Uhr 12 °C 0 kmh aus 0° 1012 hPa 82 %
16.06.2024 - 00:00 Uhr 12 °C 6 kmh aus 240° 1012 hPa 77 %
15.06.2024 - 18:00 Uhr 20 °C 27 kmh aus 260° 1010 hPa 43 %
15.06.2024 - 12:00 Uhr 17 °C 29 kmh aus 260° 1010 hPa 64 %
15.06.2024 - 06:00 Uhr 13 °C 8 kmh variabel 1009 hPa 94 %
15.06.2024 - 00:00 Uhr 16 °C 0 kmh aus 0° 1009 hPa 77 %
14.06.2024 - 18:00 Uhr 20 °C 12 kmh aus 240° 1011 hPa 60 %
14.06.2024 - 12:00 Uhr 16 °C 12 kmh aus 190° 1013 hPa 68 %
14.06.2024 - 06:00 Uhr 12 °C 4 kmh aus 100° 1012 hPa 82 %
14.06.2024 - 00:00 Uhr 12 °C 4 kmh aus 300° 1015 hPa 72 %
13.06.2024 - 18:00 Uhr 19 °C 4 kmh variabel 1016 hPa 40 %
13.06.2024 - 12:00 Uhr 18 °C 4 kmh variabel 1018 hPa 46 %
13.06.2024 - 06:00 Uhr 9 °C 8 kmh aus 290° 1018 hPa 87 %
13.06.2024 - 00:00 Uhr 13 °C 14 kmh aus 310° 1018 hPa 63 %
12.06.2024 - 18:00 Uhr 17 °C 14 kmh aus 310° 1017 hPa 45 %
12.06.2024 - 12:00 Uhr 16 °C 10 kmh aus 310° 1018 hPa 42 %
12.06.2024 - 06:00 Uhr 8 °C 4 kmh aus 250° 1017 hPa 87 %
11.06.2024 - 18:00 Uhr 16 °C 8 kmh aus 60° 1015 hPa 45 %
11.06.2024 - 12:00 Uhr 13 °C 6 kmh variabel 1016 hPa 55 %
11.06.2024 - 06:00 Uhr 9 °C 12 kmh aus 300° 1013 hPa 76 %
11.06.2024 - 00:00 Uhr 13 °C 31 kmh aus 280° 1011 hPa 67 %
10.06.2024 - 18:00 Uhr 20 °C 23 kmh aus 250° 1007 hPa 46 %
10.06.2024 - 12:00 Uhr 20 °C 12 kmh variabel 1008 hPa 53 %
10.06.2024 - 06:00 Uhr 13 °C 12 kmh aus 310° 1007 hPa 63 %
10.06.2024 - 00:00 Uhr 17 °C 6 kmh aus 310° 1007 hPa 64 %
09.06.2024 - 12:00 Uhr 20 °C 6 kmh variabel 1009 hPa 56 %
09.06.2024 - 06:00 Uhr 14 °C 12 kmh aus 300° 1010 hPa 82 %
09.06.2024 - 00:00 Uhr 17 °C 8 kmh aus 260° 1011 hPa 94 %
08.06.2024 - 18:00 Uhr 22 °C 8 kmh aus 230° 1010 hPa 69 %
08.06.2024 - 12:00 Uhr 23 °C 10 kmh variabel 1013 hPa 57 %
08.06.2024 - 06:00 Uhr 11 °C 0 kmh aus 0° 1015 hPa 88 %
08.06.2024 - 00:00 Uhr 15 °C 8 kmh aus 300° 1017 hPa 77 %
07.06.2024 - 18:00 Uhr 23 °C 16 kmh aus 350° 1016 hPa 47 %
07.06.2024 - 12:00 Uhr 21 °C 6 kmh variabel 1019 hPa 50 %
07.06.2024 - 06:00 Uhr 12 °C 2 kmh variabel 1018 hPa 88 %
06.06.2024 - 18:00 Uhr 23 °C 14 kmh aus 350° 1015 hPa 50 %
06.06.2024 - 12:00 Uhr 22 °C 10 kmh variabel 1016 hPa 57 %
06.06.2024 - 06:00 Uhr 13 °C 0 kmh aus 0° 1016 hPa 94 %
05.06.2024 - 18:00 Uhr 21 °C 6 kmh aus 80° 1013 hPa 64 %
05.06.2024 - 12:00 Uhr 19 °C 16 kmh aus 260° 1014 hPa 60 %
05.06.2024 - 06:00 Uhr 12 °C 4 kmh variabel 1013 hPa 88 %
05.06.2024 - 00:00 Uhr 14 °C 4 kmh variabel 1013 hPa 82 %
04.06.2024 - 18:00 Uhr 22 °C 8 kmh variabel 1012 hPa 47 %
04.06.2024 - 12:00 Uhr 19 °C 8 kmh aus 150° 1015 hPa 56 %
04.06.2024 - 06:00 Uhr 9 °C 4 kmh variabel 1016 hPa 10 %
04.06.2024 - 00:00 Uhr 12 °C 6 kmh aus 320° 1017 hPa 88 %
03.06.2024 - 18:00 Uhr 15 °C 16 kmh aus 300° 1017 hPa 72 %
03.06.2024 - 12:00 Uhr 13 °C 16 kmh aus 330° 1018 hPa 88 %
03.06.2024 - 06:00 Uhr 12 °C 12 kmh aus 340° 1017 hPa 94 %
03.06.2024 - 00:00 Uhr 14 °C 20 kmh aus 320° 1018 hPa 94 %
02.06.2024 - 06:00 Uhr 14 °C 2 kmh aus 190° 1017 hPa 94 %
02.06.2024 - 00:00 Uhr 13 °C 4 kmh variabel 1017 hPa 10 %
01.06.2024 - 18:00 Uhr 14 °C 18 kmh aus 280° 1016 hPa 82 %
01.06.2024 - 12:00 Uhr 14 °C 21 kmh aus 280° 1014 hPa 88 %
01.06.2024 - 06:00 Uhr 12 °C 16 kmh aus 280° 1012 hPa 94 %
01.06.2024 - 00:00 Uhr 12 °C 16 kmh aus 300° 1011 hPa 94 %
31.05.2024 - 18:00 Uhr 13 °C 20 kmh aus 290° 1009 hPa 88 %
31.05.2024 - 12:00 Uhr 12 °C 20 kmh aus 310° 1009 hPa 94 %
31.05.2024 - 06:00 Uhr 12 °C 14 kmh aus 280° 1008 hPa 82 %
30.05.2024 - 18:00 Uhr 20 °C 12 kmh aus 250° 1005 hPa 49 %
30.05.2024 - 12:00 Uhr 18 °C 23 kmh aus 250° 1006 hPa 60 %
30.05.2024 - 00:00 Uhr 14 °C 6 kmh aus 230° 1010 hPa 88 %
29.05.2024 - 18:00 Uhr 17 °C 8 kmh aus 220° 1012 hPa 73 %
29.05.2024 - 12:00 Uhr 18 °C 12 kmh aus 250° 1015 hPa 60 %
29.05.2024 - 06:00 Uhr 12 °C 4 kmh variabel 1016 hPa 82 %
29.05.2024 - 00:00 Uhr 13 °C 6 kmh aus 70° 1018 hPa 77 %
28.05.2024 - 18:00 Uhr 18 °C 12 kmh aus 50° 1019 hPa 49 %
28.05.2024 - 12:00 Uhr 16 °C 14 kmh aus 260° 1021 hPa 52 %
28.05.2024 - 06:00 Uhr 10 °C 12 kmh aus 280° 1019 hPa 88 %
28.05.2024 - 00:00 Uhr 13 °C 14 kmh aus 270° 1018 hPa 94 %
27.05.2024 - 18:00 Uhr 18 °C 10 kmh aus 360° 1016 hPa 73 %
27.05.2024 - 06:00 Uhr 14 °C 2 kmh variabel 1018 hPa 94 %
27.05.2024 - 00:00 Uhr 16 °C 6 kmh variabel 1018 hPa 77 %
26.05.2024 - 18:00 Uhr 21 °C 20 kmh aus 250° 1017 hPa 43 %
26.05.2024 - 12:00 Uhr 21 °C 8 kmh aus 140° 1018 hPa 57 %
26.05.2024 - 06:00 Uhr 8 °C 2 kmh aus 270° 1018 hPa 93 %
26.05.2024 - 00:00 Uhr 12 °C 6 kmh aus 290° 1018 hPa 88 %
25.05.2024 - 12:00 Uhr 17 °C 4 kmh variabel 1018 hPa 64 %
25.05.2024 - 06:00 Uhr 7 °C 4 kmh variabel 1018 hPa 10 %
25.05.2024 - 00:00 Uhr 11 °C 4 kmh variabel 1018 hPa 94 %
24.05.2024 - 12:00 Uhr 15 °C 4 kmh variabel 1018 hPa 77 %
24.05.2024 - 06:00 Uhr 11 °C 4 kmh variabel 1017 hPa 94 %
24.05.2024 - 00:00 Uhr 12 °C 8 kmh aus 240° 1018 hPa 94 %
23.05.2024 - 06:00 Uhr 9 °C 2 kmh aus 320° 1015 hPa 10 %
23.05.2024 - 00:00 Uhr 11 °C 4 kmh variabel 1015 hPa 94 %
22.05.2024 - 12:00 Uhr 18 °C 23 kmh aus 230° 1011 hPa 60 %
22.05.2024 - 06:00 Uhr 12 °C 8 kmh aus 220° 1009 hPa 88 %
22.05.2024 - 00:00 Uhr 13 °C 8 kmh aus 260° 1008 hPa 88 %
21.05.2024 - 18:00 Uhr 15 °C 14 kmh aus 250° 1007 hPa 82 %
21.05.2024 - 12:00 Uhr 15 °C 16 kmh aus 320° 1006 hPa 88 %
21.05.2024 - 06:00 Uhr 14 °C 18 kmh aus 260° 1006 hPa 88 %
21.05.2024 - 00:00 Uhr 15 °C 8 kmh aus 320° 1008 hPa 82 %
20.05.2024 - 18:00 Uhr 22 °C 14 kmh aus 10° 1008 hPa 47 %
20.05.2024 - 12:00 Uhr 21 °C 6 kmh variabel 1010 hPa 60 %
20.05.2024 - 06:00 Uhr 7 °C 4 kmh aus 300° 1011 hPa 10 %
20.05.2024 - 00:00 Uhr 11 °C 4 kmh aus 290° 1011 hPa 88 %
19.05.2024 - 18:00 Uhr 17 °C 12 kmh aus 340° 1010 hPa 68 %
19.05.2024 - 12:00 Uhr 17 °C 10 kmh aus 220° 1012 hPa 64 %
19.05.2024 - 06:00 Uhr 9 °C 6 kmh aus 140° 1011 hPa 94 %
18.05.2024 - 18:00 Uhr 19 °C 12 kmh aus 20° 1010 hPa 56 %
18.05.2024 - 12:00 Uhr 17 °C 18 kmh aus 290° 1012 hPa 64 %
18.05.2024 - 06:00 Uhr 11 °C 8 kmh variabel 1010 hPa 88 %
18.05.2024 - 00:00 Uhr 11 °C 14 kmh variabel 1009 hPa 88 %
17.05.2024 - 18:00 Uhr 11 °C 20 kmh aus 220° 1007 hPa 88 %
17.05.2024 - 12:00 Uhr 11 °C 20 kmh aus 210° 1005 hPa 88 %
17.05.2024 - 06:00 Uhr 11 °C 14 kmh aus 240° 1003 hPa 94 %
16.05.2024 - 12:00 Uhr 19 °C 4 kmh variabel 1006 hPa 60 %
16.05.2024 - 06:00 Uhr 10 °C 6 kmh aus 260° 1006 hPa 94 %
15.05.2024 - 18:00 Uhr 18 °C 8 kmh aus 310° 1005 hPa 73 %
15.05.2024 - 12:00 Uhr 16 °C 6 kmh variabel 1007 hPa 77 %
15.05.2024 - 06:00 Uhr 14 °C 6 kmh aus 320° 1006 hPa 77 %
15.05.2024 - 00:00 Uhr 16 °C 6 kmh aus 70° 1005 hPa 59 %
14.05.2024 - 18:00 Uhr 24 °C 20 kmh aus 70° 1005 hPa 41 %
14.05.2024 - 12:00 Uhr 23 °C 16 kmh aus 90° 1007 hPa 47 %
14.05.2024 - 06:00 Uhr 10 °C 0 kmh aus 0° 1008 hPa 94 %
14.05.2024 - 00:00 Uhr 14 °C 2 kmh variabel 1010 hPa 88 %
13.05.2024 - 18:00 Uhr 23 °C 4 kmh variabel 1011 hPa 47 %
13.05.2024 - 12:00 Uhr 20 °C 6 kmh aus 30° 1014 hPa 56 %
13.05.2024 - 00:00 Uhr 16 °C 4 kmh variabel 1015 hPa 59 %
12.05.2024 - 18:00 Uhr 25 °C 8 kmh aus 40° 1014 hPa 32 %
12.05.2024 - 12:00 Uhr 22 °C 20 kmh aus 60° 1017 hPa 44 %
12.05.2024 - 06:00 Uhr 7 °C 6 kmh aus 260° 1018 hPa 81 %
12.05.2024 - 00:00 Uhr 14 °C 2 kmh variabel 1019 hPa 63 %
11.05.2024 - 18:00 Uhr 23 °C 10 kmh aus 80° 1018 hPa 38 %
11.05.2024 - 12:00 Uhr 20 °C 16 kmh aus 70° 1020 hPa 40 %
11.05.2024 - 06:00 Uhr 7 °C 0 kmh aus 0° 1020 hPa 87 %
11.05.2024 - 00:00 Uhr 13 °C 0 kmh aus 0° 1021 hPa 63 %
10.05.2024 - 18:00 Uhr 22 °C 12 kmh aus 50° 1020 hPa 36 %
10.05.2024 - 12:00 Uhr 19 °C 14 kmh aus 110° 1022 hPa 52 %
10.05.2024 - 06:00 Uhr 6 °C 0 kmh aus 0° 1022 hPa 87 %
10.05.2024 - 00:00 Uhr 11 °C 0 kmh aus 0° 1023 hPa 67 %
09.05.2024 - 18:00 Uhr 19 °C 0 kmh aus 0° 1022 hPa 43 %
09.05.2024 - 12:00 Uhr 17 °C 14 kmh aus 50° 1025 hPa 56 %
09.05.2024 - 06:00 Uhr 5 °C 0 kmh aus 0° 1025 hPa 10 %
09.05.2024 - 00:00 Uhr 10 °C 8 kmh aus 310° 1026 hPa 94 %
08.05.2024 - 12:00 Uhr 12 °C 12 kmh aus 320° 1023 hPa 77 %
08.05.2024 - 06:00 Uhr 9 °C 10 kmh aus 310° 1021 hPa 87 %
08.05.2024 - 00:00 Uhr 11 °C 14 kmh aus 10° 1019 hPa 82 %
07.05.2024 - 18:00 Uhr 13 °C 18 kmh aus 10° 1016 hPa 82 %
07.05.2024 - 12:00 Uhr 14 °C 12 kmh aus 330° 1014 hPa 72 %
07.05.2024 - 06:00 Uhr 10 °C 0 kmh aus 0° 1013 hPa 88 %
07.05.2024 - 00:00 Uhr 13 °C 10 kmh aus 240° 1012 hPa 82 %
06.05.2024 - 18:00 Uhr 15 °C 18 kmh aus 250° 1009 hPa 72 %
06.05.2024 - 12:00 Uhr 15 °C 0 kmh aus 0° 1008 hPa 77 %
06.05.2024 - 06:00 Uhr 13 °C 4 kmh aus 170° 1007 hPa 88 %
06.05.2024 - 00:00 Uhr 13 °C 0 kmh aus 0° 1009 hPa 88 %
05.05.2024 - 18:00 Uhr 19 °C 16 kmh aus 260° 1010 hPa 60 %
05.05.2024 - 12:00 Uhr 16 °C 16 kmh aus 230° 1012 hPa 72 %
05.05.2024 - 06:00 Uhr 13 °C 14 kmh aus 230° 1011 hPa 82 %
05.05.2024 - 00:00 Uhr 15 °C 6 kmh aus 180° 1011 hPa 59 %
04.05.2024 - 18:00 Uhr 19 °C 8 kmh aus 130° 1011 hPa 43 %
04.05.2024 - 12:00 Uhr 16 °C 8 kmh variabel 1015 hPa 59 %
04.05.2024 - 06:00 Uhr 7 °C 0 kmh aus 0° 1016 hPa 93 %
04.05.2024 - 00:00 Uhr 11 °C 2 kmh aus 220° 1016 hPa 77 %
03.05.2024 - 18:00 Uhr 14 °C 14 kmh aus 250° 1015 hPa 55 %
03.05.2024 - 12:00 Uhr 13 °C 25 kmh aus 270° 1014 hPa 59 %
03.05.2024 - 06:00 Uhr 10 °C 10 kmh aus 220° 1010 hPa 88 %
03.05.2024 - 00:00 Uhr 11 °C 16 kmh aus 200° 1007 hPa 88 %
02.05.2024 - 12:00 Uhr 20 °C 6 kmh variabel 998 hPa 60 %
02.05.2024 - 06:00 Uhr 11 °C 4 kmh aus 310° 999 hPa 82 %
02.05.2024 - 00:00 Uhr 16 °C 6 kmh aus 360° 1000 hPa 63 %
01.05.2024 - 18:00 Uhr 25 °C 18 kmh aus 80° 1001 hPa 36 %
01.05.2024 - 12:00 Uhr 22 °C 2 kmh aus 60° 1005 hPa 50 %
01.05.2024 - 06:00 Uhr 9 °C 0 kmh aus 0° 1008 hPa 82 %
01.05.2024 - 00:00 Uhr 11 °C 0 kmh aus 0° 1010 hPa 72 %
30.04.2024 - 18:00 Uhr 26 °C 10 kmh aus 140° 1011 hPa 26 %
30.04.2024 - 12:00 Uhr 21 °C 6 kmh variabel 1015 hPa 50 %
30.04.2024 - 06:00 Uhr 8 °C 0 kmh aus 0° 1016 hPa 87 %
30.04.2024 - 00:00 Uhr 14 °C 8 kmh aus 320° 1018 hPa 72 %
29.04.2024 - 18:00 Uhr 21 °C 18 kmh aus 350° 1018 hPa 50 %
29.04.2024 - 12:00 Uhr 16 °C 10 kmh aus 50° 1021 hPa 55 %
29.04.2024 - 06:00 Uhr 9 °C 0 kmh aus 0° 1020 hPa 87 %
29.04.2024 - 00:00 Uhr 12 °C 6 kmh aus 300° 1019 hPa 63 %
28.04.2024 - 18:00 Uhr 16 °C 18 kmh aus 250° 1016 hPa 52 %
28.04.2024 - 12:00 Uhr 15 °C 12 kmh aus 290° 1013 hPa 63 %
28.04.2024 - 06:00 Uhr 9 °C 0 kmh aus 0° 1008 hPa 76 %
28.04.2024 - 00:00 Uhr 11 °C 4 kmh aus 50° 1007 hPa 54 %
27.04.2024 - 18:00 Uhr 20 °C 20 kmh aus 140° 1006 hPa 28 %
27.04.2024 - 12:00 Uhr 16 °C 6 kmh variabel 1008 hPa 52 %
27.04.2024 - 06:00 Uhr 5 °C 0 kmh aus 0° 1008 hPa 93 %
27.04.2024 - 00:00 Uhr 8 °C 2 kmh aus 130° 1008 hPa 87 %
26.04.2024 - 18:00 Uhr 14 °C 16 kmh aus 250° 1006 hPa 51 %
26.04.2024 - 12:00 Uhr 10 °C 10 kmh aus 210° 1006 hPa 67 %
26.04.2024 - 06:00 Uhr 0 °C 4 kmh variabel 1005 hPa 93 %
26.04.2024 - 00:00 Uhr 2 °C 6 kmh aus 280° 1006 hPa 75 %
25.04.2024 - 18:00 Uhr 9 °C 18 kmh aus 250° 1006 hPa 50 %
25.04.2024 - 12:00 Uhr 7 °C 14 kmh aus 250° 1008 hPa 61 %
25.04.2024 - 00:00 Uhr 2 °C 10 kmh variabel 1008 hPa 87 %
24.04.2024 - 18:00 Uhr 7 °C 10 kmh aus 210° 1007 hPa 61 %
24.04.2024 - 12:00 Uhr 5 °C 18 kmh aus 250° 1009 hPa 66 %
24.04.2024 - 06:00 Uhr 2 °C 2 kmh variabel 1011 hPa 70 %
24.04.2024 - 00:00 Uhr 2 °C 6 kmh aus 270° 1013 hPa 70 %
23.04.2024 - 18:00 Uhr 8 °C 14 kmh aus 10° 1013 hPa 50 %
23.04.2024 - 12:00 Uhr 6 °C 16 kmh aus 340° 1016 hPa 57 %
23.04.2024 - 06:00 Uhr -1 °C 10 kmh aus 340° 1016 hPa 86 %
23.04.2024 - 00:00 Uhr 3 °C 12 kmh aus 350° 1018 hPa 75 %
22.04.2024 - 18:00 Uhr 7 °C 16 kmh aus 350° 1017 hPa 53 %
22.04.2024 - 12:00 Uhr 5 °C 16 kmh aus 50° 1020 hPa 61 %
22.04.2024 - 06:00 Uhr 2 °C 12 kmh aus 10° 1019 hPa 81 %
22.04.2024 - 00:00 Uhr 3 °C 12 kmh aus 30° 1020 hPa 87 %
21.04.2024 - 12:00 Uhr 4 °C 18 kmh aus 310° 1017 hPa 70 %
21.04.2024 - 06:00 Uhr 3 °C 20 kmh aus 270° 1016 hPa 87 %
21.04.2024 - 00:00 Uhr 3 °C 4 kmh variabel 1020 hPa 87 %
20.04.2024 - 18:00 Uhr 7 °C 25 kmh aus 300° 1019 hPa 71 %
20.04.2024 - 12:00 Uhr 6 °C 27 kmh aus 330° 1018 hPa 66 %
20.04.2024 - 06:00 Uhr 4 °C 18 kmh aus 270° 1013 hPa 81 %
20.04.2024 - 00:00 Uhr 4 °C 18 kmh aus 280° 1011 hPa 87 %
19.04.2024 - 18:00 Uhr 5 °C 31 kmh aus 230° 1008 hPa 81 %
19.04.2024 - 12:00 Uhr 5 °C 25 kmh aus 220° 1013 hPa 81 %
19.04.2024 - 06:00 Uhr 4 °C 12 kmh aus 230° 1017 hPa 81 %
19.04.2024 - 00:00 Uhr 4 °C 6 kmh aus 220° 1019 hPa 81 %
18.04.2024 - 18:00 Uhr 6 °C 10 kmh aus 350° 1017 hPa 87 %
18.04.2024 - 12:00 Uhr 6 °C 12 kmh aus 300° 1015 hPa 81 %
18.04.2024 - 06:00 Uhr 3 °C 8 kmh aus 260° 1011 hPa 87 %
18.04.2024 - 00:00 Uhr 3 °C 4 kmh variabel 1010 hPa 87 %
17.04.2024 - 18:00 Uhr 8 °C 14 kmh aus 240° 1009 hPa 66 %
17.04.2024 - 12:00 Uhr 5 °C 29 kmh aus 310° 1009 hPa 87 %
17.04.2024 - 06:00 Uhr 4 °C 23 kmh aus 270° 1007 hPa 87 %
17.04.2024 - 00:00 Uhr 6 °C 20 kmh aus 250° 1007 hPa 81 %
16.04.2024 - 18:00 Uhr 11 °C 35 kmh aus 260° 1006 hPa 54 %
16.04.2024 - 12:00 Uhr 9 °C 33 kmh aus 240° 1007 hPa 54 %
16.04.2024 - 06:00 Uhr 4 °C 16 kmh aus 210° 1008 hPa 81 %
16.04.2024 - 00:00 Uhr 4 °C 20 kmh aus 250° 1011 hPa 81 %
15.04.2024 - 18:00 Uhr 17 °C 33 kmh aus 260° 1005 hPa 42 %
15.04.2024 - 12:00 Uhr 14 °C 10 kmh aus 270° 1012 hPa 72 %
15.04.2024 - 06:00 Uhr 14 °C 4 kmh variabel 1013 hPa 77 %
14.04.2024 - 18:00 Uhr 23 °C 18 kmh aus 300° 1018 hPa 47 %
14.04.2024 - 12:00 Uhr 22 °C 6 kmh variabel 1022 hPa 50 %
14.04.2024 - 06:00 Uhr 10 °C 0 kmh aus 0° 1022 hPa 76 %
14.04.2024 - 00:00 Uhr 15 °C 0 kmh aus 0° 1023 hPa 72 %
13.04.2024 - 18:00 Uhr 26 °C 10 kmh aus 240° 1024 hPa 32 %
13.04.2024 - 12:00 Uhr 20 °C 6 kmh aus 110° 1028 hPa 49 %
13.04.2024 - 06:00 Uhr 7 °C 2 kmh variabel 1029 hPa 87 %
13.04.2024 - 00:00 Uhr 10 °C 8 kmh aus 260° 1030 hPa 76 %
12.04.2024 - 18:00 Uhr 20 °C 14 kmh aus 360° 1030 hPa 43 %
12.04.2024 - 12:00 Uhr 17 °C 4 kmh variabel 1033 hPa 52 %
12.04.2024 - 06:00 Uhr 4 °C 0 kmh aus 0° 1033 hPa 87 %
12.04.2024 - 00:00 Uhr 9 °C 12 kmh aus 300° 1033 hPa 66 %
11.04.2024 - 18:00 Uhr 17 °C 2 kmh variabel 1032 hPa 39 %
11.04.2024 - 12:00 Uhr 14 °C 6 kmh variabel 1033 hPa 51 %
11.04.2024 - 06:00 Uhr 3 °C 4 kmh variabel 1032 hPa 81 %
11.04.2024 - 00:00 Uhr 8 °C 2 kmh variabel 1032 hPa 62 %
10.04.2024 - 18:00 Uhr 13 °C 10 kmh aus 350° 1029 hPa 44 %
10.04.2024 - 12:00 Uhr 11 °C 8 kmh variabel 1029 hPa 50 %
10.04.2024 - 06:00 Uhr 4 °C 10 kmh aus 230° 1025 hPa 87 %
10.04.2024 - 00:00 Uhr 8 °C 12 kmh aus 200° 1022 hPa 71 %
09.04.2024 - 18:00 Uhr 10 °C 16 kmh aus 230° 1019 hPa 58 %
09.04.2024 - 12:00 Uhr 10 °C 31 kmh aus 260° 1015 hPa 67 %
09.04.2024 - 06:00 Uhr 15 °C 12 kmh aus 300° 1007 hPa 51 %
09.04.2024 - 00:00 Uhr 22 °C 12 kmh aus 130° 1007 hPa 33 %
08.04.2024 - 18:00 Uhr 27 °C 6 kmh aus 220° 1009 hPa 21 %
08.04.2024 - 12:00 Uhr 23 °C 8 kmh variabel 1011 hPa 41 %
08.04.2024 - 06:00 Uhr 12 °C 6 kmh aus 230° 1012 hPa 77 %
08.04.2024 - 00:00 Uhr 19 °C 2 kmh variabel 1012 hPa 46 %
07.04.2024 - 18:00 Uhr 23 °C 10 kmh aus 120° 1016 hPa 44 %
07.04.2024 - 12:00 Uhr 20 °C 12 kmh aus 10° 1019 hPa 49 %
07.04.2024 - 06:00 Uhr 13 °C 4 kmh variabel 1016 hPa 67 %
07.04.2024 - 00:00 Uhr 14 °C 2 kmh variabel 1016 hPa 63 %
06.04.2024 - 18:00 Uhr 27 °C 14 kmh aus 190° 1015 hPa 23 %
06.04.2024 - 12:00 Uhr 22 °C 12 kmh aus 130° 1017 hPa 44 %
06.04.2024 - 06:00 Uhr 9 °C 4 kmh aus 250° 1017 hPa 82 %
06.04.2024 - 00:00 Uhr 16 °C 6 kmh aus 240° 1016 hPa 55 %
05.04.2024 - 18:00 Uhr 21 °C 18 kmh aus 250° 1015 hPa 43 %
05.04.2024 - 12:00 Uhr 19 °C 12 kmh aus 170° 1015 hPa 56 %
05.04.2024 - 06:00 Uhr 10 °C 4 kmh aus 50° 1016 hPa 94 %
05.04.2024 - 00:00 Uhr 11 °C 6 kmh aus 190° 1016 hPa 88 %
04.04.2024 - 18:00 Uhr 15 °C 23 kmh aus 230° 1013 hPa 68 %
04.04.2024 - 12:00 Uhr 14 °C 16 kmh aus 220° 1013 hPa 72 %
04.04.2024 - 06:00 Uhr 11 °C 8 kmh aus 200° 1013 hPa 77 %
04.04.2024 - 00:00 Uhr 11 °C 10 kmh aus 210° 1012 hPa 82 %
03.04.2024 - 18:00 Uhr 10 °C 12 kmh aus 200° 1010 hPa 94 %
03.04.2024 - 12:00 Uhr 13 °C 12 kmh aus 180° 1009 hPa 55 %
03.04.2024 - 06:00 Uhr 6 °C 2 kmh aus 150° 1009 hPa 76 %
03.04.2024 - 00:00 Uhr 9 °C 6 kmh aus 220° 1012 hPa 62 %
02.04.2024 - 18:00 Uhr 13 °C 16 kmh aus 220° 1012 hPa 55 %
02.04.2024 - 12:00 Uhr 11 °C 25 kmh aus 250° 1012 hPa 62 %
02.04.2024 - 06:00 Uhr 7 °C 10 kmh aus 220° 1009 hPa 76 %
02.04.2024 - 00:00 Uhr 8 °C 14 kmh aus 210° 1006 hPa 76 %
01.04.2024 - 18:00 Uhr 10 °C 21 kmh aus 240° 1003 hPa 67 %
01.04.2024 - 12:00 Uhr 10 °C 18 kmh aus 220° 998 hPa 76 %
01.04.2024 - 06:00 Uhr 9 °C 4 kmh aus 240° 992 hPa 94 %
01.04.2024 - 00:00 Uhr 13 °C 16 kmh aus 330° 995 hPa 67 %
31.03.2024 - 12:00 Uhr 15 °C 18 kmh aus 90° 997 hPa 59 %
31.03.2024 - 06:00 Uhr 7 °C 2 kmh variabel 999 hPa 87 %
31.03.2024 - 00:00 Uhr 7 °C 6 kmh aus 230° 999 hPa 87 %
30.03.2024 - 18:00 Uhr 14 °C 25 kmh aus 310° 999 hPa 55 %
30.03.2024 - 12:00 Uhr 15 °C 4 kmh variabel 997 hPa 63 %
30.03.2024 - 06:00 Uhr 9 °C 12 kmh aus 260° 998 hPa 58 %
30.03.2024 - 00:00 Uhr 8 °C 10 kmh aus 270° 998 hPa 87 %
29.03.2024 - 18:00 Uhr 15 °C 14 kmh aus 20° 998 hPa 59 %
29.03.2024 - 12:00 Uhr 11 °C 6 kmh aus 100° 999 hPa 77 %
29.03.2024 - 06:00 Uhr 6 °C 6 kmh variabel 998 hPa 76 %
29.03.2024 - 00:00 Uhr 5 °C 2 kmh variabel 1000 hPa 66 %
28.03.2024 - 12:00 Uhr 9 °C 29 kmh aus 220° 993 hPa 62 %
28.03.2024 - 06:00 Uhr 1 °C 4 kmh variabel 989 hPa 87 %
28.03.2024 - 00:00 Uhr 5 °C 10 kmh aus 200° 990 hPa 81 %
27.03.2024 - 18:00 Uhr 6 °C 21 kmh aus 260° 991 hPa 87 %
27.03.2024 - 12:00 Uhr 13 °C 20 kmh aus 290° 986 hPa 63 %
27.03.2024 - 06:00 Uhr 5 °C 8 kmh aus 260° 985 hPa 87 %
27.03.2024 - 00:00 Uhr 9 °C 6 kmh aus 60° 988 hPa 71 %
26.03.2024 - 18:00 Uhr 15 °C 14 kmh aus 110° 989 hPa 48 %
26.03.2024 - 12:00 Uhr 12 °C 6 kmh aus 80° 993 hPa 51 %
26.03.2024 - 06:00 Uhr 2 °C 2 kmh variabel 996 hPa 81 %
26.03.2024 - 00:00 Uhr 4 °C 10 kmh aus 90° 998 hPa 70 %
25.03.2024 - 18:00 Uhr 10 °C 12 kmh aus 100° 1001 hPa 43 %
25.03.2024 - 12:00 Uhr 8 °C 8 kmh variabel 1007 hPa 57 %
25.03.2024 - 06:00 Uhr 3 °C 6 kmh aus 210° 1008 hPa 87 %
25.03.2024 - 00:00 Uhr 4 °C 16 kmh aus 220° 1009 hPa 81 %
24.03.2024 - 18:00 Uhr 5 °C 18 kmh aus 200° 1008 hPa 81 %
24.03.2024 - 12:00 Uhr 6 °C 25 kmh aus 230° 1008 hPa 66 %
24.03.2024 - 06:00 Uhr 3 °C 20 kmh aus 230° 1008 hPa 81 %
24.03.2024 - 00:00 Uhr 4 °C 12 kmh aus 190° 1011 hPa 75 %
23.03.2024 - 12:00 Uhr 9 °C 37 kmh aus 270° 1012 hPa 58 %
23.03.2024 - 06:00 Uhr 11 °C 10 kmh aus 200° 1006 hPa 72 %
23.03.2024 - 00:00 Uhr 8 °C 4 kmh variabel 1011 hPa 71 %
22.03.2024 - 12:00 Uhr 17 °C 8 kmh variabel 1019 hPa 49 %
22.03.2024 - 06:00 Uhr 5 °C 4 kmh aus 110° 1022 hPa 93 %
22.03.2024 - 00:00 Uhr 9 °C 2 kmh variabel 1024 hPa 82 %
21.03.2024 - 18:00 Uhr 14 °C 18 kmh aus 330° 1023 hPa 59 %
21.03.2024 - 12:00 Uhr 16 °C 20 kmh aus 290° 1022 hPa 59 %
21.03.2024 - 06:00 Uhr 7 °C 6 kmh aus 50° 1019 hPa 93 %
21.03.2024 - 00:00 Uhr 8 °C 4 kmh variabel 1019 hPa 76 %
20.03.2024 - 18:00 Uhr 17 °C 6 kmh aus 80° 1018 hPa 52 %
20.03.2024 - 12:00 Uhr 16 °C 4 kmh variabel 1019 hPa 55 %
20.03.2024 - 06:00 Uhr 3 °C 2 kmh aus 70° 1019 hPa 10 %
20.03.2024 - 00:00 Uhr 7 °C 2 kmh variabel 1019 hPa 93 %
19.03.2024 - 18:00 Uhr 15 °C 4 kmh variabel 1018 hPa 55 %
19.03.2024 - 12:00 Uhr 13 °C 4 kmh variabel 1019 hPa 72 %
19.03.2024 - 06:00 Uhr 3 °C 2 kmh variabel 1018 hPa 10 %
19.03.2024 - 00:00 Uhr 8 °C 2 kmh variabel 1018 hPa 10 %
18.03.2024 - 18:00 Uhr 11 °C 8 kmh aus 310° 1016 hPa 88 %
18.03.2024 - 12:00 Uhr 10 °C 2 kmh variabel 1015 hPa 94 %
18.03.2024 - 06:00 Uhr 8 °C 4 kmh variabel 1015 hPa 93 %
18.03.2024 - 00:00 Uhr 9 °C 2 kmh aus 270° 1018 hPa 87 %
17.03.2024 - 18:00 Uhr 12 °C 6 kmh aus 40° 1019 hPa 63 %
17.03.2024 - 12:00 Uhr 12 °C 6 kmh aus 130° 1022 hPa 58 %
17.03.2024 - 06:00 Uhr 5 °C 2 kmh variabel 1022 hPa 93 %
17.03.2024 - 00:00 Uhr 7 °C 2 kmh aus 210° 1024 hPa 93 %
15.03.2024 - 18:00 Uhr 14 °C 20 kmh aus 230° 1013 hPa 63 %
15.03.2024 - 06:00 Uhr 5 °C 4 kmh variabel 1012 hPa 10 %
15.03.2024 - 00:00 Uhr 8 °C 2 kmh variabel 1013 hPa 87 %
14.03.2024 - 18:00 Uhr 16 °C 10 kmh aus 90° 1012 hPa 68 %
14.03.2024 - 12:00 Uhr 13 °C 4 kmh variabel 1015 hPa 72 %
14.03.2024 - 06:00 Uhr 6 °C 2 kmh variabel 1016 hPa 93 %
14.03.2024 - 00:00 Uhr 8 °C 2 kmh variabel 1017 hPa 93 %
13.03.2024 - 18:00 Uhr 12 °C 14 kmh aus 260° 1017 hPa 72 %
13.03.2024 - 12:00 Uhr 10 °C 6 kmh aus 230° 1017 hPa 88 %
13.03.2024 - 06:00 Uhr 5 °C 4 kmh variabel 1015 hPa 93 %
13.03.2024 - 00:00 Uhr 6 °C 10 kmh aus 190° 1017 hPa 87 %
12.03.2024 - 18:00 Uhr 8 °C 18 kmh aus 250° 1017 hPa 71 %
12.03.2024 - 12:00 Uhr 8 °C 12 kmh variabel 1017 hPa 76 %
12.03.2024 - 06:00 Uhr 6 °C 12 kmh aus 230° 1014 hPa 76 %
11.03.2024 - 18:00 Uhr 10 °C 8 kmh aus 90° 1007 hPa 71 %
11.03.2024 - 12:00 Uhr 12 °C 12 kmh aus 230° 1005 hPa 54 %
11.03.2024 - 06:00 Uhr 3 °C 4 kmh variabel 1002 hPa 87 %
11.03.2024 - 00:00 Uhr 6 °C 14 kmh aus 200° 999 hPa 81 %
10.03.2024 - 18:00 Uhr 9 °C 14 kmh aus 320° 995 hPa 66 %
10.03.2024 - 12:00 Uhr 11 °C 6 kmh aus 30° 992 hPa 54 %
10.03.2024 - 06:00 Uhr 6 °C 8 kmh aus 100° 993 hPa 71 %
10.03.2024 - 00:00 Uhr 5 °C 6 kmh aus 70° 996 hPa 76 %
09.03.2024 - 18:00 Uhr 11 °C 16 kmh aus 80° 999 hPa 62 %
09.03.2024 - 12:00 Uhr 12 °C 14 kmh aus 70° 1001 hPa 58 %
09.03.2024 - 06:00 Uhr 2 °C 12 kmh aus 70° 1003 hPa 87 %
09.03.2024 - 00:00 Uhr 2 °C 6 kmh aus 90° 1005 hPa 81 %
08.03.2024 - 18:00 Uhr 8 °C 14 kmh aus 80° 1006 hPa 66 %
08.03.2024 - 12:00 Uhr 5 °C 14 kmh aus 80° 1011 hPa 76 %
08.03.2024 - 06:00 Uhr -1 °C 8 kmh aus 90° 1013 hPa 93 %
08.03.2024 - 00:00 Uhr 2 °C 14 kmh aus 80° 1016 hPa 87 %
07.03.2024 - 18:00 Uhr 6 °C 12 kmh aus 80° 1017 hPa 71 %
07.03.2024 - 12:00 Uhr 5 °C 12 kmh aus 80° 1019 hPa 76 %
07.03.2024 - 06:00 Uhr 2 °C 10 kmh aus 20° 1020 hPa 81 %
07.03.2024 - 00:00 Uhr 6 °C 10 kmh aus 10° 1021 hPa 87 %
06.03.2024 - 18:00 Uhr 6 °C 14 kmh aus 340° 1020 hPa 93 %
06.03.2024 - 12:00 Uhr 6 °C 14 kmh aus 320° 1020 hPa 87 %
06.03.2024 - 06:00 Uhr 5 °C 4 kmh aus 260° 1017 hPa 87 %
06.03.2024 - 00:00 Uhr 4 °C 6 kmh aus 260° 1016 hPa 93 %
05.03.2024 - 00:00 Uhr 7 °C 6 kmh aus 10° 1012 hPa 87 %
04.03.2024 - 18:00 Uhr 8 °C 8 kmh aus 30° 1010 hPa 82 %
04.03.2024 - 12:00 Uhr 8 °C 12 kmh aus 290° 1010 hPa 87 %
04.03.2024 - 06:00 Uhr 6 °C 6 kmh aus 230° 1007 hPa 87 %
04.03.2024 - 00:00 Uhr 8 °C 4 kmh variabel 1002 hPa 76 %
03.03.2024 - 18:00 Uhr 15 °C 6 kmh aus 150° 998 hPa 45 %
03.03.2024 - 12:00 Uhr 12 °C 2 kmh aus 90° 998 hPa 63 %
03.03.2024 - 06:00 Uhr 3 °C 4 kmh variabel 998 hPa 10 %
03.03.2024 - 00:00 Uhr 6 °C 12 kmh aus 80° 999 hPa 87 %
02.03.2024 - 18:00 Uhr 11 °C 8 kmh aus 90° 1001 hPa 67 %
02.03.2024 - 12:00 Uhr 12 °C 10 kmh aus 110° 1004 hPa 58 %
02.03.2024 - 06:00 Uhr 2 °C 2 kmh variabel 1004 hPa 93 %
02.03.2024 - 00:00 Uhr 6 °C 6 kmh aus 140° 1004 hPa 87 %
01.03.2024 - 18:00 Uhr 8 °C 8 kmh aus 60° 1006 hPa 82 %
01.03.2024 - 12:00 Uhr 8 °C 10 kmh aus 200° 1007 hPa 87 %
01.03.2024 - 06:00 Uhr 3 °C 2 kmh aus 70° 1006 hPa 93 %
01.03.2024 - 00:00 Uhr 2 °C 4 kmh aus 70° 1006 hPa 93 %
29.02.2024 - 18:00 Uhr 8 °C 16 kmh aus 80° 1008 hPa 76 %
29.02.2024 - 12:00 Uhr 8 °C 8 kmh aus 90° 1014 hPa 71 %
29.02.2024 - 06:00 Uhr -2 °C 2 kmh variabel 1017 hPa 10 %
29.02.2024 - 00:00 Uhr 2 °C 2 kmh aus 140° 1020 hPa 93 %
28.02.2024 - 18:00 Uhr 6 °C 4 kmh variabel 1021 hPa 76 %
28.02.2024 - 12:00 Uhr 6 °C 4 kmh variabel 1021 hPa 76 %
28.02.2024 - 06:00 Uhr 6 °C 14 kmh aus 330° 1018 hPa 81 %
28.02.2024 - 00:00 Uhr 7 °C 12 kmh aus 360° 1015 hPa 81 %
27.02.2024 - 18:00 Uhr 8 °C 18 kmh aus 350° 1012 hPa 76 %
27.02.2024 - 12:00 Uhr 7 °C 14 kmh aus 350° 1011 hPa 76 %
27.02.2024 - 06:00 Uhr 7 °C 12 kmh aus 350° 1008 hPa 71 %
27.02.2024 - 00:00 Uhr 8 °C 10 kmh aus 30° 1006 hPa 76 %
26.02.2024 - 18:00 Uhr 10 °C 14 kmh aus 50° 1001 hPa 62 %
26.02.2024 - 12:00 Uhr 9 °C 10 kmh aus 70° 999 hPa 62 %
26.02.2024 - 06:00 Uhr 6 °C 6 kmh aus 160° 997 hPa 71 %
26.02.2024 - 00:00 Uhr 5 °C 10 kmh aus 80° 997 hPa 76 %
25.02.2024 - 18:00 Uhr 8 °C 8 kmh aus 100° 1000 hPa 57 %
25.02.2024 - 12:00 Uhr 9 °C 14 kmh variabel 1005 hPa 54 %
25.02.2024 - 06:00 Uhr -2 °C 6 kmh aus 30° 1006 hPa 93 %
25.02.2024 - 00:00 Uhr 1 °C 2 kmh aus 270° 1007 hPa 87 %
24.02.2024 - 18:00 Uhr 5 °C 12 kmh aus 160° 1005 hPa 76 %
24.02.2024 - 12:00 Uhr 7 °C 18 kmh aus 220° 1004 hPa 57 %
24.02.2024 - 06:00 Uhr 1 °C 2 kmh aus 280° 999 hPa 87 %
24.02.2024 - 00:00 Uhr 3 °C 4 kmh variabel 998 hPa 70 %
23.02.2024 - 18:00 Uhr 7 °C 8 kmh aus 150° 997 hPa 66 %
23.02.2024 - 12:00 Uhr 6 °C 14 kmh aus 160° 999 hPa 66 %
23.02.2024 - 06:00 Uhr 4 °C 4 kmh variabel 998 hPa 81 %
22.02.2024 - 18:00 Uhr 10 °C 25 kmh aus 200° 993 hPa 82 %
22.02.2024 - 12:00 Uhr 10 °C 27 kmh aus 200° 999 hPa 82 %
22.02.2024 - 06:00 Uhr 9 °C 18 kmh aus 200° 1003 hPa 82 %
22.02.2024 - 00:00 Uhr 12 °C 14 kmh aus 190° 1009 hPa 51 %
21.02.2024 - 18:00 Uhr 10 °C 8 kmh aus 150° 1014 hPa 62 %
21.02.2024 - 12:00 Uhr 10 °C 10 kmh aus 220° 1020 hPa 58 %
21.02.2024 - 06:00 Uhr 5 °C 4 kmh variabel 1023 hPa 76 %
21.02.2024 - 00:00 Uhr 5 °C 4 kmh variabel 1027 hPa 81 %
20.02.2024 - 18:00 Uhr 8 °C 10 kmh aus 230° 1028 hPa 66 %
20.02.2024 - 12:00 Uhr 9 °C 14 kmh aus 260° 1030 hPa 66 %
20.02.2024 - 06:00 Uhr 6 °C 20 kmh aus 300° 1028 hPa 81 %
19.02.2024 - 12:00 Uhr 9 °C 29 kmh aus 270° 1030 hPa 66 %
19.02.2024 - 00:00 Uhr 8 °C 14 kmh aus 240° 1026 hPa 87 %
18.02.2024 - 18:00 Uhr 11 °C 16 kmh aus 240° 1026 hPa 67 %
18.02.2024 - 12:00 Uhr 12 °C 6 kmh aus 110° 1030 hPa 63 %
18.02.2024 - 06:00 Uhr 3 °C 2 kmh variabel 1032 hPa 10 %
18.02.2024 - 00:00 Uhr 6 °C 4 kmh aus 280° 1034 hPa 87 %
17.02.2024 - 18:00 Uhr 10 °C 4 kmh variabel 1032 hPa 67 %
17.02.2024 - 12:00 Uhr 11 °C 18 kmh aus 320° 1031 hPa 77 %
17.02.2024 - 06:00 Uhr 10 °C 8 kmh aus 260° 1026 hPa 88 %
17.02.2024 - 00:00 Uhr 11 °C 4 kmh aus 240° 1023 hPa 94 %
16.02.2024 - 18:00 Uhr 14 °C 10 kmh aus 250° 1019 hPa 72 %
16.02.2024 - 12:00 Uhr 17 °C 18 kmh aus 240° 1017 hPa 49 %
16.02.2024 - 06:00 Uhr 7 °C 4 kmh aus 110° 1015 hPa 93 %
16.02.2024 - 00:00 Uhr 8 °C 2 kmh variabel 1015 hPa 82 %
15.02.2024 - 18:00 Uhr 12 °C 6 kmh aus 100° 1016 hPa 82 %
15.02.2024 - 12:00 Uhr 13 °C 6 kmh aus 80° 1019 hPa 67 %
15.02.2024 - 06:00 Uhr 6 °C 2 kmh variabel 1021 hPa 93 %
15.02.2024 - 00:00 Uhr 11 °C 4 kmh variabel 1021 hPa 77 %
14.02.2024 - 18:00 Uhr 12 °C 4 kmh variabel 1021 hPa 72 %
14.02.2024 - 12:00 Uhr 11 °C 16 kmh aus 210° 1022 hPa 67 %
14.02.2024 - 06:00 Uhr 2 °C 2 kmh variabel 1021 hPa 93 %
14.02.2024 - 00:00 Uhr 1 °C 4 kmh aus 280° 1021 hPa 81 %
13.02.2024 - 18:00 Uhr 7 °C 6 kmh aus 340° 1020 hPa 61 %
13.02.2024 - 12:00 Uhr 9 °C 18 kmh aus 240° 1020 hPa 62 %
13.02.2024 - 06:00 Uhr 4 °C 4 kmh variabel 1018 hPa 81 %
13.02.2024 - 00:00 Uhr 5 °C 10 kmh aus 260° 1014 hPa 81 %
12.02.2024 - 18:00 Uhr 6 °C 14 kmh aus 260° 1008 hPa 71 %
12.02.2024 - 06:00 Uhr 6 °C 12 kmh aus 220° 1002 hPa 87 %
12.02.2024 - 00:00 Uhr 6 °C 8 kmh aus 190° 999 hPa 81 %
11.02.2024 - 18:00 Uhr 8 °C 10 kmh aus 230° 996 hPa 76 %
11.02.2024 - 12:00 Uhr 8 °C 12 kmh aus 210° 994 hPa 82 %
11.02.2024 - 06:00 Uhr 5 °C 20 kmh aus 230° 991 hPa 93 %
11.02.2024 - 00:00 Uhr 8 °C 6 kmh aus 230° 987 hPa 93 %
10.02.2024 - 18:00 Uhr 9 °C 8 kmh aus 320° 984 hPa 87 %
10.02.2024 - 12:00 Uhr 8 °C 4 kmh variabel 987 hPa 93 %
10.02.2024 - 06:00 Uhr 7 °C 4 kmh variabel 988 hPa 10 %
10.02.2024 - 00:00 Uhr 8 °C 6 kmh aus 290° 990 hPa 10 %
09.02.2024 - 12:00 Uhr 13 °C 14 kmh aus 200° 992 hPa 67 %
09.02.2024 - 06:00 Uhr 10 °C 10 kmh aus 160° 993 hPa 82 %
09.02.2024 - 00:00 Uhr 9 °C 4 kmh variabel 996 hPa 82 %
08.02.2024 - 18:00 Uhr 12 °C 12 kmh aus 200° 999 hPa 67 %
08.02.2024 - 12:00 Uhr 11 °C 16 kmh aus 210° 1002 hPa 82 %
08.02.2024 - 06:00 Uhr 9 °C 14 kmh aus 220° 1003 hPa 82 %
08.02.2024 - 00:00 Uhr 8 °C 16 kmh aus 210° 1004 hPa 87 %
07.02.2024 - 18:00 Uhr 9 °C 21 kmh aus 220° 1006 hPa 71 %
07.02.2024 - 12:00 Uhr 10 °C 42 kmh aus 230° 1009 hPa 67 %
07.02.2024 - 06:00 Uhr 8 °C 20 kmh aus 220° 1011 hPa 71 %
07.02.2024 - 00:00 Uhr 6 °C 18 kmh aus 200° 1015 hPa 71 %
06.02.2024 - 18:00 Uhr 7 °C 18 kmh aus 210° 1017 hPa 71 %
06.02.2024 - 12:00 Uhr 7 °C 18 kmh aus 200° 1019 hPa 76 %
06.02.2024 - 06:00 Uhr 0 °C 4 kmh variabel 1020 hPa 93 %
06.02.2024 - 00:00 Uhr 3 °C 6 kmh aus 60° 1020 hPa 87 %
05.02.2024 - 18:00 Uhr 11 °C 6 kmh aus 210° 1021 hPa 58 %
05.02.2024 - 12:00 Uhr 9 °C 18 kmh aus 220° 1025 hPa 71 %
05.02.2024 - 06:00 Uhr 6 °C 16 kmh aus 180° 1026 hPa 87 %
05.02.2024 - 00:00 Uhr 6 °C 6 kmh aus 180° 1025 hPa 81 %
04.02.2024 - 18:00 Uhr 8 °C 23 kmh aus 240° 1026 hPa 82 %
04.02.2024 - 12:00 Uhr 9 °C 18 kmh aus 220° 1026 hPa 71 %
04.02.2024 - 06:00 Uhr 7 °C 6 kmh aus 220° 1027 hPa 76 %
04.02.2024 - 00:00 Uhr 7 °C 10 kmh aus 210° 1028 hPa 76 %
03.02.2024 - 18:00 Uhr 7 °C 14 kmh aus 260° 1028 hPa 76 %
03.02.2024 - 12:00 Uhr 8 °C 2 kmh variabel 1029 hPa 71 %
03.02.2024 - 06:00 Uhr 1 °C 8 kmh aus 310° 1029 hPa 81 %
03.02.2024 - 00:00 Uhr 7 °C 8 kmh aus 240° 1029 hPa 61 %
02.02.2024 - 18:00 Uhr 9 °C 16 kmh aus 220° 1030 hPa 62 %
02.02.2024 - 12:00 Uhr 8 °C 12 kmh aus 230° 1032 hPa 82 %
02.02.2024 - 06:00 Uhr 3 °C 10 kmh aus 280° 1032 hPa 93 %
02.02.2024 - 00:00 Uhr 3 °C 4 kmh aus 290° 1032 hPa 93 %
01.02.2024 - 18:00 Uhr 7 °C 8 kmh aus 250° 1030 hPa 93 %
01.02.2024 - 12:00 Uhr 8 °C 14 kmh aus 230° 1029 hPa 87 %
01.02.2024 - 06:00 Uhr 9 °C 10 kmh aus 230° 1028 hPa 66 %
01.02.2024 - 00:00 Uhr 9 °C 8 kmh aus 230° 1029 hPa 76 %
31.01.2024 - 18:00 Uhr 7 °C 4 kmh variabel 1031 hPa 87 %
31.01.2024 - 12:00 Uhr 8 °C 2 kmh variabel 1033 hPa 76 %
31.01.2024 - 06:00 Uhr 5 °C 4 kmh aus 270° 1033 hPa 87 %
31.01.2024 - 00:00 Uhr 5 °C 4 kmh variabel 1033 hPa 81 %
30.01.2024 - 18:00 Uhr 7 °C 2 kmh variabel 1031 hPa 76 %
30.01.2024 - 12:00 Uhr 4 °C 2 kmh aus 100° 1031 hPa 81 %
30.01.2024 - 06:00 Uhr -1 °C 2 kmh variabel 1030 hPa 93 %
30.01.2024 - 00:00 Uhr 1 °C 8 kmh aus 280° 1030 hPa 81 %
29.01.2024 - 18:00 Uhr 5 °C 4 kmh aus 210° 1030 hPa 66 %
29.01.2024 - 12:00 Uhr 5 °C 4 kmh variabel 1031 hPa 76 %
29.01.2024 - 06:00 Uhr -3 °C 6 kmh aus 60° 1029 hPa 93 %
29.01.2024 - 00:00 Uhr -1 °C 2 kmh variabel 1030 hPa 86 %
28.01.2024 - 18:00 Uhr 4 °C 8 kmh aus 80° 1030 hPa 70 %
28.01.2024 - 12:00 Uhr 4 °C 2 kmh variabel 1032 hPa 75 %
28.01.2024 - 06:00 Uhr -3 °C 0 kmh aus 0° 1032 hPa 93 %
28.01.2024 - 00:00 Uhr -3 °C 10 kmh aus 270° 1034 hPa 86 %
27.01.2024 - 18:00 Uhr 4 °C 8 kmh aus 340° 1035 hPa 70 %
27.01.2024 - 12:00 Uhr 4 °C 6 kmh variabel 1036 hPa 75 %
27.01.2024 - 06:00 Uhr -1 °C 6 kmh aus 240° 1036 hPa 93 %
27.01.2024 - 00:00 Uhr 2 °C 8 kmh aus 270° 1033 hPa 81 %
26.01.2024 - 18:00 Uhr 10 °C 29 kmh aus 270° 1028 hPa 76 %
26.01.2024 - 12:00 Uhr 11 °C 20 kmh aus 230° 1026 hPa 72 %
26.01.2024 - 06:00 Uhr 8 °C 8 kmh aus 190° 1027 hPa 87 %
26.01.2024 - 00:00 Uhr 8 °C 8 kmh aus 190° 1027 hPa 93 %
25.01.2024 - 18:00 Uhr 9 °C 6 kmh aus 350° 1028 hPa 71 %
25.01.2024 - 12:00 Uhr 10 °C 8 kmh aus 230° 1031 hPa 62 %
25.01.2024 - 06:00 Uhr 9 °C 18 kmh aus 270° 1029 hPa 71 %
25.01.2024 - 00:00 Uhr 9 °C 12 kmh aus 230° 1029 hPa 71 %
24.01.2024 - 18:00 Uhr 10 °C 20 kmh aus 250° 1028 hPa 71 %
24.01.2024 - 06:00 Uhr 11 °C 16 kmh aus 220° 1024 hPa 72 %
24.01.2024 - 00:00 Uhr 7 °C 10 kmh variabel 1026 hPa 71 %
23.01.2024 - 18:00 Uhr 7 °C 12 kmh aus 210° 1030 hPa 71 %
23.01.2024 - 06:00 Uhr 5 °C 10 kmh aus 210° 1025 hPa 87 %
23.01.2024 - 00:00 Uhr 5 °C 10 kmh aus 210° 1022 hPa 93 %
22.01.2024 - 18:00 Uhr 8 °C 23 kmh aus 230° 1017 hPa 87 %
22.01.2024 - 12:00 Uhr 10 °C 16 kmh aus 210° 1018 hPa 71 %
22.01.2024 - 06:00 Uhr 2 °C 6 kmh aus 160° 1021 hPa 70 %
22.01.2024 - 00:00 Uhr 0 °C 4 kmh variabel 1025 hPa 69 %
21.01.2024 - 18:00 Uhr 3 °C 4 kmh variabel 1027 hPa 65 %
21.01.2024 - 12:00 Uhr 1 °C 4 kmh variabel 1028 hPa 65 %
21.01.2024 - 06:00 Uhr -5 °C 4 kmh variabel 1026 hPa 80 %
21.01.2024 - 00:00 Uhr -7 °C 6 kmh aus 270° 1028 hPa 86 %
20.01.2024 - 18:00 Uhr -3 °C 4 kmh aus 270° 1029 hPa 80 %
20.01.2024 - 12:00 Uhr -4 °C 4 kmh variabel 1031 hPa 86 %
20.01.2024 - 06:00 Uhr -4 °C 8 kmh aus 180° 1028 hPa 86 %
20.01.2024 - 00:00 Uhr -3 °C 6 kmh aus 280° 1027 hPa 86 %
19.01.2024 - 18:00 Uhr -3 °C 14 kmh aus 10° 1023 hPa 86 %
19.01.2024 - 12:00 Uhr 0 °C 2 kmh variabel 1020 hPa 80 %
19.01.2024 - 06:00 Uhr -2 °C 2 kmh variabel 1015 hPa 86 %
19.01.2024 - 00:00 Uhr -2 °C 4 kmh variabel 1011 hPa 86 %
18.01.2024 - 18:00 Uhr -1 °C 23 kmh aus 310° 1003 hPa 86 %
18.01.2024 - 12:00 Uhr 0 °C 27 kmh aus 320° 992 hPa 93 %
18.01.2024 - 06:00 Uhr 8 °C 10 kmh aus 210° 988 hPa 87 %
18.01.2024 - 00:00 Uhr 9 °C 14 kmh aus 210° 988 hPa 87 %
17.01.2024 - 18:00 Uhr 8 °C 12 kmh aus 170° 987 hPa 82 %
17.01.2024 - 12:00 Uhr 1 °C 4 kmh variabel 991 hPa 93 %
17.01.2024 - 06:00 Uhr -4 °C 6 kmh aus 50° 998 hPa 93 %
17.01.2024 - 00:00 Uhr -7 °C 6 kmh aus 270° 1004 hPa 86 %
16.01.2024 - 18:00 Uhr -5 °C 4 kmh aus 240° 1008 hPa 74 %
16.01.2024 - 12:00 Uhr -1 °C 4 kmh variabel 1010 hPa 64 %
16.01.2024 - 06:00 Uhr -5 °C 6 kmh aus 250° 1011 hPa 80 %
16.01.2024 - 00:00 Uhr -2 °C 14 kmh aus 220° 1010 hPa 74 %
15.01.2024 - 18:00 Uhr -1 °C 18 kmh aus 250° 1006 hPa 75 %
15.01.2024 - 12:00 Uhr 1 °C 21 kmh aus 240° 1003 hPa 65 %
15.01.2024 - 06:00 Uhr -1 °C 21 kmh aus 230° 1004 hPa 75 %
15.01.2024 - 00:00 Uhr -3 °C 16 kmh aus 240° 1006 hPa 74 %
14.01.2024 - 18:00 Uhr -2 °C 8 kmh aus 340° 1006 hPa 74 %
14.01.2024 - 12:00 Uhr -3 °C 4 kmh variabel 1012 hPa 74 %
14.01.2024 - 06:00 Uhr -4 °C 12 kmh aus 10° 1015 hPa 86 %
14.01.2024 - 00:00 Uhr -4 °C 4 kmh variabel 1018 hPa 86 %
13.01.2024 - 18:00 Uhr -3 °C 6 kmh aus 340° 1021 hPa 80 %
13.01.2024 - 12:00 Uhr -4 °C 8 kmh aus 190° 1024 hPa 86 %
13.01.2024 - 06:00 Uhr -5 °C 4 kmh variabel 1026 hPa 93 %
13.01.2024 - 00:00 Uhr -5 °C 4 kmh variabel 1028 hPa 93 %
12.01.2024 - 18:00 Uhr -5 °C 8 kmh aus 350° 1028 hPa 86 %
12.01.2024 - 12:00 Uhr -3 °C 6 kmh aus 90° 1030 hPa 80 %
12.01.2024 - 06:00 Uhr -8 °C 2 kmh aus 90° 1029 hPa 93 %
12.01.2024 - 00:00 Uhr -6 °C 2 kmh aus 100° 1029 hPa 86 %
11.01.2024 - 18:00 Uhr -3 °C 6 kmh aus 270° 1028 hPa 80 %
11.01.2024 - 12:00 Uhr -2 °C 4 kmh variabel 1027 hPa 74 %
11.01.2024 - 06:00 Uhr -8 °C 4 kmh aus 260° 1026 hPa 93 %
11.01.2024 - 00:00 Uhr -5 °C 2 kmh variabel 1026 hPa 86 %
10.01.2024 - 18:00 Uhr -2 °C 6 kmh aus 320° 1025 hPa 69 %
10.01.2024 - 12:00 Uhr -2 °C 8 kmh aus 140° 1025 hPa 69 %
10.01.2024 - 06:00 Uhr -5 °C 6 kmh aus 100° 1024 hPa 74 %
10.01.2024 - 00:00 Uhr -6 °C 0 kmh aus 0° 1024 hPa 74 %
09.01.2024 - 18:00 Uhr -4 °C 8 kmh aus 90° 1024 hPa 69 %
09.01.2024 - 12:00 Uhr -3 °C 25 kmh aus 80° 1025 hPa 54 %
09.01.2024 - 06:00 Uhr -6 °C 16 kmh aus 30° 1024 hPa 68 %
09.01.2024 - 00:00 Uhr -5 °C 20 kmh aus 30° 1024 hPa 74 %
08.01.2024 - 18:00 Uhr -3 °C 20 kmh aus 20° 1023 hPa 69 %
08.01.2024 - 12:00 Uhr -3 °C 21 kmh aus 40° 1022 hPa 69 %
08.01.2024 - 06:00 Uhr -3 °C 20 kmh aus 30° 1020 hPa 74 %
08.01.2024 - 00:00 Uhr -3 °C 16 kmh aus 20° 1020 hPa 86 %
07.01.2024 - 18:00 Uhr -1 °C 20 kmh aus 20° 1017 hPa 86 %
07.01.2024 - 12:00 Uhr 2 °C 16 kmh aus 10° 1013 hPa 81 %
07.01.2024 - 06:00 Uhr 4 °C 20 kmh aus 360° 1010 hPa 87 %
07.01.2024 - 00:00 Uhr 4 °C 10 kmh aus 360° 1009 hPa 93 %
06.01.2024 - 18:00 Uhr 4 °C 10 kmh aus 330° 1009 hPa 87 %
06.01.2024 - 12:00 Uhr 5 °C 12 kmh aus 280° 1008 hPa 76 %
06.01.2024 - 06:00 Uhr 3 °C 4 kmh aus 240° 1005 hPa 87 %
06.01.2024 - 00:00 Uhr 5 °C 6 kmh aus 330° 1004 hPa 87 %
05.01.2024 - 12:00 Uhr 6 °C 2 kmh variabel 1003 hPa 87 %
05.01.2024 - 06:00 Uhr 5 °C 4 kmh variabel 1003 hPa 76 %
05.01.2024 - 00:00 Uhr 3 °C 2 kmh variabel 1007 hPa 93 %
04.01.2024 - 18:00 Uhr 6 °C 6 kmh aus 220° 1008 hPa 81 %
04.01.2024 - 00:00 Uhr 8 °C 23 kmh aus 230° 1000 hPa 71 %
03.01.2024 - 18:00 Uhr 9 °C 16 kmh aus 220° 998 hPa 76 %
03.01.2024 - 12:00 Uhr 10 °C 27 kmh aus 220° 1000 hPa 71 %
03.01.2024 - 06:00 Uhr 8 °C 21 kmh aus 230° 1000 hPa 82 %
03.01.2024 - 00:00 Uhr 9 °C 23 kmh aus 220° 999 hPa 82 %
02.01.2024 - 18:00 Uhr 8 °C 21 kmh aus 200° 1000 hPa 87 %
02.01.2024 - 12:00 Uhr 8 °C 23 kmh aus 210° 1003 hPa 82 %
02.01.2024 - 06:00 Uhr 6 °C 25 kmh aus 200° 1005 hPa 81 %
02.01.2024 - 00:00 Uhr 6 °C 8 kmh aus 200° 1011 hPa 71 %
01.01.2024 - 18:00 Uhr 7 °C 14 kmh aus 210° 1013 hPa 66 %
01.01.2024 - 12:00 Uhr 7 °C 14 kmh aus 200° 1011 hPa 71 %
01.01.2024 - 06:00 Uhr 5 °C 12 kmh aus 210° 1009 hPa 76 %
01.01.2024 - 00:00 Uhr 4 °C 10 kmh aus 170° 1008 hPa 81 %
31.12.2023 - 18:00 Uhr 6 °C 14 kmh aus 220° 1007 hPa 76 %
31.12.2023 - 12:00 Uhr 6 °C 2 kmh variabel 1005 hPa 81 %
31.12.2023 - 06:00 Uhr 1 °C 2 kmh variabel 1007 hPa 10 %
31.12.2023 - 00:00 Uhr 2 °C 2 kmh variabel 1013 hPa 93 %
30.12.2023 - 18:00 Uhr 7 °C 2 kmh variabel 1016 hPa 81 %
30.12.2023 - 12:00 Uhr 10 °C 27 kmh aus 260° 1018 hPa 67 %
30.12.2023 - 06:00 Uhr 8 °C 16 kmh aus 220° 1017 hPa 76 %
30.12.2023 - 00:00 Uhr 7 °C 8 kmh aus 210° 1015 hPa 76 %
29.12.2023 - 18:00 Uhr 9 °C 10 kmh aus 210° 1016 hPa 66 %
29.12.2023 - 12:00 Uhr 11 °C 18 kmh aus 230° 1016 hPa 77 %
29.12.2023 - 06:00 Uhr 8 °C 10 kmh aus 210° 1016 hPa 82 %
29.12.2023 - 00:00 Uhr 8 °C 6 kmh aus 220° 1018 hPa 82 %
28.12.2023 - 18:00 Uhr 9 °C 8 kmh aus 200° 1018 hPa 82 %
28.12.2023 - 12:00 Uhr 11 °C 16 kmh aus 240° 1019 hPa 58 %
28.12.2023 - 06:00 Uhr 10 °C 14 kmh aus 220° 1018 hPa 43 %
28.12.2023 - 00:00 Uhr 2 °C 8 kmh aus 70° 1017 hPa 81 %
27.12.2023 - 18:00 Uhr 5 °C 2 kmh variabel 1017 hPa 81 %
27.12.2023 - 12:00 Uhr 9 °C 6 kmh aus 180° 1020 hPa 71 %
27.12.2023 - 06:00 Uhr 5 °C 2 kmh variabel 1022 hPa 93 %
27.12.2023 - 00:00 Uhr 8 °C 6 kmh aus 240° 1022 hPa 76 %
26.12.2023 - 18:00 Uhr 8 °C 8 kmh aus 230° 1020 hPa 76 %
26.12.2023 - 12:00 Uhr 9 °C 18 kmh aus 230° 1018 hPa 66 %
26.12.2023 - 06:00 Uhr 7 °C 12 kmh aus 200° 1015 hPa 76 %
26.12.2023 - 00:00 Uhr 7 °C 12 kmh aus 190° 1014 hPa 76 %
25.12.2023 - 18:00 Uhr 10 °C 16 kmh aus 220° 1015 hPa 71 %
25.12.2023 - 12:00 Uhr 10 °C 12 kmh aus 230° 1015 hPa 67 %
25.12.2023 - 06:00 Uhr 9 °C 23 kmh aus 250° 1013 hPa 54 %
25.12.2023 - 00:00 Uhr 10 °C 27 kmh aus 230° 1013 hPa 62 %
24.12.2023 - 18:00 Uhr 10 °C 29 kmh aus 230° 1013 hPa 76 %
24.12.2023 - 12:00 Uhr 9 °C 31 kmh aus 230° 1012 hPa 76 %
24.12.2023 - 06:00 Uhr 8 °C 29 kmh aus 240° 1014 hPa 71 %
24.12.2023 - 00:00 Uhr 8 °C 20 kmh aus 240° 1015 hPa 76 %
23.12.2023 - 18:00 Uhr 8 °C 18 kmh aus 230° 1014 hPa 71 %
23.12.2023 - 12:00 Uhr 8 °C 31 kmh aus 240° 1012 hPa 76 %
23.12.2023 - 06:00 Uhr 7 °C 27 kmh aus 240° 1012 hPa 81 %
22.12.2023 - 18:00 Uhr 9 °C 27 kmh aus 250° 1006 hPa 76 %
22.12.2023 - 12:00 Uhr 7 °C 37 kmh aus 260° 1006 hPa 81 %
22.12.2023 - 06:00 Uhr 7 °C 52 kmh aus 270° 1005 hPa 76 %
21.12.2023 - 12:00 Uhr 7 °C 25 kmh aus 220° 1005 hPa 87 %
21.12.2023 - 06:00 Uhr 6 °C 20 kmh aus 220° 1010 hPa 81 %
21.12.2023 - 00:00 Uhr 5 °C 21 kmh aus 210° 1016 hPa 76 %
20.12.2023 - 18:00 Uhr 4 °C 14 kmh aus 220° 1018 hPa 81 %
20.12.2023 - 12:00 Uhr 6 °C 25 kmh aus 270° 1019 hPa 71 %
20.12.2023 - 06:00 Uhr 5 °C 10 kmh aus 250° 1017 hPa 87 %
20.12.2023 - 00:00 Uhr 5 °C 14 kmh aus 200° 1017 hPa 81 %
19.12.2023 - 18:00 Uhr 1 °C 2 kmh variabel 1022 hPa 87 %
19.12.2023 - 12:00 Uhr 2 °C 12 kmh aus 350° 1025 hPa 81 %
19.12.2023 - 06:00 Uhr -3 °C 2 kmh variabel 1027 hPa 93 %
19.12.2023 - 00:00 Uhr -1 °C 6 kmh aus 330° 1030 hPa 93 %
18.12.2023 - 18:00 Uhr 2 °C 4 kmh aus 270° 1031 hPa 87 %
18.12.2023 - 12:00 Uhr 4 °C 6 kmh aus 130° 1034 hPa 81 %
18.12.2023 - 06:00 Uhr -2 °C 4 kmh aus 40° 1034 hPa 93 %
18.12.2023 - 00:00 Uhr -1 °C 2 kmh aus 30° 1036 hPa 93 %
17.12.2023 - 18:00 Uhr 3 °C 4 kmh aus 20° 1036 hPa 87 %
17.12.2023 - 12:00 Uhr 3 °C 6 kmh aus 90° 1038 hPa 87 %
17.12.2023 - 06:00 Uhr -2 °C 2 kmh aus 60° 1039 hPa 93 %
17.12.2023 - 00:00 Uhr 0 °C 4 kmh variabel 1040 hPa 10 %
16.12.2023 - 18:00 Uhr 2 °C 4 kmh variabel 1040 hPa 87 %
16.12.2023 - 12:00 Uhr 5 °C 4 kmh variabel 1042 hPa 87 %
16.12.2023 - 06:00 Uhr 4 °C 2 kmh variabel 1040 hPa 87 %
16.12.2023 - 00:00 Uhr 5 °C 2 kmh variabel 1039 hPa 87 %
15.12.2023 - 18:00 Uhr 5 °C 2 kmh variabel 1037 hPa 87 %
15.12.2023 - 12:00 Uhr 6 °C 12 kmh aus 230° 1035 hPa 81 %
15.12.2023 - 06:00 Uhr 3 °C 6 kmh aus 230° 1031 hPa 93 %
15.12.2023 - 00:00 Uhr 3 °C 14 kmh aus 300° 1026 hPa 93 %
14.12.2023 - 06:00 Uhr 5 °C 2 kmh variabel 1009 hPa 93 %
14.12.2023 - 00:00 Uhr 5 °C 6 kmh aus 180° 1004 hPa 87 %
13.12.2023 - 06:00 Uhr 5 °C 6 kmh aus 250° 1000 hPa 93 %
13.12.2023 - 00:00 Uhr 8 °C 18 kmh aus 260° 1003 hPa 87 %
12.12.2023 - 18:00 Uhr 9 °C 6 kmh aus 200° 1003 hPa 94 %
12.12.2023 - 12:00 Uhr 8 °C 4 kmh variabel 1007 hPa 87 %
12.12.2023 - 06:00 Uhr 4 °C 2 kmh variabel 1010 hPa 87 %
12.12.2023 - 00:00 Uhr 7 °C 8 kmh aus 220° 1011 hPa 81 %
11.12.2023 - 18:00 Uhr 8 °C 4 kmh variabel 1009 hPa 76 %
11.12.2023 - 12:00 Uhr 11 °C 18 kmh aus 240° 1006 hPa 77 %
11.12.2023 - 06:00 Uhr 9 °C 20 kmh aus 230° 1007 hPa 87 %
11.12.2023 - 00:00 Uhr 9 °C 27 kmh aus 220° 1006 hPa 76 %
10.12.2023 - 18:00 Uhr 8 °C 16 kmh aus 200° 1011 hPa 71 %
10.12.2023 - 12:00 Uhr 8 °C 16 kmh aus 220° 1014 hPa 76 %
10.12.2023 - 06:00 Uhr 7 °C 10 kmh aus 220° 1010 hPa 76 %
10.12.2023 - 00:00 Uhr 8 °C 21 kmh aus 230° 1002 hPa 87 %
09.12.2023 - 18:00 Uhr 6 °C 12 kmh aus 170° 1002 hPa 81 %
09.12.2023 - 12:00 Uhr 7 °C 8 kmh aus 150° 1012 hPa 81 %
09.12.2023 - 06:00 Uhr 4 °C 6 kmh aus 240° 1015 hPa 93 %
09.12.2023 - 00:00 Uhr 5 °C 4 kmh variabel 1015 hPa 93 %
08.12.2023 - 18:00 Uhr 6 °C 2 kmh variabel 1012 hPa 87 %
08.12.2023 - 12:00 Uhr 2 °C 2 kmh aus 110° 1010 hPa 93 %
08.12.2023 - 06:00 Uhr 0 °C 6 kmh aus 80° 1009 hPa 87 %
08.12.2023 - 00:00 Uhr -1 °C 4 kmh variabel 1011 hPa 80 %
07.12.2023 - 18:00 Uhr 0 °C 8 kmh aus 120° 1015 hPa 75 %
07.12.2023 - 12:00 Uhr 3 °C 4 kmh variabel 1020 hPa 70 %
07.12.2023 - 06:00 Uhr -2 °C 4 kmh aus 300° 1021 hPa 93 %
07.12.2023 - 00:00 Uhr 1 °C 10 kmh aus 260° 1019 hPa 87 %
06.12.2023 - 18:00 Uhr 2 °C 12 kmh aus 270° 1017 hPa 87 %
06.12.2023 - 12:00 Uhr 3 °C 25 kmh aus 270° 1014 hPa 87 %
06.12.2023 - 06:00 Uhr 3 °C 10 kmh aus 220° 1011 hPa 87 %
06.12.2023 - 00:00 Uhr 3 °C 12 kmh aus 210° 1009 hPa 87 %
05.12.2023 - 18:00 Uhr 5 °C 12 kmh aus 200° 1008 hPa 70 %
05.12.2023 - 12:00 Uhr 6 °C 18 kmh aus 200° 1006 hPa 71 %
05.12.2023 - 06:00 Uhr 0 °C 10 kmh aus 250° 1005 hPa 93 %
05.12.2023 - 00:00 Uhr 0 °C 6 kmh aus 150° 1005 hPa 93 %
04.12.2023 - 18:00 Uhr -1 °C 2 kmh variabel 1007 hPa 80 %
04.12.2023 - 12:00 Uhr -2 °C 4 kmh variabel 1012 hPa 80 %
04.12.2023 - 06:00 Uhr -8 °C 2 kmh variabel 1015 hPa 93 %
04.12.2023 - 00:00 Uhr -8 °C 2 kmh aus 150° 1018 hPa 93 %
03.12.2023 - 18:00 Uhr -5 °C 4 kmh aus 200° 1021 hPa 86 %
03.12.2023 - 12:00 Uhr -2 °C 6 kmh aus 150° 1023 hPa 74 %
03.12.2023 - 06:00 Uhr -6 °C 8 kmh aus 260° 1022 hPa 80 %
03.12.2023 - 00:00 Uhr -4 °C 8 kmh aus 310° 1020 hPa 86 %
02.12.2023 - 18:00 Uhr -4 °C 14 kmh aus 320° 1015 hPa 86 %
02.12.2023 - 12:00 Uhr -2 °C 18 kmh aus 320° 1008 hPa 86 %
02.12.2023 - 06:00 Uhr -1 °C 16 kmh aus 340° 1003 hPa 93 %
02.12.2023 - 00:00 Uhr 0 °C 14 kmh aus 360° 1001 hPa 93 %
01.12.2023 - 18:00 Uhr 0 °C 14 kmh aus 350° 1001 hPa 93 %
01.12.2023 - 12:00 Uhr 1 °C 6 kmh aus 360° 1001 hPa 93 %
01.12.2023 - 06:00 Uhr 0 °C 2 kmh variabel 1000 hPa 10 %
01.12.2023 - 00:00 Uhr 1 °C 4 kmh variabel 999 hPa 93 %
30.11.2023 - 18:00 Uhr 2 °C 2 kmh aus 280° 998 hPa 81 %
30.11.2023 - 12:00 Uhr 1 °C 2 kmh variabel 999 hPa 81 %
30.11.2023 - 06:00 Uhr -2 °C 2 kmh variabel 1001 hPa 93 %
30.11.2023 - 00:00 Uhr -1 °C 6 kmh aus 20° 1003 hPa 86 %
29.11.2023 - 18:00 Uhr 2 °C 10 kmh aus 230° 1005 hPa 70 %
29.11.2023 - 12:00 Uhr 1 °C 21 kmh aus 230° 1006 hPa 70 %
29.11.2023 - 06:00 Uhr -2 °C 8 kmh aus 180° 1006 hPa 86 %
29.11.2023 - 00:00 Uhr -1 °C 8 kmh aus 270° 1008 hPa 80 %
28.11.2023 - 18:00 Uhr 0 °C 20 kmh aus 310° 1006 hPa 87 %
28.11.2023 - 12:00 Uhr 1 °C 29 kmh aus 310° 999 hPa 87 %
28.11.2023 - 06:00 Uhr 4 °C 20 kmh aus 230° 991 hPa 87 %
28.11.2023 - 00:00 Uhr 3 °C 16 kmh aus 220° 993 hPa 87 %
27.11.2023 - 18:00 Uhr 3 °C 16 kmh aus 220° 997 hPa 87 %
27.11.2023 - 12:00 Uhr 4 °C 10 kmh aus 200° 1005 hPa 65 %
27.11.2023 - 06:00 Uhr 2 °C 2 kmh variabel 1010 hPa 81 %
27.11.2023 - 00:00 Uhr 2 °C 8 kmh aus 200° 1014 hPa 87 %
26.11.2023 - 18:00 Uhr 3 °C 10 kmh aus 200° 1015 hPa 81 %
26.11.2023 - 12:00 Uhr 4 °C 14 kmh aus 260° 1016 hPa 81 %
26.11.2023 - 06:00 Uhr 0 °C 6 kmh aus 240° 1015 hPa 93 %
25.11.2023 - 18:00 Uhr 3 °C 18 kmh aus 240° 1010 hPa 81 %
25.11.2023 - 12:00 Uhr 3 °C 23 kmh aus 250° 1011 hPa 75 %
25.11.2023 - 06:00 Uhr 1 °C 23 kmh aus 310° 1011 hPa 81 %
25.11.2023 - 00:00 Uhr 2 °C 29 kmh aus 280° 1007 hPa 81 %
24.11.2023 - 18:00 Uhr 2 °C 25 kmh aus 280° 1008 hPa 87 %
24.11.2023 - 00:00 Uhr 7 °C 18 kmh aus 220° 1016 hPa 76 %
23.11.2023 - 18:00 Uhr 6 °C 10 kmh aus 210° 1022 hPa 81 %
23.11.2023 - 12:00 Uhr 5 °C 14 kmh aus 210° 1025 hPa 76 %
23.11.2023 - 06:00 Uhr 0 °C 2 kmh variabel 1027 hPa 80 %
23.11.2023 - 00:00 Uhr 0 °C 4 kmh variabel 1028 hPa 80 %
22.11.2023 - 18:00 Uhr 2 °C 8 kmh aus 340° 1028 hPa 75 %
22.11.2023 - 12:00 Uhr 2 °C 12 kmh aus 330° 1026 hPa 81 %
22.11.2023 - 06:00 Uhr 2 °C 20 kmh aus 20° 1023 hPa 81 %
21.11.2023 - 18:00 Uhr 8 °C 14 kmh aus 340° 1016 hPa 87 %
21.11.2023 - 00:00 Uhr 7 °C 2 kmh variabel 1011 hPa 93 %
20.11.2023 - 06:00 Uhr 10 °C 10 kmh aus 230° 1014 hPa 71 %
20.11.2023 - 00:00 Uhr 10 °C 20 kmh aus 240° 1015 hPa 76 %
19.11.2023 - 18:00 Uhr 11 °C 8 kmh aus 220° 1014 hPa 72 %
19.11.2023 - 12:00 Uhr 15 °C 18 kmh aus 240° 1015 hPa 72 %
19.11.2023 - 06:00 Uhr 11 °C 12 kmh variabel 1014 hPa 88 %
19.11.2023 - 00:00 Uhr 8 °C 10 kmh aus 180° 1017 hPa 87 %
18.11.2023 - 18:00 Uhr 7 °C 8 kmh aus 180° 1021 hPa 76 %
18.11.2023 - 12:00 Uhr 7 °C 8 kmh aus 160° 1025 hPa 76 %
18.11.2023 - 06:00 Uhr 3 °C 2 kmh variabel 1025 hPa 93 %
17.11.2023 - 18:00 Uhr 4 °C 4 kmh variabel 1021 hPa 93 %
17.11.2023 - 12:00 Uhr 6 °C 12 kmh aus 250° 1019 hPa 87 %
17.11.2023 - 06:00 Uhr 5 °C 14 kmh aus 250° 1017 hPa 87 %
17.11.2023 - 00:00 Uhr 6 °C 14 kmh aus 320° 1006 hPa 10 %
16.11.2023 - 12:00 Uhr 8 °C 4 kmh variabel 1013 hPa 82 %
16.11.2023 - 06:00 Uhr 7 °C 6 kmh aus 230° 1018 hPa 87 %
16.11.2023 - 00:00 Uhr 7 °C 6 kmh aus 220° 1020 hPa 81 %
15.11.2023 - 18:00 Uhr 9 °C 14 kmh aus 240° 1020 hPa 71 %
15.11.2023 - 12:00 Uhr 11 °C 21 kmh aus 240° 1019 hPa 77 %
15.11.2023 - 00:00 Uhr 10 °C 16 kmh aus 230° 1010 hPa 82 %
14.11.2023 - 18:00 Uhr 10 °C 14 kmh aus 200° 1008 hPa 76 %
14.11.2023 - 12:00 Uhr 11 °C 12 kmh aus 200° 1012 hPa 72 %
14.11.2023 - 06:00 Uhr 8 °C 4 kmh variabel 1011 hPa 93 %
13.11.2023 - 18:00 Uhr 14 °C 27 kmh aus 190° 1005 hPa 82 %
13.11.2023 - 12:00 Uhr 11 °C 10 kmh aus 200° 1009 hPa 94 %
13.11.2023 - 06:00 Uhr 10 °C 8 kmh aus 210° 1010 hPa 94 %
13.11.2023 - 00:00 Uhr 5 °C 4 kmh variabel 1010 hPa 93 %
12.11.2023 - 18:00 Uhr 4 °C 6 kmh aus 160° 1008 hPa 87 %
12.11.2023 - 12:00 Uhr 5 °C 2 kmh variabel 1008 hPa 81 %
12.11.2023 - 06:00 Uhr 1 °C 2 kmh variabel 1006 hPa 93 %
12.11.2023 - 00:00 Uhr 4 °C 6 kmh aus 210° 1009 hPa 81 %
11.11.2023 - 18:00 Uhr 5 °C 10 kmh aus 220° 1009 hPa 76 %
11.11.2023 - 00:00 Uhr 7 °C 20 kmh aus 180° 1000 hPa 71 %
10.11.2023 - 06:00 Uhr 7 °C 12 kmh aus 220° 1002 hPa 81 %
10.11.2023 - 00:00 Uhr 8 °C 10 kmh aus 200° 1004 hPa 76 %
09.11.2023 - 18:00 Uhr 9 °C 14 kmh aus 190° 1007 hPa 82 %
09.11.2023 - 12:00 Uhr 11 °C 18 kmh aus 200° 1008 hPa 62 %
09.11.2023 - 06:00 Uhr 4 °C 12 kmh aus 240° 1009 hPa 75 %
09.11.2023 - 00:00 Uhr 2 °C 10 kmh aus 260° 1012 hPa 87 %
08.11.2023 - 18:00 Uhr 7 °C 6 kmh aus 240° 1016 hPa 71 %
08.11.2023 - 12:00 Uhr 10 °C 12 kmh aus 210° 1019 hPa 67 %
08.11.2023 - 06:00 Uhr 6 °C 10 kmh aus 230° 1018 hPa 81 %
08.11.2023 - 00:00 Uhr 6 °C 10 kmh aus 210° 1018 hPa 76 %
07.11.2023 - 18:00 Uhr 8 °C 8 kmh aus 220° 1015 hPa 76 %
07.11.2023 - 06:00 Uhr 4 °C 8 kmh aus 180° 1013 hPa 87 %
07.11.2023 - 00:00 Uhr 7 °C 6 kmh aus 180° 1012 hPa 81 %
06.11.2023 - 12:00 Uhr 12 °C 18 kmh aus 230° 1008 hPa 67 %
06.11.2023 - 06:00 Uhr 7 °C 8 kmh aus 190° 1005 hPa 87 %
05.11.2023 - 06:00 Uhr 11 °C 20 kmh aus 200° 979 hPa 62 %
04.11.2023 - 18:00 Uhr 8 °C 20 kmh aus 180° 983 hPa 82 %
04.11.2023 - 12:00 Uhr 9 °C 18 kmh aus 170° 988 hPa 66 %
04.11.2023 - 06:00 Uhr 2 °C 4 kmh variabel 993 hPa 93 %
04.11.2023 - 00:00 Uhr 4 °C 4 kmh variabel 994 hPa 87 %
03.11.2023 - 18:00 Uhr 7 °C 8 kmh aus 240° 993 hPa 81 %
03.11.2023 - 12:00 Uhr 8 °C 14 kmh aus 250° 990 hPa 76 %
03.11.2023 - 06:00 Uhr 4 °C 6 kmh aus 220° 988 hPa 93 %
03.11.2023 - 00:00 Uhr 7 °C 12 kmh aus 210° 988 hPa 81 %
02.11.2023 - 18:00 Uhr 8 °C 4 kmh variabel 988 hPa 87 %
02.11.2023 - 12:00 Uhr 11 °C 21 kmh aus 190° 991 hPa 82 %
02.11.2023 - 06:00 Uhr 8 °C 12 kmh aus 120° 993 hPa 82 %
02.11.2023 - 00:00 Uhr 7 °C 4 kmh variabel 1002 hPa 81 %
01.11.2023 - 18:00 Uhr 12 °C 4 kmh variabel 1004 hPa 63 %
01.11.2023 - 12:00 Uhr 15 °C 10 kmh aus 180° 1007 hPa 59 %
01.11.2023 - 06:00 Uhr 7 °C 4 kmh variabel 1009 hPa 93 %
01.11.2023 - 00:00 Uhr 9 °C 8 kmh aus 190° 1011 hPa 87 %
31.10.2023 - 18:00 Uhr 10 °C 8 kmh aus 210° 1009 hPa 88 %
31.10.2023 - 12:00 Uhr 11 °C 10 kmh aus 220° 1006 hPa 77 %
31.10.2023 - 06:00 Uhr 9 °C 8 kmh aus 220° 1003 hPa 87 %
31.10.2023 - 00:00 Uhr 11 °C 12 kmh aus 200° 1000 hPa 94 %
30.10.2023 - 18:00 Uhr 13 °C 6 kmh aus 240° 999 hPa 88 %
30.10.2023 - 12:00 Uhr 15 °C 6 kmh aus 60° 1003 hPa 72 %
30.10.2023 - 06:00 Uhr 9 °C 6 kmh aus 90° 1006 hPa 10 %
30.10.2023 - 00:00 Uhr 11 °C 4 kmh variabel 1006 hPa 94 %
29.10.2023 - 18:00 Uhr 16 °C 6 kmh aus 170° 1001 hPa 55 %
29.10.2023 - 12:00 Uhr 14 °C 8 kmh aus 90° 1002 hPa 72 %
29.10.2023 - 06:00 Uhr 8 °C 6 kmh aus 100° 1001 hPa 82 %
29.10.2023 - 00:00 Uhr 10 °C 4 kmh variabel 1003 hPa 82 %
28.10.2023 - 12:00 Uhr 13 °C 12 kmh aus 200° 1004 hPa 63 %
28.10.2023 - 06:00 Uhr 10 °C 14 kmh aus 220° 1002 hPa 76 %
27.10.2023 - 18:00 Uhr 12 °C 12 kmh aus 230° 998 hPa 77 %
27.10.2023 - 06:00 Uhr 9 °C 4 kmh variabel 993 hPa 94 %
27.10.2023 - 00:00 Uhr 11 °C 2 kmh variabel 995 hPa 88 %
26.10.2023 - 18:00 Uhr 13 °C 8 kmh aus 210° 996 hPa 82 %
26.10.2023 - 06:00 Uhr 9 °C 2 kmh variabel 999 hPa 82 %
26.10.2023 - 00:00 Uhr 11 °C 18 kmh aus 220° 998 hPa 82 %
25.10.2023 - 12:00 Uhr 12 °C 4 kmh variabel 1001 hPa 82 %
25.10.2023 - 06:00 Uhr 6 °C 2 kmh variabel 1005 hPa 10 %
25.10.2023 - 00:00 Uhr 10 °C 4 kmh aus 250° 1006 hPa 94 %
24.10.2023 - 18:00 Uhr 12 °C 4 kmh variabel 1005 hPa 94 %
24.10.2023 - 12:00 Uhr 11 °C 6 kmh aus 100° 1006 hPa 10 %
24.10.2023 - 06:00 Uhr 10 °C 6 kmh aus 40° 1007 hPa 94 %
24.10.2023 - 00:00 Uhr 11 °C 4 kmh variabel 1008 hPa 88 %
23.10.2023 - 18:00 Uhr 12 °C 12 kmh aus 80° 1008 hPa 82 %
23.10.2023 - 12:00 Uhr 9 °C 2 kmh aus 90° 1013 hPa 82 %
23.10.2023 - 06:00 Uhr 3 °C 4 kmh aus 30° 1014 hPa 93 %
23.10.2023 - 00:00 Uhr 8 °C 2 kmh variabel 1014 hPa 87 %
22.10.2023 - 18:00 Uhr 13 °C 14 kmh aus 250° 1012 hPa 67 %
22.10.2023 - 12:00 Uhr 14 °C 18 kmh aus 210° 1011 hPa 59 %
22.10.2023 - 06:00 Uhr 6 °C 10 kmh aus 250° 1008 hPa 93 %
22.10.2023 - 00:00 Uhr 11 °C 8 kmh aus 180° 1006 hPa 82 %
21.10.2023 - 18:00 Uhr 15 °C 4 kmh variabel 1002 hPa 63 %
21.10.2023 - 12:00 Uhr 16 °C 16 kmh aus 230° 1001 hPa 59 %
21.10.2023 - 06:00 Uhr 13 °C 10 kmh aus 220° 994 hPa 77 %
21.10.2023 - 00:00 Uhr 11 °C 4 kmh variabel 989 hPa 94 %
20.10.2023 - 18:00 Uhr 14 °C 6 kmh aus 180° 986 hPa 88 %
20.10.2023 - 12:00 Uhr 15 °C 8 kmh aus 190° 981 hPa 82 %
20.10.2023 - 06:00 Uhr 13 °C 10 kmh aus 60° 984 hPa 88 %
20.10.2023 - 00:00 Uhr 12 °C 6 kmh aus 90° 990 hPa 10 %
19.10.2023 - 12:00 Uhr 14 °C 6 kmh aus 80° 997 hPa 88 %
19.10.2023 - 06:00 Uhr 10 °C 6 kmh aus 120° 998 hPa 94 %
19.10.2023 - 00:00 Uhr 10 °C 4 kmh variabel 1002 hPa 94 %
18.10.2023 - 18:00 Uhr 11 °C 4 kmh variabel 1005 hPa 88 %
18.10.2023 - 12:00 Uhr 10 °C 10 kmh aus 70° 1008 hPa 71 %
18.10.2023 - 06:00 Uhr 2 °C 4 kmh aus 270° 1011 hPa 93 %
18.10.2023 - 00:00 Uhr 4 °C 2 kmh variabel 1014 hPa 93 %
17.10.2023 - 18:00 Uhr 11 °C 14 kmh aus 60° 1015 hPa 67 %
17.10.2023 - 12:00 Uhr 7 °C 6 kmh aus 70° 1017 hPa 71 %
17.10.2023 - 06:00 Uhr 1 °C 4 kmh variabel 1017 hPa 87 %
17.10.2023 - 00:00 Uhr 3 °C 4 kmh variabel 1019 hPa 87 %
16.10.2023 - 18:00 Uhr 11 °C 14 kmh aus 40° 1018 hPa 50 %
16.10.2023 - 12:00 Uhr 8 °C 10 kmh aus 70° 1021 hPa 71 %
16.10.2023 - 06:00 Uhr 0 °C 2 kmh variabel 1022 hPa 93 %
16.10.2023 - 00:00 Uhr 3 °C 6 kmh aus 300° 1023 hPa 81 %
15.10.2023 - 18:00 Uhr 10 °C 20 kmh aus 290° 1021 hPa 50 %
15.10.2023 - 00:00 Uhr 8 °C 12 kmh aus 240° 1019 hPa 82 %
14.10.2023 - 18:00 Uhr 13 °C 21 kmh aus 250° 1016 hPa 67 %
14.10.2023 - 06:00 Uhr 19 °C 18 kmh aus 200° 1009 hPa 64 %
14.10.2023 - 00:00 Uhr 20 °C 8 kmh aus 200° 1010 hPa 35 %
13.10.2023 - 18:00 Uhr 27 °C 16 kmh aus 240° 1012 hPa 23 %
13.10.2023 - 12:00 Uhr 25 °C 4 kmh variabel 1015 hPa 34 %
13.10.2023 - 06:00 Uhr 12 °C 4 kmh variabel 1016 hPa 72 %
13.10.2023 - 00:00 Uhr 20 °C 2 kmh variabel 1018 hPa 46 %
12.10.2023 - 18:00 Uhr 22 °C 4 kmh variabel 1016 hPa 47 %
12.10.2023 - 06:00 Uhr 13 °C 6 kmh aus 50° 1017 hPa 77 %
12.10.2023 - 00:00 Uhr 14 °C 4 kmh variabel 1018 hPa 72 %
11.10.2023 - 18:00 Uhr 25 °C 10 kmh aus 240° 1018 hPa 36 %
11.10.2023 - 12:00 Uhr 23 °C 6 kmh variabel 1020 hPa 41 %
11.10.2023 - 06:00 Uhr 7 °C 4 kmh aus 70° 1020 hPa 10 %
11.10.2023 - 00:00 Uhr 11 °C 2 kmh variabel 1021 hPa 82 %
10.10.2023 - 18:00 Uhr 22 °C 6 kmh aus 360° 1021 hPa 47 %
10.10.2023 - 12:00 Uhr 19 °C 4 kmh variabel 1023 hPa 60 %
10.10.2023 - 06:00 Uhr 9 °C 4 kmh variabel 1022 hPa 94 %
10.10.2023 - 00:00 Uhr 16 °C 4 kmh variabel 1023 hPa 63 %
09.10.2023 - 18:00 Uhr 23 °C 10 kmh aus 240° 1021 hPa 33 %
09.10.2023 - 12:00 Uhr 20 °C 6 kmh aus 240° 1023 hPa 53 %
09.10.2023 - 06:00 Uhr 11 °C 4 kmh variabel 1022 hPa 88 %
09.10.2023 - 00:00 Uhr 11 °C 4 kmh aus 300° 1025 hPa 82 %
08.10.2023 - 18:00 Uhr 22 °C 10 kmh aus 30° 1025 hPa 50 %
08.10.2023 - 12:00 Uhr 21 °C 6 kmh variabel 1026 hPa 40 %
08.10.2023 - 06:00 Uhr 11 °C 6 kmh aus 250° 1025 hPa 67 %
08.10.2023 - 00:00 Uhr 17 °C 6 kmh aus 230° 1026 hPa 39 %
07.10.2023 - 18:00 Uhr 20 °C 10 kmh aus 250° 1026 hPa 46 %
07.10.2023 - 12:00 Uhr 17 °C 2 kmh aus 120° 1026 hPa 52 %
07.10.2023 - 06:00 Uhr 5 °C 4 kmh variabel 1025 hPa 10 %
07.10.2023 - 00:00 Uhr 9 °C 4 kmh variabel 1026 hPa 94 %
06.10.2023 - 18:00 Uhr 18 °C 10 kmh aus 350° 1025 hPa 56 %
06.10.2023 - 12:00 Uhr 15 °C 4 kmh variabel 1027 hPa 72 %
06.10.2023 - 06:00 Uhr 5 °C 2 kmh variabel 1027 hPa 93 %
06.10.2023 - 00:00 Uhr 8 °C 2 kmh variabel 1028 hPa 93 %
05.10.2023 - 18:00 Uhr 15 °C 8 kmh aus 30° 1027 hPa 63 %
05.10.2023 - 12:00 Uhr 15 °C 4 kmh variabel 1027 hPa 63 %
05.10.2023 - 06:00 Uhr 6 °C 2 kmh aus 20° 1026 hPa 10 %
05.10.2023 - 00:00 Uhr 8 °C 0 kmh aus 0° 1027 hPa 93 %
04.10.2023 - 18:00 Uhr 16 °C 10 kmh aus 360° 1028 hPa 55 %
04.10.2023 - 12:00 Uhr 16 °C 6 kmh aus 220° 1029 hPa 59 %
04.10.2023 - 06:00 Uhr 9 °C 4 kmh variabel 1029 hPa 87 %
04.10.2023 - 00:00 Uhr 11 °C 4 kmh variabel 1028 hPa 88 %
03.10.2023 - 12:00 Uhr 26 °C 18 kmh aus 210° 1017 hPa 42 %
03.10.2023 - 06:00 Uhr 12 °C 2 kmh variabel 1017 hPa 88 %
03.10.2023 - 00:00 Uhr 18 °C 2 kmh variabel 1020 hPa 68 %
02.10.2023 - 18:00 Uhr 26 °C 6 kmh aus 80° 1020 hPa 37 %
02.10.2023 - 12:00 Uhr 21 °C 6 kmh variabel 1023 hPa 60 %
02.10.2023 - 06:00 Uhr 9 °C 2 kmh variabel 1024 hPa 94 %
02.10.2023 - 00:00 Uhr 12 °C 4 kmh aus 280° 1025 hPa 77 %
01.10.2023 - 18:00 Uhr 24 °C 4 kmh aus 80° 1024 hPa 41 %
01.10.2023 - 12:00 Uhr 19 °C 6 kmh aus 90° 1027 hPa 60 %
01.10.2023 - 06:00 Uhr 8 °C 4 kmh aus 60° 1026 hPa 93 %
01.10.2023 - 00:00 Uhr 11 °C 8 kmh aus 310° 1027 hPa 88 %
30.09.2023 - 18:00 Uhr 19 °C 12 kmh aus 20° 1026 hPa 56 %
30.09.2023 - 12:00 Uhr 18 °C 4 kmh variabel 1027 hPa 68 %
30.09.2023 - 06:00 Uhr 13 °C 6 kmh aus 320° 1026 hPa 94 %
30.09.2023 - 00:00 Uhr 17 °C 25 kmh aus 270° 1025 hPa 73 %
29.09.2023 - 18:00 Uhr 22 °C 31 kmh aus 300° 1021 hPa 65 %
29.09.2023 - 12:00 Uhr 25 °C 6 kmh variabel 1020 hPa 44 %
29.09.2023 - 06:00 Uhr 11 °C 2 kmh variabel 1019 hPa 88 %
29.09.2023 - 00:00 Uhr 14 °C 4 kmh variabel 1020 hPa 77 %
28.09.2023 - 18:00 Uhr 28 °C 4 kmh variabel 1018 hPa 26 %
28.09.2023 - 12:00 Uhr 23 °C 4 kmh variabel 1020 hPa 47 %
28.09.2023 - 06:00 Uhr 11 °C 2 kmh variabel 1019 hPa 88 %
28.09.2023 - 00:00 Uhr 14 °C 6 kmh aus 290° 1019 hPa 77 %
27.09.2023 - 18:00 Uhr 25 °C 8 kmh aus 350° 1018 hPa 42 %
27.09.2023 - 12:00 Uhr 20 °C 4 kmh variabel 1021 hPa 64 %
27.09.2023 - 06:00 Uhr 8 °C 4 kmh aus 70° 1021 hPa 93 %
27.09.2023 - 00:00 Uhr 12 °C 2 kmh variabel 1022 hPa 88 %
26.09.2023 - 18:00 Uhr 24 °C 4 kmh variabel 1021 hPa 44 %
26.09.2023 - 12:00 Uhr 18 °C 4 kmh variabel 1023 hPa 68 %
26.09.2023 - 06:00 Uhr 7 °C 4 kmh aus 80° 1022 hPa 10 %
26.09.2023 - 00:00 Uhr 12 °C 6 kmh aus 310° 1023 hPa 82 %
25.09.2023 - 18:00 Uhr 21 °C 10 kmh aus 80° 1023 hPa 50 %
25.09.2023 - 12:00 Uhr 17 °C 6 kmh variabel 1024 hPa 52 %
25.09.2023 - 06:00 Uhr 6 °C 6 kmh aus 320° 1023 hPa 87 %
25.09.2023 - 00:00 Uhr 10 °C 4 kmh variabel 1025 hPa 76 %
24.09.2023 - 18:00 Uhr 18 °C 14 kmh aus 80° 1025 hPa 49 %
24.09.2023 - 12:00 Uhr 15 °C 8 kmh variabel 1027 hPa 63 %
24.09.2023 - 06:00 Uhr 7 °C 4 kmh variabel 1025 hPa 93 %
24.09.2023 - 00:00 Uhr 13 °C 4 kmh variabel 1024 hPa 77 %
23.09.2023 - 12:00 Uhr 15 °C 10 kmh aus 220° 1017 hPa 63 %
23.09.2023 - 06:00 Uhr 10 °C 6 kmh aus 240° 1014 hPa 82 %
23.09.2023 - 00:00 Uhr 12 °C 6 kmh aus 260° 1010 hPa 88 %
22.09.2023 - 12:00 Uhr 16 °C 6 kmh variabel 1006 hPa 77 %
22.09.2023 - 06:00 Uhr 13 °C 6 kmh aus 180° 1005 hPa 94 %
22.09.2023 - 00:00 Uhr 15 °C 6 kmh variabel 1004 hPa 94 %
21.09.2023 - 18:00 Uhr 25 °C 8 kmh aus 290° 1000 hPa 47 %
21.09.2023 - 12:00 Uhr 24 °C 4 kmh variabel 1004 hPa 50 %
21.09.2023 - 06:00 Uhr 14 °C 2 kmh variabel 1006 hPa 88 %
21.09.2023 - 00:00 Uhr 16 °C 2 kmh variabel 1009 hPa 72 %
20.09.2023 - 18:00 Uhr 26 °C 6 kmh variabel 1010 hPa 42 %
20.09.2023 - 12:00 Uhr 22 °C 8 kmh aus 240° 1014 hPa 50 %
20.09.2023 - 06:00 Uhr 10 °C 4 kmh variabel 1015 hPa 94 %
20.09.2023 - 00:00 Uhr 13 °C 6 kmh aus 240° 1016 hPa 77 %
19.09.2023 - 18:00 Uhr 21 °C 18 kmh aus 250° 1015 hPa 50 %
19.09.2023 - 12:00 Uhr 19 °C 23 kmh aus 260° 1017 hPa 60 %
19.09.2023 - 06:00 Uhr 16 °C 10 kmh aus 220° 1014 hPa 83 %
18.09.2023 - 18:00 Uhr 21 °C 14 kmh aus 190° 1011 hPa 64 %
18.09.2023 - 12:00 Uhr 18 °C 2 kmh variabel 1012 hPa 88 %
18.09.2023 - 06:00 Uhr 18 °C 6 kmh variabel 1011 hPa 83 %
18.09.2023 - 00:00 Uhr 19 °C 2 kmh variabel 1012 hPa 73 %
17.09.2023 - 18:00 Uhr 29 °C 8 kmh aus 140° 1013 hPa 37 %
17.09.2023 - 12:00 Uhr 25 °C 4 kmh variabel 1017 hPa 54 %
17.09.2023 - 06:00 Uhr 16 °C 4 kmh variabel 1016 hPa 88 %
17.09.2023 - 00:00 Uhr 20 °C 4 kmh aus 80° 1015 hPa 73 %
16.09.2023 - 18:00 Uhr 28 °C 8 kmh aus 40° 1014 hPa 40 %
16.09.2023 - 12:00 Uhr 24 °C 6 kmh variabel 1016 hPa 61 %
16.09.2023 - 06:00 Uhr 12 °C 6 kmh aus 90° 1015 hPa 94 %
16.09.2023 - 00:00 Uhr 16 °C 2 kmh variabel 1016 hPa 83 %
15.09.2023 - 18:00 Uhr 23 °C 14 kmh aus 90° 1016 hPa 57 %
15.09.2023 - 12:00 Uhr 21 °C 8 kmh aus 20° 1018 hPa 64 %
15.09.2023 - 06:00 Uhr 11 °C 6 kmh aus 320° 1019 hPa 94 %
15.09.2023 - 00:00 Uhr 14 °C 6 kmh aus 340° 1020 hPa 82 %
14.09.2023 - 18:00 Uhr 21 °C 14 kmh aus 10° 1020 hPa 57 %
14.09.2023 - 12:00 Uhr 18 °C 6 kmh aus 40° 1023 hPa 78 %
14.09.2023 - 06:00 Uhr 16 °C 12 kmh aus 300° 1021 hPa 88 %
14.09.2023 - 00:00 Uhr 17 °C 8 kmh aus 250° 1021 hPa 88 %
13.09.2023 - 06:00 Uhr 17 °C 6 kmh aus 260° 1016 hPa 94 %
13.09.2023 - 00:00 Uhr 21 °C 4 kmh variabel 1014 hPa 64 %
12.09.2023 - 18:00 Uhr 27 °C 8 kmh aus 20° 1012 hPa 51 %
12.09.2023 - 12:00 Uhr 26 °C 8 kmh aus 90° 1014 hPa 61 %
12.09.2023 - 06:00 Uhr 15 °C 2 kmh variabel 1013 hPa 94 %
12.09.2023 - 00:00 Uhr 19 °C 6 kmh aus 320° 1014 hPa 78 %
11.09.2023 - 18:00 Uhr 29 °C 10 kmh aus 360° 1014 hPa 43 %
11.09.2023 - 12:00 Uhr 27 °C 6 kmh aus 50° 1016 hPa 54 %
11.09.2023 - 06:00 Uhr 15 °C 4 kmh variabel 1016 hPa 88 %
11.09.2023 - 00:00 Uhr 19 °C 6 kmh aus 280° 1018 hPa 73 %
10.09.2023 - 18:00 Uhr 29 °C 8 kmh aus 10° 1017 hPa 43 %
10.09.2023 - 12:00 Uhr 26 °C 8 kmh aus 80° 1019 hPa 61 %
10.09.2023 - 06:00 Uhr 16 °C 2 kmh variabel 1019 hPa 88 %
10.09.2023 - 00:00 Uhr 20 °C 4 kmh variabel 1019 hPa 78 %
09.09.2023 - 18:00 Uhr 28 °C 8 kmh aus 10° 1018 hPa 51 %
09.09.2023 - 12:00 Uhr 27 °C 2 kmh aus 150° 1019 hPa 54 %
09.09.2023 - 06:00 Uhr 15 °C 2 kmh aus 120° 1018 hPa 94 %
09.09.2023 - 00:00 Uhr 18 °C 2 kmh variabel 1018 hPa 78 %
08.09.2023 - 18:00 Uhr 28 °C 8 kmh aus 30° 1018 hPa 45 %
08.09.2023 - 12:00 Uhr 24 °C 4 kmh variabel 1020 hPa 61 %
08.09.2023 - 06:00 Uhr 12 °C 0 kmh aus 0° 1019 hPa 94 %
08.09.2023 - 00:00 Uhr 16 °C 4 kmh aus 280° 1020 hPa 83 %
07.09.2023 - 18:00 Uhr 28 °C 12 kmh aus 80° 1019 hPa 45 %
07.09.2023 - 12:00 Uhr 22 °C 8 kmh aus 50° 1020 hPa 61 %
07.09.2023 - 06:00 Uhr 12 °C 0 kmh aus 0° 1020 hPa 94 %
07.09.2023 - 00:00 Uhr 16 °C 2 kmh variabel 1020 hPa 77 %
06.09.2023 - 18:00 Uhr 27 °C 12 kmh aus 80° 1020 hPa 42 %
06.09.2023 - 12:00 Uhr 21 °C 8 kmh variabel 1022 hPa 60 %
06.09.2023 - 06:00 Uhr 12 °C 2 kmh variabel 1021 hPa 82 %
06.09.2023 - 00:00 Uhr 16 °C 4 kmh aus 300° 1021 hPa 72 %
05.09.2023 - 18:00 Uhr 26 °C 14 kmh aus 80° 1020 hPa 45 %
05.09.2023 - 12:00 Uhr 23 °C 18 kmh aus 70° 1022 hPa 53 %
05.09.2023 - 06:00 Uhr 14 °C 2 kmh variabel 1022 hPa 72 %
05.09.2023 - 00:00 Uhr 17 °C 8 kmh aus 110° 1023 hPa 73 %
04.09.2023 - 18:00 Uhr 26 °C 21 kmh aus 70° 1023 hPa 39 %
04.09.2023 - 12:00 Uhr 23 °C 18 kmh aus 80° 1026 hPa 53 %
04.09.2023 - 06:00 Uhr 13 °C 2 kmh variabel 1027 hPa 88 %
04.09.2023 - 00:00 Uhr 16 °C 0 kmh aus 0° 1027 hPa 88 %
03.09.2023 - 18:00 Uhr 24 °C 8 kmh aus 360° 1027 hPa 54 %
03.09.2023 - 12:00 Uhr 22 °C 8 kmh aus 80° 1027 hPa 73 %
03.09.2023 - 06:00 Uhr 14 °C 4 kmh aus 320° 1025 hPa 88 %
03.09.2023 - 00:00 Uhr 17 °C 4 kmh variabel 1023 hPa 88 %
02.09.2023 - 18:00 Uhr 25 °C 12 kmh aus 20° 1021 hPa 54 %
02.09.2023 - 12:00 Uhr 24 °C 4 kmh variabel 1020 hPa 57 %
02.09.2023 - 06:00 Uhr 12 °C 2 kmh aus 110° 1019 hPa 10 %
02.09.2023 - 00:00 Uhr 16 °C 2 kmh variabel 1018 hPa 88 %
01.09.2023 - 18:00 Uhr 23 °C 14 kmh aus 240° 1016 hPa 57 %
01.09.2023 - 12:00 Uhr 20 °C 16 kmh aus 220° 1016 hPa 73 %
01.09.2023 - 06:00 Uhr 16 °C 10 kmh aus 220° 1015 hPa 77 %
01.09.2023 - 00:00 Uhr 15 °C 4 kmh variabel 1015 hPa 82 %
31.08.2023 - 18:00 Uhr 18 °C 12 kmh aus 250° 1014 hPa 56 %
31.08.2023 - 12:00 Uhr 17 °C 20 kmh aus 240° 1015 hPa 52 %
31.08.2023 - 06:00 Uhr 12 °C 6 kmh aus 220° 1012 hPa 88 %
31.08.2023 - 00:00 Uhr 15 °C 6 kmh aus 300° 1010 hPa 82 %
30.08.2023 - 18:00 Uhr 19 °C 4 kmh variabel 1009 hPa 60 %
30.08.2023 - 12:00 Uhr 16 °C 6 kmh variabel 1010 hPa 77 %
30.08.2023 - 06:00 Uhr 11 °C 4 kmh aus 110° 1010 hPa 10 %
30.08.2023 - 00:00 Uhr 13 °C 4 kmh variabel 1011 hPa 94 %
29.08.2023 - 18:00 Uhr 16 °C 6 kmh aus 290° 1010 hPa 77 %
29.08.2023 - 06:00 Uhr 13 °C 10 kmh aus 310° 1009 hPa 82 %
29.08.2023 - 00:00 Uhr 13 °C 16 kmh aus 320° 1010 hPa 82 %
28.08.2023 - 18:00 Uhr 15 °C 18 kmh aus 350° 1010 hPa 72 %
28.08.2023 - 12:00 Uhr 15 °C 14 kmh aus 10° 1010 hPa 82 %
28.08.2023 - 06:00 Uhr 14 °C 4 kmh aus 120° 1012 hPa 88 %
28.08.2023 - 00:00 Uhr 14 °C 2 kmh variabel 1014 hPa 94 %
27.08.2023 - 12:00 Uhr 18 °C 8 kmh variabel 1011 hPa 83 %
27.08.2023 - 06:00 Uhr 16 °C 6 kmh aus 160° 1011 hPa 94 %
27.08.2023 - 00:00 Uhr 15 °C 4 kmh variabel 1013 hPa 10 %
26.08.2023 - 18:00 Uhr 17 °C 6 kmh aus 60° 1014 hPa 88 %
26.08.2023 - 12:00 Uhr 21 °C 8 kmh aus 20° 1014 hPa 73 %
26.08.2023 - 06:00 Uhr 18 °C 4 kmh variabel 1013 hPa 94 %
25.08.2023 - 18:00 Uhr 27 °C 2 kmh variabel 1012 hPa 54 %
25.08.2023 - 12:00 Uhr 21 °C 10 kmh variabel 1013 hPa 83 %
25.08.2023 - 06:00 Uhr 20 °C 4 kmh variabel 1012 hPa 78 %
25.08.2023 - 00:00 Uhr 20 °C 8 kmh aus 170° 1014 hPa 83 %
24.08.2023 - 18:00 Uhr 25 °C 23 kmh aus 340° 1013 hPa 69 %
24.08.2023 - 12:00 Uhr 27 °C 8 kmh variabel 1017 hPa 54 %
24.08.2023 - 06:00 Uhr 18 °C 4 kmh variabel 1018 hPa 83 %
24.08.2023 - 00:00 Uhr 20 °C 2 kmh aus 180° 1020 hPa 73 %
23.08.2023 - 18:00 Uhr 29 °C 14 kmh aus 330° 1019 hPa 45 %
23.08.2023 - 12:00 Uhr 26 °C 6 kmh variabel 1020 hPa 61 %
23.08.2023 - 06:00 Uhr 19 °C 8 kmh aus 270° 1020 hPa 83 %
23.08.2023 - 00:00 Uhr 24 °C 12 kmh aus 290° 1020 hPa 65 %
22.08.2023 - 18:00 Uhr 30 °C 18 kmh aus 360° 1019 hPa 52 %
22.08.2023 - 12:00 Uhr 30 °C 6 kmh variabel 1021 hPa 52 %
22.08.2023 - 06:00 Uhr 20 °C 2 kmh variabel 1020 hPa 88 %
22.08.2023 - 00:00 Uhr 24 °C 10 kmh aus 300° 1021 hPa 74 %
21.08.2023 - 18:00 Uhr 32 °C 12 kmh aus 350° 1021 hPa 43 %
21.08.2023 - 12:00 Uhr 29 °C 8 kmh variabel 1023 hPa 58 %
21.08.2023 - 06:00 Uhr 20 °C 2 kmh aus 340° 1022 hPa 88 %
21.08.2023 - 00:00 Uhr 23 °C 4 kmh aus 320° 1022 hPa 78 %
20.08.2023 - 18:00 Uhr 31 °C 16 kmh aus 350° 1021 hPa 49 %
20.08.2023 - 12:00 Uhr 28 °C 6 kmh aus 100° 1022 hPa 66 %
20.08.2023 - 06:00 Uhr 19 °C 2 kmh variabel 1021 hPa 94 %
20.08.2023 - 00:00 Uhr 24 °C 2 kmh aus 40° 1021 hPa 74 %
19.08.2023 - 18:00 Uhr 28 °C 18 kmh aus 320° 1019 hPa 48 %
19.08.2023 - 12:00 Uhr 31 °C 8 kmh aus 120° 1017 hPa 43 %
19.08.2023 - 06:00 Uhr 17 °C 0 kmh aus 0° 1016 hPa 83 %
19.08.2023 - 00:00 Uhr 21 °C 4 kmh aus 80° 1016 hPa 73 %
18.08.2023 - 18:00 Uhr 32 °C 4 kmh variabel 1016 hPa 33 %
18.08.2023 - 12:00 Uhr 27 °C 4 kmh variabel 1017 hPa 51 %
18.08.2023 - 06:00 Uhr 16 °C 2 kmh aus 260° 1016 hPa 88 %
18.08.2023 - 00:00 Uhr 20 °C 6 kmh aus 80° 1017 hPa 88 %
17.08.2023 - 18:00 Uhr 24 °C 4 kmh variabel 1016 hPa 83 %
17.08.2023 - 12:00 Uhr 25 °C 4 kmh variabel 1018 hPa 69 %
17.08.2023 - 06:00 Uhr 19 °C 4 kmh variabel 1017 hPa 94 %
17.08.2023 - 00:00 Uhr 20 °C 6 kmh aus 210° 1018 hPa 88 %
16.08.2023 - 12:00 Uhr 26 °C 10 kmh aus 80° 1019 hPa 65 %
16.08.2023 - 06:00 Uhr 18 °C 6 kmh aus 310° 1019 hPa 94 %
16.08.2023 - 00:00 Uhr 21 °C 6 kmh aus 300° 1020 hPa 83 %
15.08.2023 - 18:00 Uhr 27 °C 16 kmh aus 340° 1017 hPa 58 %
15.08.2023 - 12:00 Uhr 27 °C 16 kmh aus 240° 1018 hPa 48 %
15.08.2023 - 06:00 Uhr 19 °C 2 kmh variabel 1016 hPa 10 %
15.08.2023 - 00:00 Uhr 22 °C 2 kmh variabel 1016 hPa 83 %
14.08.2023 - 18:00 Uhr 29 °C 4 kmh variabel 1015 hPa 55 %
14.08.2023 - 12:00 Uhr 28 °C 4 kmh variabel 1016 hPa 62 %
14.08.2023 - 06:00 Uhr 19 °C 2 kmh variabel 1017 hPa 88 %
14.08.2023 - 00:00 Uhr 20 °C 2 kmh variabel 1018 hPa 94 %
13.08.2023 - 12:00 Uhr 22 °C 6 kmh aus 310° 1019 hPa 83 %
13.08.2023 - 06:00 Uhr 18 °C 4 kmh variabel 1019 hPa 10 %
13.08.2023 - 00:00 Uhr 21 °C 2 kmh variabel 1020 hPa 88 %
12.08.2023 - 18:00 Uhr 25 °C 4 kmh variabel 1018 hPa 69 %
12.08.2023 - 12:00 Uhr 28 °C 8 kmh variabel 1019 hPa 51 %
12.08.2023 - 06:00 Uhr 18 °C 2 kmh variabel 1019 hPa 83 %
12.08.2023 - 00:00 Uhr 21 °C 6 kmh aus 270° 1020 hPa 69 %
11.08.2023 - 18:00 Uhr 30 °C 10 kmh aus 70° 1021 hPa 40 %
11.08.2023 - 12:00 Uhr 25 °C 8 kmh variabel 1022 hPa 51 %
11.08.2023 - 06:00 Uhr 12 °C 2 kmh variabel 1022 hPa 94 %
11.08.2023 - 00:00 Uhr 16 °C 2 kmh variabel 1022 hPa 72 %
10.08.2023 - 18:00 Uhr 25 °C 12 kmh aus 60° 1020 hPa 42 %
10.08.2023 - 12:00 Uhr 20 °C 4 kmh variabel 1022 hPa 69 %
10.08.2023 - 06:00 Uhr 11 °C 2 kmh variabel 1021 hPa 94 %
09.08.2023 - 18:00 Uhr 21 °C 14 kmh aus 250° 1018 hPa 57 %
09.08.2023 - 12:00 Uhr 19 °C 18 kmh aus 250° 1017 hPa 60 %
09.08.2023 - 06:00 Uhr 15 °C 2 kmh variabel 1016 hPa 77 %
09.08.2023 - 00:00 Uhr 16 °C 6 kmh aus 230° 1017 hPa 68 %
08.08.2023 - 18:00 Uhr 20 °C 20 kmh aus 260° 1016 hPa 49 %
08.08.2023 - 12:00 Uhr 19 °C 21 kmh aus 250° 1017 hPa 52 %
08.08.2023 - 06:00 Uhr 10 °C 6 kmh aus 270° 1018 hPa 88 %
08.08.2023 - 00:00 Uhr 13 °C 8 kmh aus 230° 1019 hPa 72 %
07.08.2023 - 18:00 Uhr 17 °C 23 kmh aus 260° 1019 hPa 52 %
07.08.2023 - 12:00 Uhr 16 °C 31 kmh aus 270° 1018 hPa 52 %
07.08.2023 - 06:00 Uhr 11 °C 23 kmh aus 250° 1016 hPa 77 %
07.08.2023 - 00:00 Uhr 12 °C 25 kmh aus 240° 1014 hPa 82 %
06.08.2023 - 18:00 Uhr 16 °C 35 kmh aus 250° 1012 hPa 68 %
06.08.2023 - 12:00 Uhr 15 °C 20 kmh variabel 1008 hPa 82 %
06.08.2023 - 00:00 Uhr 15 °C 4 kmh variabel 1010 hPa 94 %
05.08.2023 - 18:00 Uhr 21 °C 4 kmh variabel 1011 hPa 53 %
05.08.2023 - 12:00 Uhr 19 °C 6 kmh aus 230° 1015 hPa 64 %
05.08.2023 - 06:00 Uhr 15 °C 8 kmh aus 270° 1016 hPa 82 %
05.08.2023 - 00:00 Uhr 15 °C 8 kmh aus 290° 1016 hPa 88 %
04.08.2023 - 12:00 Uhr 21 °C 8 kmh aus 270° 1012 hPa 57 %
04.08.2023 - 06:00 Uhr 12 °C 4 kmh aus 70° 1011 hPa 88 %
04.08.2023 - 00:00 Uhr 15 °C 6 kmh variabel 1011 hPa 77 %
03.08.2023 - 18:00 Uhr 22 °C 29 kmh aus 250° 1008 hPa 47 %
03.08.2023 - 12:00 Uhr 20 °C 29 kmh aus 220° 1007 hPa 56 %
03.08.2023 - 06:00 Uhr 17 °C 20 kmh variabel 1003 hPa 64 %
03.08.2023 - 00:00 Uhr 17 °C 10 kmh aus 210° 1002 hPa 83 %
02.08.2023 - 18:00 Uhr 25 °C 14 kmh aus 230° 998 hPa 57 %
02.08.2023 - 12:00 Uhr 18 °C 12 kmh variabel 1001 hPa 83 %
02.08.2023 - 06:00 Uhr 15 °C 6 kmh aus 150° 1006 hPa 77 %
02.08.2023 - 00:00 Uhr 17 °C 14 kmh aus 240° 1009 hPa 64 %
01.08.2023 - 18:00 Uhr 22 °C 33 kmh aus 270° 1006 hPa 47 %
01.08.2023 - 06:00 Uhr 19 °C 18 kmh variabel 1005 hPa 68 %
01.08.2023 - 00:00 Uhr 17 °C 4 kmh variabel 1009 hPa 88 %
31.07.2023 - 18:00 Uhr 23 °C 8 kmh variabel 1012 hPa 50 %
31.07.2023 - 12:00 Uhr 20 °C 18 kmh aus 240° 1015 hPa 56 %
31.07.2023 - 06:00 Uhr 12 °C 4 kmh variabel 1016 hPa 82 %
31.07.2023 - 00:00 Uhr 15 °C 4 kmh variabel 1018 hPa 72 %
30.07.2023 - 18:00 Uhr 21 °C 37 kmh aus 270° 1017 hPa 50 %
30.07.2023 - 00:00 Uhr 18 °C 4 kmh variabel 1013 hPa 94 %
29.07.2023 - 18:00 Uhr 25 °C 21 kmh aus 250° 1012 hPa 51 %
29.07.2023 - 12:00 Uhr 22 °C 10 kmh aus 240° 1012 hPa 78 %
29.07.2023 - 06:00 Uhr 16 °C 2 kmh variabel 1011 hPa 94 %
29.07.2023 - 00:00 Uhr 17 °C 2 kmh variabel 1013 hPa 94 %
28.07.2023 - 18:00 Uhr 20 °C 2 kmh variabel 1012 hPa 83 %
28.07.2023 - 12:00 Uhr 22 °C 20 kmh aus 260° 1011 hPa 61 %
28.07.2023 - 06:00 Uhr 16 °C 4 kmh variabel 1010 hPa 83 %
28.07.2023 - 00:00 Uhr 17 °C 6 kmh aus 310° 1010 hPa 88 %
27.07.2023 - 18:00 Uhr 21 °C 10 kmh aus 180° 1010 hPa 69 %
27.07.2023 - 12:00 Uhr 18 °C 8 kmh aus 200° 1012 hPa 68 %
27.07.2023 - 06:00 Uhr 10 °C 4 kmh aus 60° 1014 hPa 94 %
27.07.2023 - 00:00 Uhr 13 °C 4 kmh variabel 1017 hPa 77 %
26.07.2023 - 06:00 Uhr 12 °C 6 kmh aus 240° 1014 hPa 88 %
26.07.2023 - 00:00 Uhr 13 °C 12 kmh aus 250° 1011 hPa 88 %
25.07.2023 - 06:00 Uhr 15 °C 6 kmh aus 340° 1006 hPa 88 %
25.07.2023 - 00:00 Uhr 16 °C 8 kmh aus 200° 1008 hPa 83 %
24.07.2023 - 18:00 Uhr 21 °C 18 kmh variabel 1007 hPa 69 %
24.07.2023 - 12:00 Uhr 20 °C 6 kmh variabel 1008 hPa 73 %
24.07.2023 - 06:00 Uhr 15 °C 4 kmh variabel 1009 hPa 77 %
24.07.2023 - 00:00 Uhr 19 °C 2 kmh variabel 1011 hPa 60 %
23.07.2023 - 18:00 Uhr 25 °C 21 kmh aus 230° 1013 hPa 34 %
23.07.2023 - 12:00 Uhr 24 °C 21 kmh aus 220° 1014 hPa 41 %
23.07.2023 - 06:00 Uhr 15 °C 2 kmh variabel 1014 hPa 68 %
23.07.2023 - 00:00 Uhr 17 °C 4 kmh variabel 1015 hPa 64 %
22.07.2023 - 18:00 Uhr 25 °C 20 kmh aus 250° 1015 hPa 34 %
22.07.2023 - 12:00 Uhr 22 °C 16 kmh aus 240° 1017 hPa 41 %
22.07.2023 - 06:00 Uhr 10 °C 4 kmh aus 70° 1016 hPa 94 %
22.07.2023 - 00:00 Uhr 15 °C 2 kmh aus 250° 1016 hPa 72 %
21.07.2023 - 12:00 Uhr 23 °C 16 kmh aus 20° 1012 hPa 38 %
21.07.2023 - 06:00 Uhr 14 °C 2 kmh variabel 1012 hPa 77 %
21.07.2023 - 00:00 Uhr 17 °C 12 kmh aus 300° 1013 hPa 56 %
20.07.2023 - 18:00 Uhr 25 °C 12 kmh variabel 1013 hPa 30 %
20.07.2023 - 12:00 Uhr 23 °C 14 kmh variabel 1016 hPa 41 %
20.07.2023 - 09:38 Uhr 19 °C 10 kmh aus 240° 1016 hPa 56 %
20.07.2023 - 09:22 Uhr 19 °C 12 kmh aus 240° 1016 hPa 56 %
18.07.2023 - 00:00 Uhr 19 °C 10 kmh aus 280° 1022 hPa 52 %
17.07.2023 - 18:00 Uhr 25 °C 16 kmh aus 300° 1020 hPa 42 %
17.07.2023 - 12:00 Uhr 25 °C 14 kmh aus 210° 1021 hPa 36 %
17.07.2023 - 06:00 Uhr 18 °C 4 kmh variabel 1020 hPa 68 %
17.07.2023 - 00:00 Uhr 21 °C 6 kmh aus 290° 1019 hPa 57 %
16.07.2023 - 18:00 Uhr 25 °C 12 kmh aus 290° 1017 hPa 39 %
16.07.2023 - 12:00 Uhr 21 °C 16 kmh aus 250° 1019 hPa 53 %
16.07.2023 - 06:00 Uhr 17 °C 4 kmh variabel 1018 hPa 83 %
16.07.2023 - 00:00 Uhr 20 °C 12 kmh aus 310° 1014 hPa 88 %
15.07.2023 - 18:00 Uhr 27 °C 31 kmh aus 310° 1010 hPa 51 %
15.07.2023 - 12:00 Uhr 33 °C 14 kmh variabel 1011 hPa 28 %
15.07.2023 - 06:00 Uhr 16 °C 6 kmh aus 60° 1012 hPa 83 %
15.07.2023 - 00:00 Uhr 21 °C 2 kmh variabel 1012 hPa 60 %
14.07.2023 - 18:00 Uhr 28 °C 12 kmh aus 80° 1013 hPa 32 %
14.07.2023 - 12:00 Uhr 24 °C 6 kmh aus 120° 1017 hPa 41 %
14.07.2023 - 06:00 Uhr 13 °C 4 kmh variabel 1019 hPa 82 %
14.07.2023 - 00:00 Uhr 18 °C 2 kmh variabel 1020 hPa 60 %
13.07.2023 - 18:00 Uhr 25 °C 27 kmh aus 310° 1018 hPa 34 %
13.07.2023 - 12:00 Uhr 23 °C 12 kmh variabel 1019 hPa 36 %
13.07.2023 - 06:00 Uhr 16 °C 8 kmh aus 280° 1017 hPa 72 %
13.07.2023 - 00:00 Uhr 20 °C 2 kmh variabel 1016 hPa 64 %
12.07.2023 - 18:00 Uhr 27 °C 25 kmh aus 320° 1014 hPa 45 %
12.07.2023 - 12:00 Uhr 27 °C 14 kmh variabel 1014 hPa 48 %
12.07.2023 - 06:00 Uhr 19 °C 6 kmh aus 260° 1013 hPa 88 %
11.07.2023 - 18:00 Uhr 36 °C 14 kmh aus 250° 1012 hPa 20 %
11.07.2023 - 12:00 Uhr 32 °C 8 kmh variabel 1016 hPa 36 %
11.07.2023 - 06:00 Uhr 16 °C 4 kmh variabel 1019 hPa 83 %
11.07.2023 - 00:00 Uhr 21 °C 6 kmh aus 220° 1021 hPa 60 %
10.07.2023 - 18:00 Uhr 32 °C 14 kmh variabel 1020 hPa 31 %
10.07.2023 - 12:00 Uhr 29 °C 14 kmh aus 300° 1022 hPa 45 %
10.07.2023 - 06:00 Uhr 22 °C 10 kmh aus 280° 1020 hPa 65 %
10.07.2023 - 00:00 Uhr 24 °C 6 kmh aus 220° 1019 hPa 50 %
09.07.2023 - 18:00 Uhr 35 °C 8 kmh aus 130° 1019 hPa 20 %
09.07.2023 - 12:00 Uhr 33 °C 4 kmh variabel 1021 hPa 28 %
09.07.2023 - 06:00 Uhr 17 °C 2 kmh variabel 1021 hPa 77 %
09.07.2023 - 00:00 Uhr 23 °C 2 kmh variabel 1020 hPa 53 %
08.07.2023 - 18:00 Uhr 32 °C 6 kmh variabel 1018 hPa 27 %
08.07.2023 - 12:00 Uhr 27 °C 14 kmh aus 130° 1020 hPa 39 %
08.07.2023 - 06:00 Uhr 16 °C 2 kmh variabel 1018 hPa 63 %
08.07.2023 - 00:00 Uhr 21 °C 6 kmh aus 90° 1019 hPa 46 %
07.07.2023 - 18:00 Uhr 30 °C 10 kmh aus 160° 1018 hPa 22 %
07.07.2023 - 12:00 Uhr 27 °C 12 kmh aus 70° 1020 hPa 34 %
07.07.2023 - 06:00 Uhr 12 °C 2 kmh variabel 1020 hPa 77 %
07.07.2023 - 00:00 Uhr 17 °C 4 kmh variabel 1019 hPa 52 %
06.07.2023 - 18:00 Uhr 25 °C 12 kmh aus 320° 1017 hPa 30 %
06.07.2023 - 12:00 Uhr 22 °C 6 kmh variabel 1019 hPa 38 %
06.07.2023 - 06:00 Uhr 12 °C 2 kmh aus 50° 1018 hPa 82 %
06.07.2023 - 00:00 Uhr 16 °C 4 kmh aus 170° 1018 hPa 63 %
05.07.2023 - 18:00 Uhr 23 °C 20 kmh aus 280° 1016 hPa 33 %
05.07.2023 - 12:00 Uhr 19 °C 14 kmh aus 230° 1015 hPa 73 %
05.07.2023 - 06:00 Uhr 17 °C 8 kmh variabel 1013 hPa 77 %
05.07.2023 - 00:00 Uhr 18 °C 4 kmh variabel 1014 hPa 64 %
04.07.2023 - 18:00 Uhr 26 °C 14 kmh aus 240° 1014 hPa 32 %
04.07.2023 - 12:00 Uhr 23 °C 12 kmh variabel 1016 hPa 44 %
04.07.2023 - 06:00 Uhr 16 °C 4 kmh variabel 1016 hPa 83 %
04.07.2023 - 00:00 Uhr 19 °C 16 kmh aus 250° 1015 hPa 60 %
03.07.2023 - 18:00 Uhr 24 °C 25 kmh aus 270° 1014 hPa 36 %
03.07.2023 - 12:00 Uhr 22 °C 25 kmh aus 290° 1015 hPa 41 %
03.07.2023 - 06:00 Uhr 16 °C 8 kmh aus 220° 1014 hPa 63 %
03.07.2023 - 00:00 Uhr 17 °C 14 kmh aus 280° 1015 hPa 56 %
02.07.2023 - 18:00 Uhr 24 °C 23 kmh aus 250° 1013 hPa 34 %
02.07.2023 - 12:00 Uhr 21 °C 20 kmh aus 260° 1013 hPa 50 %
02.07.2023 - 06:00 Uhr 15 °C 23 kmh aus 280° 1012 hPa 88 %
02.07.2023 - 00:00 Uhr 17 °C 8 kmh aus 220° 1011 hPa 83 %
01.07.2023 - 12:00 Uhr 22 °C 25 kmh aus 230° 1011 hPa 41 %
01.07.2023 - 06:00 Uhr 14 °C 8 kmh aus 240° 1012 hPa 88 %
01.07.2023 - 00:00 Uhr 18 °C 6 kmh aus 210° 1013 hPa 78 %
30.06.2023 - 18:00 Uhr 22 °C 20 kmh aus 330° 1012 hPa 61 %
30.06.2023 - 06:00 Uhr 18 °C 4 kmh variabel 1012 hPa 73 %
30.06.2023 - 00:00 Uhr 21 °C 4 kmh variabel 1014 hPa 60 %
29.06.2023 - 18:00 Uhr 26 °C 16 kmh aus 20° 1013 hPa 39 %
29.06.2023 - 12:00 Uhr 26 °C 6 kmh variabel 1016 hPa 34 %
29.06.2023 - 06:00 Uhr 13 °C 0 kmh aus 0° 1017 hPa 82 %
29.06.2023 - 00:00 Uhr 18 °C 2 kmh aus 300° 1018 hPa 60 %
28.06.2023 - 18:00 Uhr 25 °C 6 kmh aus 260° 1018 hPa 34 %
28.06.2023 - 12:00 Uhr 21 °C 4 kmh variabel 1019 hPa 43 %
28.06.2023 - 06:00 Uhr 15 °C 4 kmh variabel 1019 hPa 72 %
28.06.2023 - 00:00 Uhr 19 °C 10 kmh aus 280° 1019 hPa 46 %
27.06.2023 - 18:00 Uhr 23 °C 10 kmh aus 330° 1019 hPa 33 %
27.06.2023 - 12:00 Uhr 21 °C 8 kmh aus 80° 1021 hPa 43 %
27.06.2023 - 06:00 Uhr 17 °C 4 kmh variabel 1021 hPa 56 %
27.06.2023 - 00:00 Uhr 19 °C 18 kmh aus 270° 1020 hPa 49 %
26.06.2023 - 18:00 Uhr 27 °C 33 kmh aus 290° 1017 hPa 39 %
26.06.2023 - 12:00 Uhr 31 °C 10 kmh aus 270° 1016 hPa 29 %
26.06.2023 - 06:00 Uhr 15 °C 2 kmh variabel 1016 hPa 77 %
26.06.2023 - 00:00 Uhr 20 °C 4 kmh variabel 1017 hPa 49 %
25.06.2023 - 18:00 Uhr 30 °C 8 kmh aus 40° 1017 hPa 22 %
25.06.2023 - 12:00 Uhr 26 °C 10 kmh aus 80° 1019 hPa 32 %
25.06.2023 - 06:00 Uhr 14 °C 4 kmh variabel 1020 hPa 77 %
25.06.2023 - 00:00 Uhr 19 °C 2 kmh variabel 1022 hPa 56 %
24.06.2023 - 18:00 Uhr 27 °C 12 kmh variabel 1022 hPa 30 %
24.06.2023 - 12:00 Uhr 24 °C 6 kmh variabel 1026 hPa 41 %
24.06.2023 - 06:00 Uhr 13 °C 4 kmh variabel 1026 hPa 82 %
24.06.2023 - 00:00 Uhr 16 °C 2 kmh variabel 1026 hPa 72 %
23.06.2023 - 18:00 Uhr 25 °C 23 kmh aus 310° 1024 hPa 36 %
23.06.2023 - 12:00 Uhr 21 °C 27 kmh aus 250° 1023 hPa 53 %
23.06.2023 - 06:00 Uhr 16 °C 14 kmh aus 250° 1020 hPa 88 %
23.06.2023 - 00:00 Uhr 20 °C 10 kmh variabel 1017 hPa 73 %
22.06.2023 - 18:00 Uhr 30 °C 14 kmh aus 230° 1013 hPa 33 %
22.06.2023 - 12:00 Uhr 28 °C 8 kmh aus 270° 1015 hPa 51 %
22.06.2023 - 06:00 Uhr 18 °C 6 kmh aus 330° 1017 hPa 88 %
22.06.2023 - 00:00 Uhr 21 °C 10 kmh aus 90° 1018 hPa 78 %
21.06.2023 - 18:00 Uhr 26 °C 8 kmh aus 40° 1019 hPa 58 %
21.06.2023 - 12:00 Uhr 20 °C 6 kmh aus 110° 1019 hPa 88 %
21.06.2023 - 00:00 Uhr 23 °C 6 kmh aus 270° 1015 hPa 65 %
20.06.2023 - 18:00 Uhr 32 °C 6 kmh aus 250° 1012 hPa 31 %
20.06.2023 - 12:00 Uhr 27 °C 8 kmh aus 220° 1014 hPa 51 %
20.06.2023 - 06:00 Uhr 18 °C 4 kmh variabel 1014 hPa 88 %
20.06.2023 - 00:00 Uhr 20 °C 2 kmh aus 120° 1013 hPa 73 %
19.06.2023 - 12:00 Uhr 26 °C 12 kmh aus 270° 1015 hPa 45 %
19.06.2023 - 06:00 Uhr 20 °C 6 kmh variabel 1014 hPa 64 %
19.06.2023 - 00:00 Uhr 24 °C 6 kmh aus 200° 1012 hPa 44 %
18.06.2023 - 18:00 Uhr 31 °C 14 kmh aus 100° 1012 hPa 24 %
18.06.2023 - 12:00 Uhr 27 °C 8 kmh variabel 1014 hPa 26 %
18.06.2023 - 06:00 Uhr 11 °C 6 kmh aus 310° 1015 hPa 77 %
18.06.2023 - 00:00 Uhr 17 °C 6 kmh aus 270° 1015 hPa 52 %
17.06.2023 - 18:00 Uhr 27 °C 14 kmh aus 310° 1014 hPa 24 %
17.06.2023 - 12:00 Uhr 24 °C 10 kmh aus 350° 1016 hPa 36 %
17.06.2023 - 06:00 Uhr 11 °C 6 kmh aus 60° 1016 hPa 77 %
17.06.2023 - 00:00 Uhr 16 °C 10 kmh aus 320° 1017 hPa 59 %
16.06.2023 - 18:00 Uhr 26 °C 21 kmh aus 330° 1016 hPa 24 %
16.06.2023 - 12:00 Uhr 24 °C 18 kmh aus 330° 1018 hPa 27 %
16.06.2023 - 06:00 Uhr 11 °C 4 kmh variabel 1017 hPa 77 %
16.06.2023 - 00:00 Uhr 16 °C 4 kmh aus 270° 1018 hPa 55 %
15.06.2023 - 18:00 Uhr 24 °C 12 kmh aus 350° 1016 hPa 29 %
15.06.2023 - 12:00 Uhr 23 °C 12 kmh aus 30° 1017 hPa 38 %
15.06.2023 - 06:00 Uhr 12 °C 6 kmh aus 290° 1017 hPa 67 %
15.06.2023 - 00:00 Uhr 15 °C 4 kmh aus 40° 1016 hPa 59 %
14.06.2023 - 18:00 Uhr 24 °C 20 kmh aus 20° 1014 hPa 31 %
14.06.2023 - 12:00 Uhr 22 °C 12 kmh aus 30° 1014 hPa 36 %
14.06.2023 - 06:00 Uhr 10 °C 2 kmh variabel 1012 hPa 67 %
14.06.2023 - 00:00 Uhr 14 °C 2 kmh aus 290° 1012 hPa 55 %
13.06.2023 - 18:00 Uhr 25 °C 20 kmh aus 60° 1010 hPa 24 %
13.06.2023 - 12:00 Uhr 21 °C 20 kmh aus 80° 1013 hPa 31 %
13.06.2023 - 06:00 Uhr 12 °C 8 kmh aus 90° 1013 hPa 67 %
13.06.2023 - 00:00 Uhr 17 °C 12 kmh aus 80° 1013 hPa 49 %
12.06.2023 - 18:00 Uhr 26 °C 20 kmh aus 60° 1013 hPa 28 %
12.06.2023 - 12:00 Uhr 24 °C 18 kmh aus 70° 1015 hPa 39 %
12.06.2023 - 06:00 Uhr 14 °C 6 kmh aus 280° 1015 hPa 67 %
12.06.2023 - 00:00 Uhr 17 °C 4 kmh aus 70° 1015 hPa 59 %
11.06.2023 - 18:00 Uhr 27 °C 16 kmh aus 90° 1014 hPa 30 %
11.06.2023 - 12:00 Uhr 24 °C 18 kmh aus 100° 1016 hPa 44 %
11.06.2023 - 06:00 Uhr 15 °C 10 kmh aus 80° 1016 hPa 82 %
11.06.2023 - 00:00 Uhr 20 °C 18 kmh aus 70° 1015 hPa 60 %
10.06.2023 - 18:00 Uhr 27 °C 20 kmh aus 60° 1012 hPa 37 %
10.06.2023 - 12:00 Uhr 25 °C 12 kmh aus 100° 1014 hPa 44 %
10.06.2023 - 06:00 Uhr 14 °C 6 kmh aus 330° 1013 hPa 77 %
10.06.2023 - 00:00 Uhr 18 °C 4 kmh aus 60° 1013 hPa 56 %
09.06.2023 - 18:00 Uhr 27 °C 25 kmh aus 70° 1011 hPa 34 %
09.06.2023 - 12:00 Uhr 24 °C 20 kmh aus 70° 1013 hPa 41 %
09.06.2023 - 06:00 Uhr 11 °C 2 kmh variabel 1013 hPa 88 %
09.06.2023 - 00:00 Uhr 15 °C 10 kmh aus 330° 1014 hPa 72 %
08.06.2023 - 18:00 Uhr 21 °C 14 kmh aus 40° 1014 hPa 50 %
08.06.2023 - 12:00 Uhr 24 °C 12 kmh aus 360° 1015 hPa 44 %
08.06.2023 - 06:00 Uhr 12 °C 4 kmh variabel 1015 hPa 82 %
07.06.2023 - 18:00 Uhr 25 °C 14 kmh aus 10° 1015 hPa 36 %
07.06.2023 - 12:00 Uhr 21 °C 8 kmh variabel 1018 hPa 50 %
07.06.2023 - 06:00 Uhr 10 °C 4 kmh variabel 1018 hPa 88 %
07.06.2023 - 00:00 Uhr 15 °C 6 kmh aus 40° 1018 hPa 68 %
06.06.2023 - 18:00 Uhr 23 °C 16 kmh aus 30° 1016 hPa 36 %
06.06.2023 - 12:00 Uhr 21 °C 12 kmh aus 60° 1018 hPa 46 %
06.06.2023 - 06:00 Uhr 11 °C 2 kmh variabel 1017 hPa 82 %
06.06.2023 - 00:00 Uhr 16 °C 6 kmh aus 50° 1017 hPa 72 %
05.06.2023 - 18:00 Uhr 25 °C 14 kmh aus 350° 1015 hPa 28 %
05.06.2023 - 12:00 Uhr 23 °C 18 kmh aus 60° 1017 hPa 44 %
05.06.2023 - 06:00 Uhr 10 °C 4 kmh aus 300° 1017 hPa 71 %
05.06.2023 - 00:00 Uhr 16 °C 8 kmh aus 340° 1018 hPa 48 %
04.06.2023 - 18:00 Uhr 24 °C 16 kmh aus 20° 1017 hPa 29 %
04.06.2023 - 12:00 Uhr 22 °C 18 kmh aus 70° 1018 hPa 41 %
04.06.2023 - 06:00 Uhr 11 °C 2 kmh variabel 1017 hPa 67 %
04.06.2023 - 00:00 Uhr 16 °C 6 kmh aus 40° 1017 hPa 55 %
03.06.2023 - 18:00 Uhr 24 °C 16 kmh aus 40° 1015 hPa 36 %
03.06.2023 - 12:00 Uhr 21 °C 14 kmh aus 70° 1017 hPa 46 %
03.06.2023 - 06:00 Uhr 11 °C 6 kmh aus 10° 1017 hPa 72 %
03.06.2023 - 00:00 Uhr 15 °C 14 kmh aus 40° 1017 hPa 55 %
02.06.2023 - 18:00 Uhr 22 °C 18 kmh aus 10° 1015 hPa 41 %
02.06.2023 - 12:00 Uhr 19 °C 14 kmh aus 330° 1017 hPa 52 %
02.06.2023 - 06:00 Uhr 13 °C 12 kmh aus 330° 1016 hPa 67 %
02.06.2023 - 00:00 Uhr 19 °C 14 kmh aus 340° 1015 hPa 49 %
01.06.2023 - 18:00 Uhr 26 °C 12 kmh variabel 1015 hPa 32 %
01.06.2023 - 12:00 Uhr 23 °C 8 kmh variabel 1018 hPa 38 %
01.06.2023 - 06:00 Uhr 10 °C 0 kmh aus 0° 1018 hPa 76 %
01.06.2023 - 00:00 Uhr 16 °C 6 kmh aus 360° 1018 hPa 52 %
31.05.2023 - 18:00 Uhr 24 °C 23 kmh aus 60° 1018 hPa 27 %
31.05.2023 - 12:00 Uhr 22 °C 21 kmh aus 60° 1020 hPa 38 %
31.05.2023 - 06:00 Uhr 11 °C 8 kmh aus 40° 1020 hPa 62 %
31.05.2023 - 00:00 Uhr 16 °C 16 kmh aus 60° 1020 hPa 42 %
30.05.2023 - 18:00 Uhr 22 °C 20 kmh aus 360° 1019 hPa 41 %
30.05.2023 - 12:00 Uhr 20 °C 12 kmh aus 10° 1021 hPa 49 %
30.05.2023 - 06:00 Uhr 13 °C 10 kmh aus 350° 1020 hPa 67 %
30.05.2023 - 00:00 Uhr 16 °C 10 kmh aus 50° 1019 hPa 55 %
29.05.2023 - 18:00 Uhr 24 °C 16 kmh aus 50° 1017 hPa 34 %
29.05.2023 - 12:00 Uhr 22 °C 16 kmh aus 30° 1018 hPa 47 %
29.05.2023 - 06:00 Uhr 9 °C 6 kmh aus 320° 1017 hPa 82 %
29.05.2023 - 00:00 Uhr 14 °C 4 kmh variabel 1017 hPa 63 %
28.05.2023 - 18:00 Uhr 24 °C 18 kmh aus 10° 1016 hPa 36 %
28.05.2023 - 12:00 Uhr 21 °C 12 kmh variabel 1017 hPa 46 %
28.05.2023 - 06:00 Uhr 9 °C 4 kmh variabel 1018 hPa 76 %
28.05.2023 - 00:00 Uhr 14 °C 4 kmh variabel 1019 hPa 63 %
27.05.2023 - 18:00 Uhr 22 °C 16 kmh aus 50° 1019 hPa 38 %
27.05.2023 - 12:00 Uhr 20 °C 16 kmh aus 50° 1022 hPa 49 %
27.05.2023 - 06:00 Uhr 11 °C 8 kmh variabel 1023 hPa 72 %
27.05.2023 - 00:00 Uhr 15 °C 16 kmh aus 50° 1024 hPa 59 %
26.05.2023 - 18:00 Uhr 22 °C 10 kmh aus 20° 1023 hPa 47 %
26.05.2023 - 12:00 Uhr 19 °C 12 kmh aus 350° 1024 hPa 52 %
26.05.2023 - 06:00 Uhr 12 °C 10 kmh aus 350° 1023 hPa 77 %
26.05.2023 - 00:00 Uhr 14 °C 2 kmh variabel 1023 hPa 67 %
25.05.2023 - 18:00 Uhr 21 °C 14 kmh aus 20° 1021 hPa 50 %
25.05.2023 - 12:00 Uhr 17 °C 20 kmh aus 50° 1022 hPa 59 %
25.05.2023 - 06:00 Uhr 8 °C 6 kmh aus 330° 1020 hPa 76 %
25.05.2023 - 00:00 Uhr 11 °C 6 kmh aus 360° 1020 hPa 54 %
24.05.2023 - 18:00 Uhr 14 °C 12 kmh aus 30° 1019 hPa 51 %
24.05.2023 - 12:00 Uhr 11 °C 10 kmh aus 10° 1021 hPa 72 %
24.05.2023 - 06:00 Uhr 10 °C 12 kmh aus 360° 1019 hPa 76 %
24.05.2023 - 00:00 Uhr 13 °C 16 kmh aus 350° 1020 hPa 77 %
23.05.2023 - 18:00 Uhr 18 °C 16 kmh aus 330° 1017 hPa 64 %
23.05.2023 - 12:00 Uhr 16 °C 25 kmh aus 300° 1018 hPa 77 %
23.05.2023 - 06:00 Uhr 16 °C 12 kmh aus 290° 1015 hPa 88 %
23.05.2023 - 00:00 Uhr 18 °C 12 kmh aus 270° 1014 hPa 73 %
22.05.2023 - 12:00 Uhr 23 °C 6 kmh variabel 1013 hPa 61 %
22.05.2023 - 06:00 Uhr 12 °C 4 kmh variabel 1013 hPa 94 %
22.05.2023 - 00:00 Uhr 15 °C 4 kmh variabel 1013 hPa 82 %
21.05.2023 - 18:00 Uhr 23 °C 4 kmh variabel 1012 hPa 44 %
21.05.2023 - 12:00 Uhr 19 °C 10 kmh aus 70° 1012 hPa 64 %
21.05.2023 - 06:00 Uhr 12 °C 4 kmh aus 260° 1011 hPa 94 %
21.05.2023 - 00:00 Uhr 17 °C 12 kmh aus 350° 1013 hPa 73 %
20.05.2023 - 18:00 Uhr 22 °C 16 kmh aus 70° 1013 hPa 50 %
20.05.2023 - 12:00 Uhr 17 °C 12 kmh aus 60° 1015 hPa 68 %
20.05.2023 - 06:00 Uhr 10 °C 6 kmh aus 350° 1017 hPa 88 %
20.05.2023 - 00:00 Uhr 12 °C 6 kmh aus 300° 1018 hPa 77 %
19.05.2023 - 18:00 Uhr 14 °C 16 kmh aus 40° 1019 hPa 63 %
19.05.2023 - 12:00 Uhr 13 °C 18 kmh aus 30° 1020 hPa 63 %
19.05.2023 - 06:00 Uhr 10 °C 14 kmh aus 30° 1021 hPa 71 %
19.05.2023 - 00:00 Uhr 12 °C 4 kmh aus 50° 1022 hPa 67 %
18.05.2023 - 18:00 Uhr 15 °C 20 kmh aus 80° 1021 hPa 48 %
18.05.2023 - 12:00 Uhr 13 °C 18 kmh aus 40° 1022 hPa 55 %
18.05.2023 - 06:00 Uhr 3 °C 2 kmh variabel 1022 hPa 87 %
18.05.2023 - 00:00 Uhr 6 °C 8 kmh aus 320° 1023 hPa 81 %
17.05.2023 - 18:00 Uhr 12 °C 21 kmh aus 20° 1023 hPa 58 %
17.05.2023 - 12:00 Uhr 11 °C 14 kmh aus 350° 1023 hPa 62 %
17.05.2023 - 06:00 Uhr 5 °C 6 kmh aus 270° 1021 hPa 76 %
17.05.2023 - 00:00 Uhr 9 °C 10 kmh aus 350° 1019 hPa 62 %
16.05.2023 - 18:00 Uhr 12 °C 16 kmh aus 350° 1016 hPa 67 %
16.05.2023 - 12:00 Uhr 11 °C 18 kmh aus 350° 1015 hPa 88 %
16.05.2023 - 06:00 Uhr 10 °C 8 kmh aus 330° 1013 hPa 94 %
16.05.2023 - 00:00 Uhr 11 °C 4 kmh variabel 1013 hPa 88 %
15.05.2023 - 06:00 Uhr 10 °C 6 kmh aus 240° 1012 hPa 88 %
15.05.2023 - 00:00 Uhr 10 °C 4 kmh aus 220° 1013 hPa 88 %
14.05.2023 - 12:00 Uhr 14 °C 8 kmh aus 40° 1015 hPa 77 %
14.05.2023 - 06:00 Uhr 10 °C 4 kmh aus 330° 1016 hPa 94 %
13.05.2023 - 18:00 Uhr 14 °C 10 kmh aus 100° 1017 hPa 72 %
13.05.2023 - 12:00 Uhr 11 °C 14 kmh aus 10° 1018 hPa 82 %
13.05.2023 - 06:00 Uhr 10 °C 10 kmh aus 20° 1016 hPa 82 %
13.05.2023 - 00:00 Uhr 11 °C 18 kmh aus 30° 1016 hPa 88 %
12.05.2023 - 18:00 Uhr 14 °C 16 kmh aus 50° 1014 hPa 77 %
12.05.2023 - 12:00 Uhr 14 °C 6 kmh variabel 1014 hPa 77 %
12.05.2023 - 06:00 Uhr 10 °C 2 kmh aus 70° 1013 hPa 94 %
12.05.2023 - 00:00 Uhr 10 °C 2 kmh variabel 1013 hPa 94 %
11.05.2023 - 18:00 Uhr 13 °C 8 kmh aus 350° 1013 hPa 72 %
11.05.2023 - 12:00 Uhr 11 °C 4 kmh aus 170° 1014 hPa 88 %
11.05.2023 - 06:00 Uhr 10 °C 6 kmh aus 240° 1014 hPa 88 %
11.05.2023 - 00:00 Uhr 11 °C 8 kmh aus 230° 1014 hPa 88 %
10.05.2023 - 18:00 Uhr 15 °C 4 kmh variabel 1013 hPa 63 %
10.05.2023 - 06:00 Uhr 12 °C 8 kmh aus 260° 1012 hPa 94 %
10.05.2023 - 00:00 Uhr 14 °C 6 kmh aus 160° 1010 hPa 94 %
09.05.2023 - 18:00 Uhr 18 °C 4 kmh variabel 1010 hPa 73 %
09.05.2023 - 12:00 Uhr 18 °C 8 kmh aus 140° 1016 hPa 73 %
09.05.2023 - 06:00 Uhr 11 °C 2 kmh variabel 1018 hPa 10 %
09.05.2023 - 00:00 Uhr 13 °C 2 kmh variabel 1021 hPa 10 %
08.05.2023 - 06:00 Uhr 13 °C 0 kmh aus 0° 1020 hPa 10 %
08.05.2023 - 00:00 Uhr 14 °C 2 kmh variabel 1020 hPa 94 %
07.05.2023 - 12:00 Uhr 21 °C 6 kmh variabel 1016 hPa 57 %
07.05.2023 - 06:00 Uhr 10 °C 4 kmh aus 250° 1015 hPa 88 %
07.05.2023 - 00:00 Uhr 14 °C 4 kmh aus 90° 1016 hPa 77 %
06.05.2023 - 18:00 Uhr 20 °C 8 kmh aus 50° 1016 hPa 53 %
06.05.2023 - 12:00 Uhr 17 °C 6 kmh variabel 1018 hPa 73 %
06.05.2023 - 06:00 Uhr 11 °C 2 kmh variabel 1017 hPa 94 %
06.05.2023 - 00:00 Uhr 14 °C 4 kmh variabel 1018 hPa 94 %
05.05.2023 - 12:00 Uhr 18 °C 4 kmh variabel 1019 hPa 68 %
05.05.2023 - 06:00 Uhr 11 °C 4 kmh variabel 1018 hPa 88 %
05.05.2023 - 00:00 Uhr 13 °C 4 kmh variabel 1017 hPa 72 %
04.05.2023 - 18:00 Uhr 21 °C 18 kmh aus 70° 1017 hPa 43 %
04.05.2023 - 12:00 Uhr 19 °C 16 kmh aus 90° 1020 hPa 46 %
04.05.2023 - 06:00 Uhr 5 °C 2 kmh variabel 1021 hPa 87 %
04.05.2023 - 00:00 Uhr 11 °C 4 kmh aus 60° 1022 hPa 67 %
03.05.2023 - 18:00 Uhr 18 °C 12 kmh aus 80° 1022 hPa 46 %
03.05.2023 - 12:00 Uhr 14 °C 12 kmh aus 20° 1025 hPa 72 %
03.05.2023 - 06:00 Uhr 7 °C 10 kmh aus 340° 1024 hPa 87 %
03.05.2023 - 00:00 Uhr 11 °C 12 kmh aus 340° 1024 hPa 72 %
02.05.2023 - 18:00 Uhr 16 °C 25 kmh aus 320° 1022 hPa 55 %
02.05.2023 - 12:00 Uhr 14 °C 8 kmh aus 340° 1022 hPa 72 %
02.05.2023 - 06:00 Uhr 7 °C 4 kmh aus 210° 1019 hPa 93 %
02.05.2023 - 00:00 Uhr 9 °C 6 kmh aus 260° 1017 hPa 94 %
01.05.2023 - 12:00 Uhr 14 °C 4 kmh variabel 1014 hPa 63 %
01.05.2023 - 06:00 Uhr 9 °C 2 kmh aus 230° 1014 hPa 82 %
01.05.2023 - 00:00 Uhr 10 °C 4 kmh variabel 1017 hPa 76 %
30.04.2023 - 18:00 Uhr 16 °C 21 kmh aus 60° 1017 hPa 52 %
30.04.2023 - 12:00 Uhr 14 °C 16 kmh aus 80° 1019 hPa 59 %
30.04.2023 - 06:00 Uhr 9 °C 14 kmh aus 40° 1019 hPa 87 %
30.04.2023 - 00:00 Uhr 11 °C 10 kmh aus 350° 1019 hPa 82 %
29.04.2023 - 18:00 Uhr 14 °C 25 kmh aus 320° 1017 hPa 67 %
29.04.2023 - 12:00 Uhr 14 °C 20 kmh aus 340° 1016 hPa 77 %
29.04.2023 - 06:00 Uhr 10 °C 2 kmh variabel 1013 hPa 94 %
29.04.2023 - 00:00 Uhr 14 °C 6 kmh aus 290° 1013 hPa 88 %
28.04.2023 - 12:00 Uhr 14 °C 10 kmh aus 240° 1013 hPa 94 %
28.04.2023 - 06:00 Uhr 10 °C 2 kmh aus 310° 1013 hPa 88 %
28.04.2023 - 00:00 Uhr 11 °C 2 kmh variabel 1015 hPa 72 %
27.04.2023 - 19:26 Uhr 15 °C 12 kmh aus 10° 1016 hPa 51 %
26.04.2023 - 06:00 Uhr 3 °C 2 kmh aus 250° 1017 hPa 87 %
26.04.2023 - 00:00 Uhr 7 °C 2 kmh variabel 1016 hPa 81 %
25.04.2023 - 18:00 Uhr 9 °C 12 kmh aus 280° 1013 hPa 66 %
25.04.2023 - 12:00 Uhr 6 °C 12 kmh aus 230° 1012 hPa 93 %
25.04.2023 - 06:00 Uhr 7 °C 6 kmh aus 220° 1009 hPa 81 %
25.04.2023 - 00:00 Uhr 7 °C 2 kmh variabel 1011 hPa 81 %
24.04.2023 - 12:00 Uhr 12 °C 48 kmh aus 270° 1009 hPa 54 %
24.04.2023 - 06:00 Uhr 10 °C 10 kmh aus 200° 1006 hPa 82 %
24.04.2023 - 00:00 Uhr 10 °C 4 kmh variabel 1007 hPa 88 %
23.04.2023 - 12:00 Uhr 16 °C 8 kmh variabel 1009 hPa 59 %
23.04.2023 - 06:00 Uhr 11 °C 4 kmh aus 190° 1011 hPa 88 %
23.04.2023 - 00:00 Uhr 13 °C 4 kmh variabel 1010 hPa 77 %
22.04.2023 - 18:00 Uhr 20 °C 14 kmh aus 240° 1009 hPa 46 %
22.04.2023 - 12:00 Uhr 18 °C 8 kmh aus 120° 1010 hPa 56 %
22.04.2023 - 06:00 Uhr 8 °C 0 kmh aus 0° 1010 hPa 93 %
22.04.2023 - 00:00 Uhr 12 °C 2 kmh variabel 1010 hPa 77 %
21.04.2023 - 18:00 Uhr 18 °C 20 kmh aus 70° 1009 hPa 56 %
21.04.2023 - 12:00 Uhr 11 °C 2 kmh variabel 1012 hPa 72 %
21.04.2023 - 06:00 Uhr 2 °C 4 kmh variabel 1012 hPa 10 %
21.04.2023 - 00:00 Uhr 5 °C 6 kmh aus 80° 1012 hPa 10 %
20.04.2023 - 18:00 Uhr 6 °C 12 kmh aus 80° 1012 hPa 87 %
20.04.2023 - 12:00 Uhr 5 °C 16 kmh aus 60° 1013 hPa 81 %
20.04.2023 - 06:00 Uhr 1 °C 2 kmh aus 320° 1013 hPa 87 %
20.04.2023 - 00:00 Uhr 4 °C 8 kmh aus 50° 1017 hPa 70 %
19.04.2023 - 18:00 Uhr 9 °C 6 kmh aus 140° 1017 hPa 82 %
19.04.2023 - 12:00 Uhr 12 °C 14 kmh aus 60° 1020 hPa 67 %
19.04.2023 - 06:00 Uhr 8 °C 10 kmh aus 30° 1020 hPa 87 %
19.04.2023 - 00:00 Uhr 10 °C 18 kmh aus 60° 1022 hPa 76 %
18.04.2023 - 18:00 Uhr 12 °C 16 kmh aus 70° 1020 hPa 67 %
18.04.2023 - 12:00 Uhr 10 °C 18 kmh aus 40° 1020 hPa 76 %
18.04.2023 - 06:00 Uhr 7 °C 14 kmh aus 40° 1019 hPa 87 %
18.04.2023 - 00:00 Uhr 8 °C 10 kmh aus 40° 1021 hPa 82 %
17.04.2023 - 18:00 Uhr 10 °C 20 kmh aus 10° 1020 hPa 76 %
17.04.2023 - 06:00 Uhr 7 °C 16 kmh aus 360° 1020 hPa 93 %
17.04.2023 - 00:00 Uhr 8 °C 14 kmh aus 350° 1020 hPa 93 %
16.04.2023 - 18:00 Uhr 8 °C 20 kmh aus 310° 1019 hPa 93 %
16.04.2023 - 12:00 Uhr 8 °C 21 kmh aus 300° 1019 hPa 87 %
16.04.2023 - 06:00 Uhr 7 °C 21 kmh aus 300° 1016 hPa 93 %
16.04.2023 - 00:00 Uhr 7 °C 20 kmh aus 300° 1014 hPa 93 %
15.04.2023 - 18:00 Uhr 9 °C 21 kmh aus 300° 1011 hPa 62 %
15.04.2023 - 12:00 Uhr 12 °C 4 kmh variabel 1007 hPa 58 %
15.04.2023 - 06:00 Uhr 0 °C 4 kmh variabel 1006 hPa 93 %
15.04.2023 - 00:00 Uhr 4 °C 8 kmh aus 280° 1006 hPa 75 %
14.04.2023 - 18:00 Uhr 13 °C 10 kmh aus 350° 1006 hPa 38 %
14.04.2023 - 12:00 Uhr 10 °C 6 kmh aus 100° 1009 hPa 67 %
14.04.2023 - 06:00 Uhr 2 °C 2 kmh variabel 1008 hPa 93 %
14.04.2023 - 00:00 Uhr 5 °C 6 kmh aus 250° 1008 hPa 87 %
13.04.2023 - 12:00 Uhr 9 °C 12 kmh aus 200° 1006 hPa 66 %
13.04.2023 - 06:00 Uhr 6 °C 16 kmh aus 200° 1005 hPa 71 %
13.04.2023 - 00:00 Uhr 7 °C 10 kmh aus 220° 1004 hPa 81 %
12.04.2023 - 12:00 Uhr 11 °C 12 kmh aus 180° 1003 hPa 82 %
12.04.2023 - 06:00 Uhr 6 °C 8 kmh aus 130° 1008 hPa 10 %
12.04.2023 - 00:00 Uhr 8 °C 6 kmh aus 180° 1013 hPa 66 %
11.04.2023 - 18:00 Uhr 12 °C 27 kmh aus 270° 1015 hPa 44 %
11.04.2023 - 12:00 Uhr 10 °C 37 kmh aus 280° 1016 hPa 62 %
11.04.2023 - 06:00 Uhr 9 °C 12 kmh aus 280° 1013 hPa 87 %
11.04.2023 - 00:00 Uhr 14 °C 12 kmh aus 220° 1015 hPa 48 %
10.04.2023 - 18:00 Uhr 16 °C 16 kmh aus 140° 1016 hPa 36 %
10.04.2023 - 12:00 Uhr 14 °C 14 kmh aus 140° 1021 hPa 41 %
10.04.2023 - 06:00 Uhr 3 °C 2 kmh variabel 1022 hPa 81 %
10.04.2023 - 00:00 Uhr 5 °C 6 kmh aus 90° 1023 hPa 76 %
09.04.2023 - 18:00 Uhr 12 °C 18 kmh aus 110° 1022 hPa 47 %
09.04.2023 - 12:00 Uhr 10 °C 18 kmh aus 100° 1024 hPa 62 %
09.04.2023 - 06:00 Uhr 5 °C 2 kmh variabel 1023 hPa 87 %
09.04.2023 - 00:00 Uhr 7 °C 4 kmh aus 80° 1023 hPa 76 %
08.04.2023 - 18:00 Uhr 9 °C 18 kmh aus 30° 1021 hPa 66 %
08.04.2023 - 12:00 Uhr 9 °C 8 kmh aus 10° 1021 hPa 71 %
08.04.2023 - 06:00 Uhr 6 °C 8 kmh aus 290° 1019 hPa 93 %
08.04.2023 - 00:00 Uhr 7 °C 4 kmh aus 240° 1019 hPa 87 %
07.04.2023 - 18:00 Uhr 10 °C 8 kmh aus 320° 1015 hPa 71 %
07.04.2023 - 12:00 Uhr 10 °C 6 kmh aus 110° 1015 hPa 67 %
07.04.2023 - 06:00 Uhr 5 °C 4 kmh variabel 1015 hPa 93 %
07.04.2023 - 00:00 Uhr 7 °C 8 kmh aus 220° 1018 hPa 71 %
06.04.2023 - 18:00 Uhr 12 °C 4 kmh variabel 1016 hPa 33 %
06.04.2023 - 12:00 Uhr 9 °C 6 kmh variabel 1019 hPa 43 %
06.04.2023 - 06:00 Uhr -3 °C 2 kmh aus 270° 1018 hPa 80 %
06.04.2023 - 00:00 Uhr 3 °C 8 kmh aus 260° 1019 hPa 60 %
05.04.2023 - 18:00 Uhr 8 °C 4 kmh variabel 1018 hPa 37 %
05.04.2023 - 12:00 Uhr 5 °C 6 kmh variabel 1021 hPa 45 %
05.04.2023 - 06:00 Uhr -2 °C 4 kmh aus 270° 1020 hPa 74 %
05.04.2023 - 00:00 Uhr 1 °C 10 kmh aus 50° 1022 hPa 65 %
04.04.2023 - 18:00 Uhr 7 °C 16 kmh aus 50° 1022 hPa 39 %
04.04.2023 - 12:00 Uhr 4 °C 16 kmh aus 80° 1024 hPa 52 %
04.04.2023 - 06:00 Uhr -3 °C 12 kmh aus 40° 1023 hPa 74 %
04.04.2023 - 00:00 Uhr 1 °C 21 kmh aus 50° 1024 hPa 65 %
03.04.2023 - 18:00 Uhr 5 °C 21 kmh aus 40° 1024 hPa 53 %
03.04.2023 - 12:00 Uhr 5 °C 25 kmh aus 40° 1025 hPa 57 %
03.04.2023 - 06:00 Uhr 2 °C 14 kmh aus 50° 1023 hPa 75 %
03.04.2023 - 00:00 Uhr 3 °C 16 kmh aus 30° 1023 hPa 81 %
02.04.2023 - 18:00 Uhr 8 °C 16 kmh aus 20° 1017 hPa 93 %
02.04.2023 - 12:00 Uhr 10 °C 4 kmh variabel 1014 hPa 71 %
02.04.2023 - 00:00 Uhr 8 °C 12 kmh aus 230° 1007 hPa 82 %
01.04.2023 - 18:00 Uhr 10 °C 23 kmh aus 230° 1004 hPa 71 %
01.04.2023 - 12:00 Uhr 9 °C 29 kmh aus 230° 1003 hPa 76 %
01.04.2023 - 06:00 Uhr 7 °C 18 kmh aus 200° 1003 hPa 81 %
31.03.2023 - 18:00 Uhr 10 °C 20 kmh aus 220° 1001 hPa 76 %
31.03.2023 - 06:00 Uhr 9 °C 8 kmh aus 140° 1006 hPa 82 %
31.03.2023 - 00:00 Uhr 11 °C 10 kmh aus 220° 1012 hPa 67 %
30.03.2023 - 12:00 Uhr 12 °C 16 kmh aus 200° 1013 hPa 82 %
30.03.2023 - 06:00 Uhr 12 °C 10 kmh aus 180° 1012 hPa 82 %
30.03.2023 - 00:00 Uhr 15 °C 12 kmh aus 200° 1014 hPa 51 %
29.03.2023 - 18:00 Uhr 14 °C 8 kmh aus 60° 1016 hPa 63 %
29.03.2023 - 12:00 Uhr 11 °C 8 kmh variabel 1018 hPa 54 %
29.03.2023 - 06:00 Uhr 6 °C 6 kmh aus 240° 1018 hPa 76 %
29.03.2023 - 00:00 Uhr 6 °C 4 kmh variabel 1021 hPa 66 %
28.03.2023 - 18:00 Uhr 9 °C 12 kmh aus 140° 1023 hPa 43 %
28.03.2023 - 12:00 Uhr 5 °C 4 kmh variabel 1027 hPa 57 %
28.03.2023 - 06:00 Uhr -2 °C 14 kmh aus 280° 1025 hPa 86 %
28.03.2023 - 00:00 Uhr 1 °C 12 kmh aus 270° 1023 hPa 87 %
27.03.2023 - 12:00 Uhr 4 °C 27 kmh aus 320° 1018 hPa 61 %
27.03.2023 - 06:00 Uhr 3 °C 25 kmh aus 300° 1010 hPa 87 %
27.03.2023 - 00:00 Uhr 5 °C 8 kmh aus 220° 1004 hPa 87 %
26.03.2023 - 06:00 Uhr 7 °C 6 kmh aus 220° 1009 hPa 81 %
26.03.2023 - 00:00 Uhr 7 °C 8 kmh aus 220° 1012 hPa 81 %
25.03.2023 - 18:00 Uhr 11 °C 23 kmh aus 230° 1011 hPa 58 %
25.03.2023 - 06:00 Uhr 6 °C 10 kmh aus 210° 1010 hPa 87 %
24.03.2023 - 18:00 Uhr 12 °C 16 kmh aus 230° 1008 hPa 77 %
24.03.2023 - 12:00 Uhr 15 °C 23 kmh aus 220° 1008 hPa 72 %
24.03.2023 - 06:00 Uhr 14 °C 8 kmh aus 230° 1006 hPa 59 %
24.03.2023 - 00:00 Uhr 11 °C 4 kmh variabel 1008 hPa 77 %
23.03.2023 - 12:00 Uhr 16 °C 23 kmh aus 240° 1011 hPa 59 %
23.03.2023 - 06:00 Uhr 12 °C 8 kmh aus 250° 1009 hPa 63 %
23.03.2023 - 00:00 Uhr 11 °C 10 kmh aus 240° 1011 hPa 67 %
22.03.2023 - 18:00 Uhr 16 °C 16 kmh aus 250° 1011 hPa 45 %
22.03.2023 - 12:00 Uhr 16 °C 16 kmh aus 230° 1013 hPa 52 %
22.03.2023 - 06:00 Uhr 6 °C 4 kmh variabel 1014 hPa 81 %
22.03.2023 - 00:00 Uhr 11 °C 4 kmh variabel 1015 hPa 72 %
21.03.2023 - 18:00 Uhr 13 °C 12 kmh aus 350° 1015 hPa 59 %
21.03.2023 - 12:00 Uhr 14 °C 6 kmh variabel 1016 hPa 55 %
21.03.2023 - 06:00 Uhr 7 °C 2 kmh aus 360° 1017 hPa 81 %
21.03.2023 - 00:00 Uhr 8 °C 4 kmh variabel 1019 hPa 76 %
20.03.2023 - 18:00 Uhr 11 °C 16 kmh aus 250° 1019 hPa 62 %
20.03.2023 - 12:00 Uhr 11 °C 12 kmh aus 230° 1021 hPa 67 %
20.03.2023 - 06:00 Uhr 8 °C 4 kmh aus 170° 1019 hPa 82 %
20.03.2023 - 00:00 Uhr 9 °C 2 kmh variabel 1018 hPa 82 %
19.03.2023 - 12:00 Uhr 15 °C 12 kmh aus 230° 1015 hPa 51 %
19.03.2023 - 06:00 Uhr 8 °C 4 kmh aus 100° 1015 hPa 87 %
19.03.2023 - 00:00 Uhr 8 °C 6 kmh aus 260° 1013 hPa 76 %
18.03.2023 - 18:00 Uhr 16 °C 14 kmh aus 320° 1011 hPa 48 %
18.03.2023 - 12:00 Uhr 16 °C 6 kmh variabel 1013 hPa 39 %
18.03.2023 - 06:00 Uhr 6 °C 4 kmh variabel 1013 hPa 76 %
18.03.2023 - 00:00 Uhr 11 °C 10 kmh aus 230° 1012 hPa 58 %
17.03.2023 - 18:00 Uhr 15 °C 2 kmh aus 230° 1009 hPa 55 %
17.03.2023 - 12:00 Uhr 14 °C 4 kmh variabel 1011 hPa 51 %
17.03.2023 - 06:00 Uhr 2 °C 2 kmh variabel 1012 hPa 81 %
17.03.2023 - 00:00 Uhr 4 °C 6 kmh aus 80° 1014 hPa 75 %
16.03.2023 - 18:00 Uhr 10 °C 6 kmh aus 130° 1015 hPa 62 %
16.03.2023 - 12:00 Uhr 8 °C 8 kmh aus 140° 1018 hPa 57 %
16.03.2023 - 06:00 Uhr -4 °C 4 kmh aus 260° 1019 hPa 10 %
16.03.2023 - 00:00 Uhr -1 °C 4 kmh aus 70° 1020 hPa 10 %
15.03.2023 - 12:00 Uhr 5 °C 16 kmh aus 230° 1018 hPa 61 %
15.03.2023 - 06:00 Uhr -1 °C 8 kmh aus 240° 1016 hPa 86 %
14.03.2023 - 18:00 Uhr 8 °C 21 kmh aus 240° 1005 hPa 53 %
14.03.2023 - 12:00 Uhr 12 °C 31 kmh aus 230° 997 hPa 63 %
14.03.2023 - 06:00 Uhr 9 °C 18 kmh aus 200° 997 hPa 76 %
13.03.2023 - 18:00 Uhr 19 °C 12 kmh aus 200° 999 hPa 49 %
13.03.2023 - 12:00 Uhr 16 °C 23 kmh aus 220° 1007 hPa 63 %
13.03.2023 - 06:00 Uhr 11 °C 14 kmh aus 220° 1008 hPa 72 %
13.03.2023 - 00:00 Uhr 5 °C 4 kmh variabel 1012 hPa 87 %
12.03.2023 - 18:00 Uhr 11 °C 10 kmh aus 220° 1012 hPa 62 %
12.03.2023 - 00:00 Uhr -1 °C 10 kmh aus 270° 1012 hPa 80 %
11.03.2023 - 18:00 Uhr 4 °C 10 kmh aus 10° 1009 hPa 56 %
11.03.2023 - 12:00 Uhr 4 °C 8 kmh variabel 1009 hPa 48 %
11.03.2023 - 06:00 Uhr -1 °C 16 kmh aus 270° 1007 hPa 75 %
10.03.2023 - 12:00 Uhr 10 °C 21 kmh aus 200° 993 hPa 76 %
10.03.2023 - 06:00 Uhr 9 °C 16 kmh aus 200° 994 hPa 82 %
10.03.2023 - 00:00 Uhr 10 °C 21 kmh aus 230° 997 hPa 62 %
09.03.2023 - 18:00 Uhr 12 °C 18 kmh aus 230° 1001 hPa 58 %
09.03.2023 - 12:00 Uhr 12 °C 31 kmh aus 240° 1002 hPa 67 %
09.03.2023 - 06:00 Uhr 9 °C 25 kmh aus 250° 997 hPa 76 %
09.03.2023 - 00:00 Uhr 11 °C 12 kmh aus 240° 994 hPa 82 %
08.03.2023 - 18:00 Uhr 11 °C 33 kmh aus 230° 993 hPa 77 %
08.03.2023 - 12:00 Uhr 9 °C 25 kmh aus 220° 995 hPa 66 %
08.03.2023 - 06:00 Uhr 3 °C 8 kmh aus 200° 1000 hPa 60 %
08.03.2023 - 00:00 Uhr 4 °C 20 kmh aus 210° 1002 hPa 56 %
07.03.2023 - 12:00 Uhr 4 °C 23 kmh aus 240° 1001 hPa 56 %
07.03.2023 - 06:00 Uhr 2 °C 12 kmh aus 220° 1003 hPa 70 %
07.03.2023 - 00:00 Uhr 2 °C 8 kmh aus 200° 1005 hPa 75 %
06.03.2023 - 18:00 Uhr 3 °C 16 kmh aus 250° 1005 hPa 70 %
06.03.2023 - 12:00 Uhr 4 °C 25 kmh aus 270° 1006 hPa 65 %
06.03.2023 - 06:00 Uhr 1 °C 8 kmh aus 270° 1006 hPa 75 %
06.03.2023 - 00:00 Uhr 2 °C 4 kmh variabel 1009 hPa 75 %
05.03.2023 - 18:00 Uhr 3 °C 8 kmh aus 300° 1012 hPa 70 %
05.03.2023 - 12:00 Uhr 4 °C 4 kmh variabel 1016 hPa 70 %
05.03.2023 - 06:00 Uhr 1 °C 4 kmh variabel 1017 hPa 87 %
05.03.2023 - 00:00 Uhr 2 °C 6 kmh aus 250° 1020 hPa 75 %
04.03.2023 - 18:00 Uhr 2 °C 8 kmh aus 340° 1021 hPa 70 %
04.03.2023 - 12:00 Uhr 1 °C 12 kmh aus 340° 1023 hPa 75 %
04.03.2023 - 06:00 Uhr -3 °C 6 kmh aus 250° 1021 hPa 86 %
04.03.2023 - 00:00 Uhr 0 °C 6 kmh aus 220° 1021 hPa 80 %
03.03.2023 - 18:00 Uhr 7 °C 10 kmh aus 320° 1019 hPa 57 %
03.03.2023 - 12:00 Uhr 6 °C 6 kmh aus 30° 1020 hPa 61 %
03.03.2023 - 06:00 Uhr 1 °C 2 kmh aus 260° 1018 hPa 87 %
03.03.2023 - 00:00 Uhr 1 °C 2 kmh variabel 1018 hPa 87 %
02.03.2023 - 18:00 Uhr 7 °C 8 kmh aus 230° 1016 hPa 61 %
02.03.2023 - 12:00 Uhr 5 °C 4 kmh variabel 1017 hPa 66 %
02.03.2023 - 06:00 Uhr -1 °C 10 kmh aus 360° 1016 hPa 80 %
02.03.2023 - 00:00 Uhr 1 °C 12 kmh aus 30° 1017 hPa 75 %
01.03.2023 - 18:00 Uhr 6 °C 20 kmh aus 20° 1017 hPa 53 %
01.03.2023 - 12:00 Uhr 4 °C 20 kmh aus 80° 1020 hPa 56 %
01.03.2023 - 06:00 Uhr -1 °C 10 kmh aus 20° 1022 hPa 75 %
01.03.2023 - 00:00 Uhr -1 °C 8 kmh aus 40° 1024 hPa 69 %
28.02.2023 - 18:00 Uhr 3 °C 18 kmh aus 60° 1023 hPa 56 %
28.02.2023 - 12:00 Uhr 1 °C 21 kmh aus 80° 1024 hPa 60 %
28.02.2023 - 06:00 Uhr -2 °C 21 kmh aus 40° 1022 hPa 74 %
28.02.2023 - 00:00 Uhr -2 °C 20 kmh aus 40° 1023 hPa 64 %
27.02.2023 - 18:00 Uhr 0 °C 31 kmh aus 60° 1023 hPa 55 %
27.02.2023 - 12:00 Uhr 1 °C 35 kmh aus 50° 1022 hPa 56 %
27.02.2023 - 06:00 Uhr -4 °C 21 kmh aus 50° 1020 hPa 80 %
27.02.2023 - 00:00 Uhr -3 °C 23 kmh aus 40° 1020 hPa 74 %
26.02.2023 - 18:00 Uhr 0 °C 31 kmh aus 40° 1017 hPa 60 %
26.02.2023 - 12:00 Uhr -1 °C 21 kmh aus 30° 1015 hPa 75 %
26.02.2023 - 06:00 Uhr -4 °C 10 kmh aus 360° 1012 hPa 86 %
26.02.2023 - 00:00 Uhr -1 °C 18 kmh aus 10° 1010 hPa 80 %
25.02.2023 - 12:00 Uhr 4 °C 23 kmh aus 280° 1006 hPa 56 %
25.02.2023 - 06:00 Uhr 3 °C 14 kmh aus 300° 1006 hPa 75 %
25.02.2023 - 00:00 Uhr 3 °C 16 kmh aus 300° 1004 hPa 93 %
24.02.2023 - 12:00 Uhr 9 °C 10 kmh aus 230° 1007 hPa 82 %
24.02.2023 - 06:00 Uhr 7 °C 2 kmh aus 320° 1010 hPa 10 %
24.02.2023 - 00:00 Uhr 7 °C 8 kmh aus 280° 1012 hPa 10 %
23.02.2023 - 18:00 Uhr 10 °C 8 kmh aus 310° 1012 hPa 82 %
23.02.2023 - 12:00 Uhr 12 °C 6 kmh aus 260° 1013 hPa 72 %
23.02.2023 - 06:00 Uhr 6 °C 2 kmh aus 20° 1012 hPa 93 %
23.02.2023 - 00:00 Uhr 6 °C 4 kmh variabel 1013 hPa 81 %
22.02.2023 - 12:00 Uhr 11 °C 6 kmh aus 90° 1013 hPa 62 %
22.02.2023 - 06:00 Uhr 0 °C 2 kmh aus 90° 1014 hPa 10 %
22.02.2023 - 00:00 Uhr 4 °C 2 kmh variabel 1016 hPa 81 %
21.02.2023 - 18:00 Uhr 13 °C 8 kmh aus 20° 1016 hPa 51 %
21.02.2023 - 12:00 Uhr 12 °C 6 kmh aus 90° 1020 hPa 58 %
21.02.2023 - 06:00 Uhr 1 °C 2 kmh variabel 1021 hPa 87 %
21.02.2023 - 00:00 Uhr 4 °C 10 kmh aus 260° 1022 hPa 75 %
20.02.2023 - 18:00 Uhr 12 °C 12 kmh aus 250° 1022 hPa 38 %
20.02.2023 - 12:00 Uhr 11 °C 14 kmh aus 220° 1026 hPa 58 %
20.02.2023 - 06:00 Uhr 6 °C 8 kmh aus 220° 1027 hPa 81 %
20.02.2023 - 00:00 Uhr 7 °C 14 kmh aus 250° 1028 hPa 81 %
19.02.2023 - 12:00 Uhr 10 °C 31 kmh aus 250° 1025 hPa 67 %
19.02.2023 - 06:00 Uhr 9 °C 20 kmh aus 250° 1021 hPa 82 %
19.02.2023 - 00:00 Uhr 10 °C 16 kmh aus 260° 1022 hPa 82 %
18.02.2023 - 18:00 Uhr 13 °C 23 kmh aus 230° 1022 hPa 63 %
18.02.2023 - 12:00 Uhr 13 °C 25 kmh aus 250° 1024 hPa 67 %
18.02.2023 - 06:00 Uhr 9 °C 10 kmh aus 180° 1025 hPa 82 %
18.02.2023 - 00:00 Uhr 11 °C 18 kmh aus 220° 1026 hPa 82 %
17.02.2023 - 20:41 Uhr 12 °C 21 kmh aus 230° 1026 hPa 77 %
17.02.2023 - 18:00 Uhr 13 °C 20 kmh aus 220° 1024 hPa 72 %
17.02.2023 - 12:00 Uhr 12 °C 20 kmh aus 240° 1025 hPa 72 %
17.02.2023 - 10:07 Uhr 11 °C 20 kmh aus 230° 1025 hPa 72 %
17.02.2023 - 07:52 Uhr 9 °C 12 kmh aus 230° 1024 hPa 71 %
16.02.2023 - 13:47 Uhr 14 °C 14 kmh aus 230° 1026 hPa 41 %
16.02.2023 - 06:00 Uhr -2 °C 2 kmh variabel 1027 hPa 93 %
16.02.2023 - 00:00 Uhr 0 °C 4 kmh variabel 1027 hPa 87 %
15.02.2023 - 18:00 Uhr 8 °C 8 kmh aus 320° 1027 hPa 57 %
15.02.2023 - 12:00 Uhr 5 °C 6 kmh aus 80° 1028 hPa 76 %
15.02.2023 - 06:00 Uhr -4 °C 2 kmh variabel 1029 hPa 10 %
15.02.2023 - 00:00 Uhr -1 °C 4 kmh aus 20° 1030 hPa 93 %
14.02.2023 - 18:00 Uhr 6 °C 8 kmh aus 330° 1031 hPa 71 %
14.02.2023 - 12:00 Uhr 4 °C 8 kmh aus 100° 1034 hPa 75 %
14.02.2023 - 06:00 Uhr -4 °C 2 kmh aus 240° 1034 hPa 93 %
14.02.2023 - 00:00 Uhr -2 °C 4 kmh aus 80° 1035 hPa 10 %
13.02.2023 - 18:00 Uhr 3 °C 10 kmh aus 100° 1035 hPa 81 %
13.02.2023 - 12:00 Uhr 5 °C 8 kmh aus 140° 1036 hPa 76 %
13.02.2023 - 06:00 Uhr -3 °C 4 kmh variabel 1036 hPa 93 %
13.02.2023 - 00:00 Uhr 1 °C 4 kmh variabel 1036 hPa 93 %
12.02.2023 - 18:00 Uhr 5 °C 10 kmh aus 80° 1035 hPa 81 %
12.02.2023 - 12:00 Uhr 6 °C 14 kmh aus 70° 1037 hPa 81 %
12.02.2023 - 06:00 Uhr 2 °C 2 kmh variabel 1037 hPa 93 %
12.02.2023 - 00:00 Uhr 3 °C 2 kmh variabel 1036 hPa 87 %
11.02.2023 - 18:00 Uhr 6 °C 14 kmh aus 350° 1035 hPa 71 %
11.02.2023 - 12:00 Uhr 6 °C 4 kmh variabel 1035 hPa 57 %
11.02.2023 - 06:00 Uhr -4 °C 4 kmh variabel 1036 hPa 93 %
11.02.2023 - 00:00 Uhr -4 °C 2 kmh variabel 1037 hPa 80 %
10.02.2023 - 18:00 Uhr 2 °C 2 kmh aus 120° 1037 hPa 65 %
10.02.2023 - 12:00 Uhr 2 °C 8 kmh aus 120° 1038 hPa 75 %
10.02.2023 - 06:00 Uhr -6 °C 4 kmh aus 50° 1036 hPa 93 %
10.02.2023 - 00:00 Uhr -3 °C 4 kmh variabel 1035 hPa 80 %
09.02.2023 - 18:00 Uhr 0 °C 6 kmh aus 30° 1032 hPa 69 %
09.02.2023 - 12:00 Uhr 0 °C 6 kmh aus 100° 1032 hPa 69 %
09.02.2023 - 06:00 Uhr -7 °C 4 kmh aus 90° 1031 hPa 86 %
09.02.2023 - 00:00 Uhr -5 °C 4 kmh variabel 1032 hPa 86 %
08.02.2023 - 18:00 Uhr 0 °C 8 kmh aus 120° 1033 hPa 64 %
08.02.2023 - 12:00 Uhr 1 °C 23 kmh aus 80° 1035 hPa 56 %
08.02.2023 - 06:00 Uhr -5 °C 8 kmh aus 10° 1035 hPa 68 %
08.02.2023 - 00:00 Uhr -3 °C 6 kmh aus 50° 1036 hPa 69 %
07.02.2023 - 18:00 Uhr 0 °C 16 kmh aus 80° 1036 hPa 60 %
07.02.2023 - 12:00 Uhr 0 °C 14 kmh aus 70° 1036 hPa 64 %
07.02.2023 - 06:00 Uhr -4 °C 12 kmh aus 60° 1035 hPa 80 %
07.02.2023 - 00:00 Uhr 0 °C 18 kmh aus 80° 1034 hPa 80 %
06.02.2023 - 18:00 Uhr 1 °C 6 kmh aus 40° 1035 hPa 75 %
06.02.2023 - 12:00 Uhr 1 °C 10 kmh aus 50° 1036 hPa 81 %
06.02.2023 - 06:00 Uhr 1 °C 12 kmh aus 360° 1037 hPa 93 %
06.02.2023 - 00:00 Uhr 1 °C 12 kmh aus 340° 1036 hPa 10 %
05.02.2023 - 18:00 Uhr 2 °C 10 kmh aus 320° 1033 hPa 93 %
05.02.2023 - 12:00 Uhr 3 °C 2 kmh variabel 1033 hPa 87 %
05.02.2023 - 06:00 Uhr 0 °C 4 kmh variabel 1035 hPa 93 %
05.02.2023 - 00:00 Uhr 0 °C 0 kmh aus 0° 1036 hPa 93 %
04.02.2023 - 18:00 Uhr 5 °C 10 kmh aus 340° 1035 hPa 70 %
04.02.2023 - 12:00 Uhr 7 °C 8 kmh aus 20° 1034 hPa 71 %
04.02.2023 - 06:00 Uhr 5 °C 14 kmh aus 290° 1031 hPa 93 %
04.02.2023 - 00:00 Uhr 7 °C 37 kmh aus 260° 1029 hPa 87 %
03.02.2023 - 18:00 Uhr 6 °C 21 kmh aus 230° 1028 hPa 87 %
03.02.2023 - 12:00 Uhr 6 °C 16 kmh aus 220° 1029 hPa 87 %
03.02.2023 - 06:00 Uhr 5 °C 14 kmh aus 220° 1029 hPa 87 %
03.02.2023 - 00:00 Uhr 5 °C 12 kmh aus 220° 1029 hPa 81 %
02.02.2023 - 18:00 Uhr 6 °C 20 kmh aus 250° 1028 hPa 76 %
02.02.2023 - 12:00 Uhr 5 °C 23 kmh aus 230° 1026 hPa 87 %
02.02.2023 - 06:00 Uhr 4 °C 23 kmh aus 230° 1023 hPa 87 %
02.02.2023 - 00:00 Uhr 4 °C 27 kmh aus 230° 1023 hPa 81 %
01.02.2023 - 18:00 Uhr 5 °C 18 kmh aus 230° 1023 hPa 70 %
01.02.2023 - 12:00 Uhr 5 °C 16 kmh aus 230° 1023 hPa 76 %
01.02.2023 - 06:00 Uhr 4 °C 12 kmh aus 210° 1022 hPa 81 %
01.02.2023 - 00:00 Uhr 4 °C 27 kmh aus 240° 1024 hPa 75 %
31.01.2023 - 18:00 Uhr 4 °C 16 kmh aus 230° 1024 hPa 70 %
31.01.2023 - 12:00 Uhr 4 °C 16 kmh aus 220° 1026 hPa 70 %
31.01.2023 - 06:00 Uhr -1 °C 10 kmh aus 240° 1026 hPa 93 %
31.01.2023 - 00:00 Uhr 2 °C 21 kmh aus 240° 1026 hPa 87 %
30.01.2023 - 18:00 Uhr 2 °C 12 kmh aus 220° 1022 hPa 87 %
30.01.2023 - 12:00 Uhr 3 °C 31 kmh aus 230° 1019 hPa 70 %
30.01.2023 - 06:00 Uhr -1 °C 16 kmh aus 220° 1021 hPa 75 %
30.01.2023 - 00:00 Uhr -3 °C 12 kmh aus 260° 1024 hPa 86 %
29.01.2023 - 18:00 Uhr -1 °C 4 kmh aus 240° 1025 hPa 80 %
29.01.2023 - 12:00 Uhr 0 °C 4 kmh variabel 1027 hPa 75 %
29.01.2023 - 06:00 Uhr -1 °C 8 kmh aus 360° 1027 hPa 80 %
29.01.2023 - 00:00 Uhr -1 °C 10 kmh aus 350° 1027 hPa 86 %
28.01.2023 - 18:00 Uhr 1 °C 16 kmh aus 20° 1026 hPa 81 %
28.01.2023 - 12:00 Uhr 1 °C 12 kmh aus 30° 1024 hPa 81 %
28.01.2023 - 06:00 Uhr 0 °C 12 kmh aus 20° 1022 hPa 87 %
28.01.2023 - 00:00 Uhr -1 °C 14 kmh aus 10° 1022 hPa 86 %
27.01.2023 - 18:00 Uhr -1 °C 14 kmh aus 20° 1021 hPa 80 %
27.01.2023 - 12:00 Uhr -1 °C 10 kmh aus 30° 1020 hPa 80 %
27.01.2023 - 06:00 Uhr -2 °C 14 kmh aus 340° 1018 hPa 86 %
27.01.2023 - 00:00 Uhr -2 °C 12 kmh aus 350° 1019 hPa 93 %
26.01.2023 - 18:00 Uhr -1 °C 8 kmh aus 350° 1019 hPa 86 %
26.01.2023 - 12:00 Uhr -1 °C 12 kmh aus 310° 1020 hPa 86 %
26.01.2023 - 06:00 Uhr -1 °C 6 kmh aus 10° 1019 hPa 93 %
26.01.2023 - 00:00 Uhr 0 °C 6 kmh aus 100° 1022 hPa 87 %
25.01.2023 - 18:00 Uhr 1 °C 4 kmh variabel 1025 hPa 87 %
25.01.2023 - 12:00 Uhr 1 °C 10 kmh aus 70° 1029 hPa 87 %
25.01.2023 - 06:00 Uhr 1 °C 12 kmh aus 40° 1031 hPa 93 %
25.01.2023 - 00:00 Uhr 1 °C 10 kmh aus 20° 1033 hPa 10 %
24.01.2023 - 18:00 Uhr 2 °C 12 kmh aus 30° 1033 hPa 87 %
24.01.2023 - 12:00 Uhr 2 °C 18 kmh aus 40° 1033 hPa 87 %
24.01.2023 - 06:00 Uhr 1 °C 18 kmh aus 50° 1031 hPa 93 %
24.01.2023 - 00:00 Uhr 2 °C 18 kmh aus 50° 1030 hPa 87 %
23.01.2023 - 18:00 Uhr 1 °C 21 kmh aus 10° 1029 hPa 87 %
23.01.2023 - 12:00 Uhr 0 °C 20 kmh aus 40° 1030 hPa 80 %
23.01.2023 - 06:00 Uhr -1 °C 8 kmh aus 50° 1029 hPa 93 %
23.01.2023 - 00:00 Uhr -1 °C 8 kmh aus 20° 1028 hPa 93 %
22.01.2023 - 18:00 Uhr 0 °C 6 kmh aus 340° 1026 hPa 87 %
22.01.2023 - 12:00 Uhr 0 °C 10 kmh aus 360° 1025 hPa 87 %
22.01.2023 - 06:00 Uhr -2 °C 8 kmh aus 340° 1023 hPa 93 %
22.01.2023 - 00:00 Uhr -2 °C 14 kmh aus 310° 1024 hPa 93 %
21.01.2023 - 18:00 Uhr -2 °C 14 kmh aus 350° 1024 hPa 86 %
21.01.2023 - 12:00 Uhr -3 °C 10 kmh aus 350° 1023 hPa 86 %
21.01.2023 - 06:00 Uhr -7 °C 6 kmh aus 310° 1021 hPa 93 %
21.01.2023 - 00:00 Uhr -4 °C 4 kmh aus 90° 1019 hPa 93 %
20.01.2023 - 18:00 Uhr -1 °C 4 kmh variabel 1017 hPa 75 %
20.01.2023 - 12:00 Uhr 0 °C 6 kmh aus 250° 1015 hPa 80 %